<?xml version="1.0" encoding="UTF-8" standalone="no" ?>
<gpx xmlns="http://www.topografix.com/GPX/1/1" xmlns:xsi="http://www.w3.org/2001/XMLSchema-instance" xsi:schemaLocation="http://www.topografix.com/GPX/1/1 http://www.topografix.com/GPX/1/1/gpx.xsd" version="1.1" creator="VisuGPX - https://www.visugpx.com">
  <metadata>
    <name>FigaBike 2012</name>
    <desc><![CDATA[Rando Sympa avec qqs partie technique]]></desc>
  </metadata>
  <trk>
    <name><![CDATA[Figabike]]></name>
    <trkseg>
      <trkpt lat="43.57147" lon="6.49673">
        <ele>318</ele>
        <time>2012-04-01T06:43:03Z</time>
      </trkpt>
      <trkpt lat="43.57121" lon="6.49682">
        <ele>321</ele>
        <time>2012-04-01T06:43:11Z</time>
      </trkpt>
      <trkpt lat="43.57112" lon="6.49684">
        <ele>321</ele>
        <time>2012-04-01T06:43:21Z</time>
      </trkpt>
      <trkpt lat="43.57104" lon="6.49683">
        <ele>321</ele>
        <time>2012-04-01T06:43:31Z</time>
      </trkpt>
      <trkpt lat="43.57096" lon="6.49679">
        <ele>321</ele>
        <time>2012-04-01T06:43:41Z</time>
      </trkpt>
      <trkpt lat="43.57086" lon="6.49668">
        <ele>322</ele>
        <time>2012-04-01T06:43:53Z</time>
      </trkpt>
      <trkpt lat="43.5707" lon="6.49662">
        <ele>322</ele>
        <time>2012-04-01T06:44:03Z</time>
      </trkpt>
      <trkpt lat="43.57058" lon="6.49666">
        <ele>322</ele>
        <time>2012-04-01T06:44:13Z</time>
      </trkpt>
      <trkpt lat="43.57048" lon="6.49674">
        <ele>322</ele>
        <time>2012-04-01T06:44:25Z</time>
      </trkpt>
      <trkpt lat="43.57036" lon="6.49675">
        <ele>321</ele>
        <time>2012-04-01T06:44:36Z</time>
      </trkpt>
      <trkpt lat="43.57028" lon="6.49673">
        <ele>319</ele>
        <time>2012-04-01T06:44:47Z</time>
      </trkpt>
      <trkpt lat="43.57022" lon="6.49677">
        <ele>319</ele>
        <time>2012-04-01T06:44:59Z</time>
      </trkpt>
      <trkpt lat="43.57018" lon="6.49672">
        <ele>323</ele>
        <time>2012-04-01T06:45:10Z</time>
      </trkpt>
      <trkpt lat="43.57005" lon="6.49666">
        <ele>324</ele>
        <time>2012-04-01T06:45:21Z</time>
      </trkpt>
      <trkpt lat="43.56999" lon="6.4967">
        <ele>324</ele>
        <time>2012-04-01T06:45:31Z</time>
      </trkpt>
      <trkpt lat="43.56991" lon="6.49664">
        <ele>324</ele>
        <time>2012-04-01T06:45:44Z</time>
      </trkpt>
      <trkpt lat="43.56985" lon="6.49654">
        <ele>324</ele>
        <time>2012-04-01T06:45:54Z</time>
      </trkpt>
      <trkpt lat="43.5697" lon="6.49648">
        <ele>324</ele>
        <time>2012-04-01T06:46:04Z</time>
      </trkpt>
      <trkpt lat="43.56953" lon="6.49646">
        <ele>326</ele>
        <time>2012-04-01T06:46:15Z</time>
      </trkpt>
      <trkpt lat="43.56938" lon="6.49663">
        <ele>330</ele>
        <time>2012-04-01T06:46:25Z</time>
      </trkpt>
      <trkpt lat="43.5692" lon="6.49686">
        <ele>332</ele>
        <time>2012-04-01T06:46:36Z</time>
      </trkpt>
      <trkpt lat="43.56911" lon="6.49687">
        <ele>329</ele>
        <time>2012-04-01T06:46:47Z</time>
      </trkpt>
      <trkpt lat="43.56901" lon="6.49692">
        <ele>326</ele>
        <time>2012-04-01T06:46:57Z</time>
      </trkpt>
      <trkpt lat="43.56894" lon="6.49701">
        <ele>328</ele>
        <time>2012-04-01T06:47:07Z</time>
      </trkpt>
      <trkpt lat="43.56886" lon="6.49703">
        <ele>338</ele>
        <time>2012-04-01T06:47:17Z</time>
      </trkpt>
      <trkpt lat="43.5688" lon="6.49682">
        <ele>342</ele>
        <time>2012-04-01T06:47:28Z</time>
      </trkpt>
      <trkpt lat="43.56912" lon="6.49661">
        <ele>328</ele>
        <time>2012-04-01T06:47:39Z</time>
      </trkpt>
      <trkpt lat="43.56949" lon="6.4964">
        <ele>314</ele>
        <time>2012-04-01T06:47:50Z</time>
      </trkpt>
      <trkpt lat="43.5696" lon="6.49609">
        <ele>313</ele>
        <time>2012-04-01T06:48:00Z</time>
      </trkpt>
      <trkpt lat="43.56979" lon="6.49573">
        <ele>318</ele>
        <time>2012-04-01T06:48:10Z</time>
      </trkpt>
      <trkpt lat="43.56994" lon="6.49535">
        <ele>318</ele>
        <time>2012-04-01T06:48:21Z</time>
      </trkpt>
      <trkpt lat="43.57015" lon="6.49504">
        <ele>323</ele>
        <time>2012-04-01T06:48:32Z</time>
      </trkpt>
      <trkpt lat="43.57042" lon="6.49514">
        <ele>323</ele>
        <time>2012-04-01T06:48:43Z</time>
      </trkpt>
      <trkpt lat="43.57071" lon="6.49553">
        <ele>323</ele>
        <time>2012-04-01T06:48:54Z</time>
      </trkpt>
      <trkpt lat="43.57096" lon="6.49591">
        <ele>323</ele>
        <time>2012-04-01T06:49:04Z</time>
      </trkpt>
      <trkpt lat="43.57118" lon="6.49621">
        <ele>323</ele>
        <time>2012-04-01T06:49:14Z</time>
      </trkpt>
      <trkpt lat="43.57141" lon="6.49608">
        <ele>322</ele>
        <time>2012-04-01T06:49:24Z</time>
      </trkpt>
      <trkpt lat="43.57158" lon="6.49595">
        <ele>322</ele>
        <time>2012-04-01T06:49:35Z</time>
      </trkpt>
      <trkpt lat="43.57171" lon="6.49581">
        <ele>325</ele>
        <time>2012-04-01T06:49:45Z</time>
      </trkpt>
      <trkpt lat="43.57181" lon="6.49563">
        <ele>331</ele>
        <time>2012-04-01T06:49:55Z</time>
      </trkpt>
      <trkpt lat="43.57189" lon="6.49543">
        <ele>335</ele>
        <time>2012-04-01T06:50:05Z</time>
      </trkpt>
      <trkpt lat="43.57204" lon="6.49531">
        <ele>339</ele>
        <time>2012-04-01T06:50:16Z</time>
      </trkpt>
      <trkpt lat="43.57225" lon="6.49516">
        <ele>339</ele>
        <time>2012-04-01T06:50:26Z</time>
      </trkpt>
      <trkpt lat="43.57245" lon="6.49507">
        <ele>339</ele>
        <time>2012-04-01T06:50:37Z</time>
      </trkpt>
      <trkpt lat="43.57261" lon="6.49487">
        <ele>339</ele>
        <time>2012-04-01T06:50:48Z</time>
      </trkpt>
      <trkpt lat="43.57272" lon="6.49469">
        <ele>345</ele>
        <time>2012-04-01T06:50:58Z</time>
      </trkpt>
      <trkpt lat="43.57281" lon="6.49442">
        <ele>346</ele>
        <time>2012-04-01T06:51:08Z</time>
      </trkpt>
      <trkpt lat="43.57289" lon="6.49412">
        <ele>346</ele>
        <time>2012-04-01T06:51:19Z</time>
      </trkpt>
      <trkpt lat="43.57303" lon="6.49371">
        <ele>345</ele>
        <time>2012-04-01T06:51:30Z</time>
      </trkpt>
      <trkpt lat="43.57301" lon="6.49348">
        <ele>345</ele>
        <time>2012-04-01T06:51:40Z</time>
      </trkpt>
      <trkpt lat="43.57285" lon="6.49319">
        <ele>348</ele>
        <time>2012-04-01T06:51:50Z</time>
      </trkpt>
      <trkpt lat="43.5729" lon="6.49289">
        <ele>348</ele>
        <time>2012-04-01T06:52:01Z</time>
      </trkpt>
      <trkpt lat="43.57302" lon="6.49264">
        <ele>349</ele>
        <time>2012-04-01T06:52:11Z</time>
      </trkpt>
      <trkpt lat="43.57317" lon="6.49238">
        <ele>351</ele>
        <time>2012-04-01T06:52:21Z</time>
      </trkpt>
      <trkpt lat="43.5733" lon="6.49208">
        <ele>351</ele>
        <time>2012-04-01T06:52:31Z</time>
      </trkpt>
      <trkpt lat="43.57319" lon="6.49202">
        <ele>355</ele>
        <time>2012-04-01T06:52:42Z</time>
      </trkpt>
      <trkpt lat="43.57299" lon="6.49215">
        <ele>360</ele>
        <time>2012-04-01T06:52:52Z</time>
      </trkpt>
      <trkpt lat="43.57278" lon="6.49223">
        <ele>360</ele>
        <time>2012-04-01T06:53:02Z</time>
      </trkpt>
      <trkpt lat="43.57262" lon="6.49232">
        <ele>361</ele>
        <time>2012-04-01T06:53:12Z</time>
      </trkpt>
      <trkpt lat="43.57247" lon="6.49238">
        <ele>361</ele>
        <time>2012-04-01T06:53:22Z</time>
      </trkpt>
      <trkpt lat="43.57241" lon="6.49224">
        <ele>363</ele>
        <time>2012-04-01T06:53:33Z</time>
      </trkpt>
      <trkpt lat="43.57243" lon="6.492">
        <ele>364</ele>
        <time>2012-04-01T06:53:44Z</time>
      </trkpt>
      <trkpt lat="43.57246" lon="6.49179">
        <ele>368</ele>
        <time>2012-04-01T06:53:54Z</time>
      </trkpt>
      <trkpt lat="43.57235" lon="6.49162">
        <ele>372</ele>
        <time>2012-04-01T06:54:05Z</time>
      </trkpt>
      <trkpt lat="43.57219" lon="6.49146">
        <ele>374</ele>
        <time>2012-04-01T06:54:16Z</time>
      </trkpt>
      <trkpt lat="43.57206" lon="6.49126">
        <ele>374</ele>
        <time>2012-04-01T06:54:26Z</time>
      </trkpt>
      <trkpt lat="43.57189" lon="6.49108">
        <ele>374</ele>
        <time>2012-04-01T06:54:36Z</time>
      </trkpt>
      <trkpt lat="43.57179" lon="6.49089">
        <ele>374</ele>
        <time>2012-04-01T06:54:46Z</time>
      </trkpt>
      <trkpt lat="43.57172" lon="6.49076">
        <ele>374</ele>
        <time>2012-04-01T06:54:57Z</time>
      </trkpt>
      <trkpt lat="43.57156" lon="6.49068">
        <ele>378</ele>
        <time>2012-04-01T06:55:08Z</time>
      </trkpt>
      <trkpt lat="43.5714" lon="6.49059">
        <ele>382</ele>
        <time>2012-04-01T06:55:18Z</time>
      </trkpt>
      <trkpt lat="43.57125" lon="6.49048">
        <ele>382</ele>
        <time>2012-04-01T06:55:28Z</time>
      </trkpt>
      <trkpt lat="43.57113" lon="6.49036">
        <ele>382</ele>
        <time>2012-04-01T06:55:38Z</time>
      </trkpt>
      <trkpt lat="43.57107" lon="6.49027">
        <ele>382</ele>
        <time>2012-04-01T06:56:03Z</time>
      </trkpt>
      <trkpt lat="43.57108" lon="6.49029">
        <ele>382</ele>
        <time>2012-04-01T06:56:15Z</time>
      </trkpt>
      <trkpt lat="43.57108" lon="6.4903">
        <ele>384</ele>
        <time>2012-04-01T06:56:27Z</time>
      </trkpt>
      <trkpt lat="43.57109" lon="6.49031">
        <ele>385</ele>
        <time>2012-04-01T06:56:38Z</time>
      </trkpt>
      <trkpt lat="43.5711" lon="6.49032">
        <ele>388</ele>
        <time>2012-04-01T06:56:51Z</time>
      </trkpt>
      <trkpt lat="43.57109" lon="6.49032">
        <ele>388</ele>
        <time>2012-04-01T06:57:12Z</time>
      </trkpt>
      <trkpt lat="43.57108" lon="6.49031">
        <ele>388</ele>
        <time>2012-04-01T06:57:25Z</time>
      </trkpt>
      <trkpt lat="43.57108" lon="6.48996">
        <ele>388</ele>
        <time>2012-04-01T06:57:35Z</time>
      </trkpt>
      <trkpt lat="43.57105" lon="6.48956">
        <ele>386</ele>
        <time>2012-04-01T06:57:45Z</time>
      </trkpt>
      <trkpt lat="43.57094" lon="6.48922">
        <ele>386</ele>
        <time>2012-04-01T06:57:55Z</time>
      </trkpt>
      <trkpt lat="43.57079" lon="6.48891">
        <ele>386</ele>
        <time>2012-04-01T06:58:05Z</time>
      </trkpt>
      <trkpt lat="43.57064" lon="6.48855">
        <ele>386</ele>
        <time>2012-04-01T06:58:15Z</time>
      </trkpt>
      <trkpt lat="43.57055" lon="6.48818">
        <ele>386</ele>
        <time>2012-04-01T06:58:25Z</time>
      </trkpt>
      <trkpt lat="43.57053" lon="6.48777">
        <ele>391</ele>
        <time>2012-04-01T06:58:35Z</time>
      </trkpt>
      <trkpt lat="43.57038" lon="6.48733">
        <ele>397</ele>
        <time>2012-04-01T06:58:46Z</time>
      </trkpt>
      <trkpt lat="43.57027" lon="6.48694">
        <ele>396</ele>
        <time>2012-04-01T06:58:56Z</time>
      </trkpt>
      <trkpt lat="43.57029" lon="6.48654">
        <ele>396</ele>
        <time>2012-04-01T06:59:06Z</time>
      </trkpt>
      <trkpt lat="43.57034" lon="6.48621">
        <ele>399</ele>
        <time>2012-04-01T06:59:16Z</time>
      </trkpt>
      <trkpt lat="43.57035" lon="6.48576">
        <ele>400</ele>
        <time>2012-04-01T06:59:26Z</time>
      </trkpt>
      <trkpt lat="43.57036" lon="6.48539">
        <ele>400</ele>
        <time>2012-04-01T06:59:36Z</time>
      </trkpt>
      <trkpt lat="43.57048" lon="6.48514">
        <ele>400</ele>
        <time>2012-04-01T06:59:46Z</time>
      </trkpt>
      <trkpt lat="43.57065" lon="6.48492">
        <ele>400</ele>
        <time>2012-04-01T06:59:56Z</time>
      </trkpt>
      <trkpt lat="43.57077" lon="6.48473">
        <ele>397</ele>
        <time>2012-04-01T07:00:07Z</time>
      </trkpt>
      <trkpt lat="43.57081" lon="6.4845">
        <ele>401</ele>
        <time>2012-04-01T07:00:19Z</time>
      </trkpt>
      <trkpt lat="43.57084" lon="6.4842">
        <ele>406</ele>
        <time>2012-04-01T07:00:30Z</time>
      </trkpt>
      <trkpt lat="43.57087" lon="6.48396">
        <ele>409</ele>
        <time>2012-04-01T07:00:40Z</time>
      </trkpt>
      <trkpt lat="43.57095" lon="6.48376">
        <ele>412</ele>
        <time>2012-04-01T07:00:50Z</time>
      </trkpt>
      <trkpt lat="43.57097" lon="6.48356">
        <ele>412</ele>
        <time>2012-04-01T07:01:00Z</time>
      </trkpt>
      <trkpt lat="43.57104" lon="6.48351">
        <ele>412</ele>
        <time>2012-04-01T07:01:12Z</time>
      </trkpt>
      <trkpt lat="43.57103" lon="6.48353">
        <ele>412</ele>
        <time>2012-04-01T07:01:30Z</time>
      </trkpt>
      <trkpt lat="43.57104" lon="6.48361">
        <ele>420</ele>
        <time>2012-04-01T07:01:40Z</time>
      </trkpt>
      <trkpt lat="43.57093" lon="6.48362">
        <ele>427</ele>
        <time>2012-04-01T07:01:50Z</time>
      </trkpt>
      <trkpt lat="43.5705" lon="6.48339">
        <ele>424</ele>
        <time>2012-04-01T07:02:00Z</time>
      </trkpt>
      <trkpt lat="43.57019" lon="6.48291">
        <ele>413</ele>
        <time>2012-04-01T07:02:11Z</time>
      </trkpt>
      <trkpt lat="43.57016" lon="6.48271">
        <ele>404</ele>
        <time>2012-04-01T07:02:21Z</time>
      </trkpt>
      <trkpt lat="43.57009" lon="6.48261">
        <ele>401</ele>
        <time>2012-04-01T07:02:34Z</time>
      </trkpt>
      <trkpt lat="43.57004" lon="6.48258">
        <ele>408</ele>
        <time>2012-04-01T07:02:45Z</time>
      </trkpt>
      <trkpt lat="43.56993" lon="6.48271">
        <ele>415</ele>
        <time>2012-04-01T07:02:55Z</time>
      </trkpt>
      <trkpt lat="43.56979" lon="6.48285">
        <ele>418</ele>
        <time>2012-04-01T07:03:05Z</time>
      </trkpt>
      <trkpt lat="43.56966" lon="6.48296">
        <ele>422</ele>
        <time>2012-04-01T07:03:16Z</time>
      </trkpt>
      <trkpt lat="43.56945" lon="6.48326">
        <ele>423</ele>
        <time>2012-04-01T07:03:26Z</time>
      </trkpt>
      <trkpt lat="43.56931" lon="6.48345">
        <ele>423</ele>
        <time>2012-04-01T07:03:36Z</time>
      </trkpt>
      <trkpt lat="43.56926" lon="6.48359">
        <ele>412</ele>
        <time>2012-04-01T07:03:47Z</time>
      </trkpt>
      <trkpt lat="43.56921" lon="6.48389">
        <ele>412</ele>
        <time>2012-04-01T07:03:57Z</time>
      </trkpt>
      <trkpt lat="43.569" lon="6.48432">
        <ele>410</ele>
        <time>2012-04-01T07:04:08Z</time>
      </trkpt>
      <trkpt lat="43.5689" lon="6.48475">
        <ele>410</ele>
        <time>2012-04-01T07:04:18Z</time>
      </trkpt>
      <trkpt lat="43.56893" lon="6.48529">
        <ele>409</ele>
        <time>2012-04-01T07:04:28Z</time>
      </trkpt>
      <trkpt lat="43.56898" lon="6.48605">
        <ele>409</ele>
        <time>2012-04-01T07:04:38Z</time>
      </trkpt>
      <trkpt lat="43.56901" lon="6.48651">
        <ele>409</ele>
        <time>2012-04-01T07:04:49Z</time>
      </trkpt>
      <trkpt lat="43.56895" lon="6.4867">
        <ele>409</ele>
        <time>2012-04-01T07:05:01Z</time>
      </trkpt>
      <trkpt lat="43.56891" lon="6.48699">
        <ele>408</ele>
        <time>2012-04-01T07:05:11Z</time>
      </trkpt>
      <trkpt lat="43.56893" lon="6.48732">
        <ele>412</ele>
        <time>2012-04-01T07:05:22Z</time>
      </trkpt>
      <trkpt lat="43.56889" lon="6.48751">
        <ele>412</ele>
        <time>2012-04-01T07:05:32Z</time>
      </trkpt>
      <trkpt lat="43.56884" lon="6.48769">
        <ele>413</ele>
        <time>2012-04-01T07:05:43Z</time>
      </trkpt>
      <trkpt lat="43.56882" lon="6.48773">
        <ele>413</ele>
        <time>2012-04-01T07:05:55Z</time>
      </trkpt>
      <trkpt lat="43.5688" lon="6.48777">
        <ele>413</ele>
        <time>2012-04-01T07:06:06Z</time>
      </trkpt>
      <trkpt lat="43.56879" lon="6.48796">
        <ele>416</ele>
        <time>2012-04-01T07:06:17Z</time>
      </trkpt>
      <trkpt lat="43.56878" lon="6.48807">
        <ele>420</ele>
        <time>2012-04-01T07:06:28Z</time>
      </trkpt>
      <trkpt lat="43.56872" lon="6.4882">
        <ele>421</ele>
        <time>2012-04-01T07:06:38Z</time>
      </trkpt>
      <trkpt lat="43.56867" lon="6.48835">
        <ele>421</ele>
        <time>2012-04-01T07:06:48Z</time>
      </trkpt>
      <trkpt lat="43.5686" lon="6.48858">
        <ele>426</ele>
        <time>2012-04-01T07:06:58Z</time>
      </trkpt>
      <trkpt lat="43.56852" lon="6.48881">
        <ele>426</ele>
        <time>2012-04-01T07:07:09Z</time>
      </trkpt>
      <trkpt lat="43.56848" lon="6.48899">
        <ele>428</ele>
        <time>2012-04-01T07:07:19Z</time>
      </trkpt>
      <trkpt lat="43.56847" lon="6.48913">
        <ele>431</ele>
        <time>2012-04-01T07:07:31Z</time>
      </trkpt>
      <trkpt lat="43.56843" lon="6.48909">
        <ele>430</ele>
        <time>2012-04-01T07:07:43Z</time>
      </trkpt>
      <trkpt lat="43.56842" lon="6.48907">
        <ele>426</ele>
        <time>2012-04-01T07:07:53Z</time>
      </trkpt>
      <trkpt lat="43.56838" lon="6.48963">
        <ele>426</ele>
        <time>2012-04-01T07:08:03Z</time>
      </trkpt>
      <trkpt lat="43.5682" lon="6.48996">
        <ele>426</ele>
        <time>2012-04-01T07:08:13Z</time>
      </trkpt>
      <trkpt lat="43.56808" lon="6.49078">
        <ele>419</ele>
        <time>2012-04-01T07:08:23Z</time>
      </trkpt>
      <trkpt lat="43.56819" lon="6.49183">
        <ele>409</ele>
        <time>2012-04-01T07:08:33Z</time>
      </trkpt>
      <trkpt lat="43.56818" lon="6.49198">
        <ele>405</ele>
        <time>2012-04-01T07:08:43Z</time>
      </trkpt>
      <trkpt lat="43.56819" lon="6.49223">
        <ele>400</ele>
        <time>2012-04-01T07:08:53Z</time>
      </trkpt>
      <trkpt lat="43.56806" lon="6.49325">
        <ele>392</ele>
        <time>2012-04-01T07:09:04Z</time>
      </trkpt>
      <trkpt lat="43.56763" lon="6.49439">
        <ele>381</ele>
        <time>2012-04-01T07:09:14Z</time>
      </trkpt>
      <trkpt lat="43.56733" lon="6.4955">
        <ele>368</ele>
        <time>2012-04-01T07:09:25Z</time>
      </trkpt>
      <trkpt lat="43.5669" lon="6.49664">
        <ele>356</ele>
        <time>2012-04-01T07:09:35Z</time>
      </trkpt>
      <trkpt lat="43.56738" lon="6.49732">
        <ele>346</ele>
        <time>2012-04-01T07:09:45Z</time>
      </trkpt>
      <trkpt lat="43.56751" lon="6.49806">
        <ele>335</ele>
        <time>2012-04-01T07:09:55Z</time>
      </trkpt>
      <trkpt lat="43.56815" lon="6.49821">
        <ele>324</ele>
        <time>2012-04-01T07:10:05Z</time>
      </trkpt>
      <trkpt lat="43.56836" lon="6.49833">
        <ele>315</ele>
        <time>2012-04-01T07:10:15Z</time>
      </trkpt>
      <trkpt lat="43.56841" lon="6.49844">
        <ele>315</ele>
        <time>2012-04-01T07:10:26Z</time>
      </trkpt>
      <trkpt lat="43.56848" lon="6.49884">
        <ele>318</ele>
        <time>2012-04-01T07:10:36Z</time>
      </trkpt>
      <trkpt lat="43.56893" lon="6.49902">
        <ele>319</ele>
        <time>2012-04-01T07:10:46Z</time>
      </trkpt>
      <trkpt lat="43.56912" lon="6.49974">
        <ele>319</ele>
        <time>2012-04-01T07:10:57Z</time>
      </trkpt>
      <trkpt lat="43.56867" lon="6.5006">
        <ele>313</ele>
        <time>2012-04-01T07:11:07Z</time>
      </trkpt>
      <trkpt lat="43.56835" lon="6.50125">
        <ele>308</ele>
        <time>2012-04-01T07:11:17Z</time>
      </trkpt>
      <trkpt lat="43.56815" lon="6.5018">
        <ele>308</ele>
        <time>2012-04-01T07:11:27Z</time>
      </trkpt>
      <trkpt lat="43.56829" lon="6.5025">
        <ele>307</ele>
        <time>2012-04-01T07:11:38Z</time>
      </trkpt>
      <trkpt lat="43.56853" lon="6.50354">
        <ele>307</ele>
        <time>2012-04-01T07:11:49Z</time>
      </trkpt>
      <trkpt lat="43.56883" lon="6.50466">
        <ele>302</ele>
        <time>2012-04-01T07:11:59Z</time>
      </trkpt>
      <trkpt lat="43.56909" lon="6.50548">
        <ele>302</ele>
        <time>2012-04-01T07:12:09Z</time>
      </trkpt>
      <trkpt lat="43.5695" lon="6.50611">
        <ele>302</ele>
        <time>2012-04-01T07:12:20Z</time>
      </trkpt>
      <trkpt lat="43.56988" lon="6.5066">
        <ele>302</ele>
        <time>2012-04-01T07:12:30Z</time>
      </trkpt>
      <trkpt lat="43.57024" lon="6.50704">
        <ele>300</ele>
        <time>2012-04-01T07:12:41Z</time>
      </trkpt>
      <trkpt lat="43.57045" lon="6.50746">
        <ele>300</ele>
        <time>2012-04-01T07:12:51Z</time>
      </trkpt>
      <trkpt lat="43.57099" lon="6.50739">
        <ele>300</ele>
        <time>2012-04-01T07:13:02Z</time>
      </trkpt>
      <trkpt lat="43.57137" lon="6.50747">
        <ele>298</ele>
        <time>2012-04-01T07:13:12Z</time>
      </trkpt>
      <trkpt lat="43.57158" lon="6.50757">
        <ele>298</ele>
        <time>2012-04-01T07:13:22Z</time>
      </trkpt>
      <trkpt lat="43.57183" lon="6.50766">
        <ele>298</ele>
        <time>2012-04-01T07:13:32Z</time>
      </trkpt>
      <trkpt lat="43.57197" lon="6.50776">
        <ele>301</ele>
        <time>2012-04-01T07:13:42Z</time>
      </trkpt>
      <trkpt lat="43.57195" lon="6.50788">
        <ele>303</ele>
        <time>2012-04-01T07:13:53Z</time>
      </trkpt>
      <trkpt lat="43.57193" lon="6.5079">
        <ele>306</ele>
        <time>2012-04-01T07:14:07Z</time>
      </trkpt>
      <trkpt lat="43.57196" lon="6.50783">
        <ele>306</ele>
        <time>2012-04-01T07:14:18Z</time>
      </trkpt>
      <trkpt lat="43.57195" lon="6.5078">
        <ele>306</ele>
        <time>2012-04-01T07:14:33Z</time>
      </trkpt>
      <trkpt lat="43.57193" lon="6.50776">
        <ele>304</ele>
        <time>2012-04-01T07:14:46Z</time>
      </trkpt>
      <trkpt lat="43.57192" lon="6.50779">
        <ele>303</ele>
        <time>2012-04-01T07:15:01Z</time>
      </trkpt>
      <trkpt lat="43.57199" lon="6.50773">
        <ele>303</ele>
        <time>2012-04-01T07:15:16Z</time>
      </trkpt>
      <trkpt lat="43.572" lon="6.50773">
        <ele>303</ele>
        <time>2012-04-01T07:15:18Z</time>
      </trkpt>
      <trkpt lat="43.57206" lon="6.50772">
        <ele>302</ele>
        <time>2012-04-01T07:15:28Z</time>
      </trkpt>
      <trkpt lat="43.57212" lon="6.50771">
        <ele>301</ele>
        <time>2012-04-01T07:15:41Z</time>
      </trkpt>
      <trkpt lat="43.5721" lon="6.50772">
        <ele>304</ele>
        <time>2012-04-01T07:15:54Z</time>
      </trkpt>
      <trkpt lat="43.57211" lon="6.50772">
        <ele>303</ele>
        <time>2012-04-01T07:16:10Z</time>
      </trkpt>
      <trkpt lat="43.57211" lon="6.50776">
        <ele>292</ele>
        <time>2012-04-01T07:16:24Z</time>
      </trkpt>
      <trkpt lat="43.57214" lon="6.50776">
        <ele>291</ele>
        <time>2012-04-01T07:16:36Z</time>
      </trkpt>
      <trkpt lat="43.57213" lon="6.50779">
        <ele>290</ele>
        <time>2012-04-01T07:16:52Z</time>
      </trkpt>
      <trkpt lat="43.57214" lon="6.5078">
        <ele>290</ele>
        <time>2012-04-01T07:17:02Z</time>
      </trkpt>
      <trkpt lat="43.57214" lon="6.50785">
        <ele>284</ele>
        <time>2012-04-01T07:17:20Z</time>
      </trkpt>
      <trkpt lat="43.5722" lon="6.50783">
        <ele>285</ele>
        <time>2012-04-01T07:17:30Z</time>
      </trkpt>
      <trkpt lat="43.57225" lon="6.5078">
        <ele>296</ele>
        <time>2012-04-01T07:17:41Z</time>
      </trkpt>
      <trkpt lat="43.57227" lon="6.50778">
        <ele>299</ele>
        <time>2012-04-01T07:17:58Z</time>
      </trkpt>
      <trkpt lat="43.57228" lon="6.50776">
        <ele>300</ele>
        <time>2012-04-01T07:18:15Z</time>
      </trkpt>
      <trkpt lat="43.57227" lon="6.50778">
        <ele>301</ele>
        <time>2012-04-01T07:18:32Z</time>
      </trkpt>
      <trkpt lat="43.57231" lon="6.50775">
        <ele>307</ele>
        <time>2012-04-01T07:18:43Z</time>
      </trkpt>
      <trkpt lat="43.57229" lon="6.50775">
        <ele>308</ele>
        <time>2012-04-01T07:18:53Z</time>
      </trkpt>
      <trkpt lat="43.57226" lon="6.50776">
        <ele>309</ele>
        <time>2012-04-01T07:19:06Z</time>
      </trkpt>
      <trkpt lat="43.57222" lon="6.50783">
        <ele>310</ele>
        <time>2012-04-01T07:19:16Z</time>
      </trkpt>
      <trkpt lat="43.57226" lon="6.50779">
        <ele>314</ele>
        <time>2012-04-01T07:19:26Z</time>
      </trkpt>
      <trkpt lat="43.57231" lon="6.50772">
        <ele>314</ele>
        <time>2012-04-01T07:19:42Z</time>
      </trkpt>
      <trkpt lat="43.57235" lon="6.50763">
        <ele>314</ele>
        <time>2012-04-01T07:19:53Z</time>
      </trkpt>
      <trkpt lat="43.57246" lon="6.50761">
        <ele>313</ele>
        <time>2012-04-01T07:20:03Z</time>
      </trkpt>
      <trkpt lat="43.5726" lon="6.50766">
        <ele>313</ele>
        <time>2012-04-01T07:20:13Z</time>
      </trkpt>
      <trkpt lat="43.57272" lon="6.5077">
        <ele>313</ele>
        <time>2012-04-01T07:20:25Z</time>
      </trkpt>
      <trkpt lat="43.57278" lon="6.50768">
        <ele>313</ele>
        <time>2012-04-01T07:20:36Z</time>
      </trkpt>
      <trkpt lat="43.57281" lon="6.50766">
        <ele>316</ele>
        <time>2012-04-01T07:20:50Z</time>
      </trkpt>
      <trkpt lat="43.57287" lon="6.50773">
        <ele>317</ele>
        <time>2012-04-01T07:21:00Z</time>
      </trkpt>
      <trkpt lat="43.57296" lon="6.50772">
        <ele>317</ele>
        <time>2012-04-01T07:21:14Z</time>
      </trkpt>
      <trkpt lat="43.57291" lon="6.50771">
        <ele>316</ele>
        <time>2012-04-01T07:21:25Z</time>
      </trkpt>
      <trkpt lat="43.5729" lon="6.50769">
        <ele>317</ele>
        <time>2012-04-01T07:21:37Z</time>
      </trkpt>
      <trkpt lat="43.57306" lon="6.50785">
        <ele>320</ele>
        <time>2012-04-01T07:21:47Z</time>
      </trkpt>
      <trkpt lat="43.57313" lon="6.50791">
        <ele>320</ele>
        <time>2012-04-01T07:21:58Z</time>
      </trkpt>
      <trkpt lat="43.57319" lon="6.50795">
        <ele>318</ele>
        <time>2012-04-01T07:22:09Z</time>
      </trkpt>
      <trkpt lat="43.57327" lon="6.508">
        <ele>318</ele>
        <time>2012-04-01T07:22:20Z</time>
      </trkpt>
      <trkpt lat="43.57329" lon="6.50805">
        <ele>319</ele>
        <time>2012-04-01T07:22:31Z</time>
      </trkpt>
      <trkpt lat="43.57331" lon="6.50806">
        <ele>321</ele>
        <time>2012-04-01T07:22:42Z</time>
      </trkpt>
      <trkpt lat="43.5734" lon="6.50803">
        <ele>321</ele>
        <time>2012-04-01T07:22:52Z</time>
      </trkpt>
      <trkpt lat="43.5736" lon="6.50795">
        <ele>321</ele>
        <time>2012-04-01T07:23:02Z</time>
      </trkpt>
      <trkpt lat="43.57364" lon="6.50794">
        <ele>323</ele>
        <time>2012-04-01T07:23:13Z</time>
      </trkpt>
      <trkpt lat="43.57361" lon="6.50789">
        <ele>325</ele>
        <time>2012-04-01T07:23:26Z</time>
      </trkpt>
      <trkpt lat="43.57364" lon="6.50792">
        <ele>327</ele>
        <time>2012-04-01T07:23:39Z</time>
      </trkpt>
      <trkpt lat="43.57358" lon="6.50779">
        <ele>329</ele>
        <time>2012-04-01T07:23:49Z</time>
      </trkpt>
      <trkpt lat="43.57349" lon="6.50771">
        <ele>331</ele>
        <time>2012-04-01T07:23:59Z</time>
      </trkpt>
      <trkpt lat="43.57348" lon="6.50759">
        <ele>331</ele>
        <time>2012-04-01T07:24:10Z</time>
      </trkpt>
      <trkpt lat="43.57345" lon="6.50759">
        <ele>331</ele>
        <time>2012-04-01T07:24:21Z</time>
      </trkpt>
      <trkpt lat="43.57355" lon="6.50743">
        <ele>336</ele>
        <time>2012-04-01T07:24:32Z</time>
      </trkpt>
      <trkpt lat="43.57351" lon="6.50724">
        <ele>342</ele>
        <time>2012-04-01T07:24:43Z</time>
      </trkpt>
      <trkpt lat="43.57352" lon="6.50719">
        <ele>344</ele>
        <time>2012-04-01T07:24:54Z</time>
      </trkpt>
      <trkpt lat="43.57352" lon="6.5072">
        <ele>344</ele>
        <time>2012-04-01T07:25:04Z</time>
      </trkpt>
      <trkpt lat="43.57352" lon="6.50706">
        <ele>346</ele>
        <time>2012-04-01T07:25:15Z</time>
      </trkpt>
      <trkpt lat="43.57358" lon="6.50704">
        <ele>346</ele>
        <time>2012-04-01T07:25:25Z</time>
      </trkpt>
      <trkpt lat="43.57367" lon="6.50707">
        <ele>346</ele>
        <time>2012-04-01T07:25:36Z</time>
      </trkpt>
      <trkpt lat="43.57384" lon="6.50696">
        <ele>346</ele>
        <time>2012-04-01T07:25:46Z</time>
      </trkpt>
      <trkpt lat="43.57407" lon="6.50648">
        <ele>345</ele>
        <time>2012-04-01T07:25:57Z</time>
      </trkpt>
      <trkpt lat="43.57388" lon="6.50601">
        <ele>344</ele>
        <time>2012-04-01T07:26:08Z</time>
      </trkpt>
      <trkpt lat="43.57375" lon="6.50567">
        <ele>343</ele>
        <time>2012-04-01T07:26:18Z</time>
      </trkpt>
      <trkpt lat="43.57372" lon="6.50541">
        <ele>343</ele>
        <time>2012-04-01T07:26:28Z</time>
      </trkpt>
      <trkpt lat="43.57367" lon="6.50512">
        <ele>342</ele>
        <time>2012-04-01T07:26:38Z</time>
      </trkpt>
      <trkpt lat="43.57366" lon="6.50489">
        <ele>332</ele>
        <time>2012-04-01T07:26:48Z</time>
      </trkpt>
      <trkpt lat="43.57376" lon="6.50438">
        <ele>329</ele>
        <time>2012-04-01T07:26:59Z</time>
      </trkpt>
      <trkpt lat="43.57386" lon="6.50395">
        <ele>330</ele>
        <time>2012-04-01T07:27:09Z</time>
      </trkpt>
      <trkpt lat="43.57386" lon="6.5035">
        <ele>340</ele>
        <time>2012-04-01T07:27:19Z</time>
      </trkpt>
      <trkpt lat="43.57388" lon="6.50297">
        <ele>353</ele>
        <time>2012-04-01T07:27:30Z</time>
      </trkpt>
      <trkpt lat="43.57392" lon="6.50252">
        <ele>370</ele>
        <time>2012-04-01T07:27:41Z</time>
      </trkpt>
      <trkpt lat="43.574" lon="6.50223">
        <ele>369</ele>
        <time>2012-04-01T07:27:51Z</time>
      </trkpt>
      <trkpt lat="43.57404" lon="6.50184">
        <ele>367</ele>
        <time>2012-04-01T07:28:01Z</time>
      </trkpt>
      <trkpt lat="43.5741" lon="6.5015">
        <ele>367</ele>
        <time>2012-04-01T07:28:11Z</time>
      </trkpt>
      <trkpt lat="43.57407" lon="6.50108">
        <ele>371</ele>
        <time>2012-04-01T07:28:22Z</time>
      </trkpt>
      <trkpt lat="43.57409" lon="6.50067">
        <ele>377</ele>
        <time>2012-04-01T07:28:32Z</time>
      </trkpt>
      <trkpt lat="43.57419" lon="6.50029">
        <ele>374</ele>
        <time>2012-04-01T07:28:42Z</time>
      </trkpt>
      <trkpt lat="43.57422" lon="6.4999">
        <ele>372</ele>
        <time>2012-04-01T07:28:52Z</time>
      </trkpt>
      <trkpt lat="43.57429" lon="6.4995">
        <ele>372</ele>
        <time>2012-04-01T07:29:02Z</time>
      </trkpt>
      <trkpt lat="43.57435" lon="6.49911">
        <ele>371</ele>
        <time>2012-04-01T07:29:12Z</time>
      </trkpt>
      <trkpt lat="43.5745" lon="6.49875">
        <ele>368</ele>
        <time>2012-04-01T07:29:22Z</time>
      </trkpt>
      <trkpt lat="43.57469" lon="6.49837">
        <ele>364</ele>
        <time>2012-04-01T07:29:33Z</time>
      </trkpt>
      <trkpt lat="43.57495" lon="6.49803">
        <ele>358</ele>
        <time>2012-04-01T07:29:44Z</time>
      </trkpt>
      <trkpt lat="43.57518" lon="6.4978">
        <ele>357</ele>
        <time>2012-04-01T07:29:54Z</time>
      </trkpt>
      <trkpt lat="43.57541" lon="6.49758">
        <ele>358</ele>
        <time>2012-04-01T07:30:05Z</time>
      </trkpt>
      <trkpt lat="43.57559" lon="6.49737">
        <ele>362</ele>
        <time>2012-04-01T07:30:15Z</time>
      </trkpt>
      <trkpt lat="43.57582" lon="6.49715">
        <ele>367</ele>
        <time>2012-04-01T07:30:26Z</time>
      </trkpt>
      <trkpt lat="43.57602" lon="6.49694">
        <ele>369</ele>
        <time>2012-04-01T07:30:36Z</time>
      </trkpt>
      <trkpt lat="43.57624" lon="6.49676">
        <ele>370</ele>
        <time>2012-04-01T07:30:46Z</time>
      </trkpt>
      <trkpt lat="43.57644" lon="6.49654">
        <ele>372</ele>
        <time>2012-04-01T07:30:56Z</time>
      </trkpt>
      <trkpt lat="43.57664" lon="6.49636">
        <ele>372</ele>
        <time>2012-04-01T07:31:06Z</time>
      </trkpt>
      <trkpt lat="43.57681" lon="6.49617">
        <ele>378</ele>
        <time>2012-04-01T07:31:16Z</time>
      </trkpt>
      <trkpt lat="43.577" lon="6.49595">
        <ele>379</ele>
        <time>2012-04-01T07:31:27Z</time>
      </trkpt>
      <trkpt lat="43.5772" lon="6.49577">
        <ele>379</ele>
        <time>2012-04-01T07:31:38Z</time>
      </trkpt>
      <trkpt lat="43.5774" lon="6.49559">
        <ele>380</ele>
        <time>2012-04-01T07:31:49Z</time>
      </trkpt>
      <trkpt lat="43.57756" lon="6.4954">
        <ele>380</ele>
        <time>2012-04-01T07:31:59Z</time>
      </trkpt>
      <trkpt lat="43.57772" lon="6.49522">
        <ele>382</ele>
        <time>2012-04-01T07:32:09Z</time>
      </trkpt>
      <trkpt lat="43.57784" lon="6.49504">
        <ele>382</ele>
        <time>2012-04-01T07:32:19Z</time>
      </trkpt>
      <trkpt lat="43.57799" lon="6.49484">
        <ele>383</ele>
        <time>2012-04-01T07:32:29Z</time>
      </trkpt>
      <trkpt lat="43.57808" lon="6.49465">
        <ele>391</ele>
        <time>2012-04-01T07:32:40Z</time>
      </trkpt>
      <trkpt lat="43.57813" lon="6.49441">
        <ele>395</ele>
        <time>2012-04-01T07:32:50Z</time>
      </trkpt>
      <trkpt lat="43.57821" lon="6.49421">
        <ele>401</ele>
        <time>2012-04-01T07:33:01Z</time>
      </trkpt>
      <trkpt lat="43.57824" lon="6.49416">
        <ele>401</ele>
        <time>2012-04-01T07:33:11Z</time>
      </trkpt>
      <trkpt lat="43.57825" lon="6.49413">
        <ele>401</ele>
        <time>2012-04-01T07:33:23Z</time>
      </trkpt>
      <trkpt lat="43.57831" lon="6.494">
        <ele>401</ele>
        <time>2012-04-01T07:33:35Z</time>
      </trkpt>
      <trkpt lat="43.57831" lon="6.494">
        <ele>398</ele>
        <time>2012-04-01T07:33:46Z</time>
      </trkpt>
      <trkpt lat="43.57833" lon="6.49397">
        <ele>390</ele>
        <time>2012-04-01T07:34:02Z</time>
      </trkpt>
      <trkpt lat="43.57836" lon="6.49398">
        <ele>373</ele>
        <time>2012-04-01T07:34:19Z</time>
      </trkpt>
      <trkpt lat="43.57837" lon="6.49399">
        <ele>356</ele>
        <time>2012-04-01T07:34:36Z</time>
      </trkpt>
      <trkpt lat="43.57836" lon="6.49396">
        <ele>350</ele>
        <time>2012-04-01T07:34:50Z</time>
      </trkpt>
      <trkpt lat="43.57843" lon="6.49377">
        <ele>359</ele>
        <time>2012-04-01T07:35:01Z</time>
      </trkpt>
      <trkpt lat="43.57847" lon="6.49345">
        <ele>377</ele>
        <time>2012-04-01T07:35:11Z</time>
      </trkpt>
      <trkpt lat="43.5785" lon="6.49338">
        <ele>393</ele>
        <time>2012-04-01T07:35:22Z</time>
      </trkpt>
      <trkpt lat="43.57849" lon="6.49341">
        <ele>405</ele>
        <time>2012-04-01T07:35:35Z</time>
      </trkpt>
      <trkpt lat="43.57846" lon="6.49349">
        <ele>401</ele>
        <time>2012-04-01T07:35:46Z</time>
      </trkpt>
      <trkpt lat="43.57847" lon="6.49352">
        <ele>386</ele>
        <time>2012-04-01T07:36:01Z</time>
      </trkpt>
      <trkpt lat="43.57849" lon="6.49356">
        <ele>369</ele>
        <time>2012-04-01T07:36:12Z</time>
      </trkpt>
      <trkpt lat="43.57845" lon="6.49361">
        <ele>344</ele>
        <time>2012-04-01T07:36:24Z</time>
      </trkpt>
      <trkpt lat="43.57844" lon="6.49359">
        <ele>327</ele>
        <time>2012-04-01T07:36:38Z</time>
      </trkpt>
      <trkpt lat="43.57854" lon="6.49297">
        <ele>350</ele>
        <time>2012-04-01T07:36:48Z</time>
      </trkpt>
      <trkpt lat="43.57891" lon="6.49285">
        <ele>369</ele>
        <time>2012-04-01T07:36:59Z</time>
      </trkpt>
      <trkpt lat="43.57909" lon="6.49277">
        <ele>369</ele>
        <time>2012-04-01T07:37:09Z</time>
      </trkpt>
      <trkpt lat="43.57915" lon="6.49275">
        <ele>371</ele>
        <time>2012-04-01T07:37:19Z</time>
      </trkpt>
      <trkpt lat="43.57938" lon="6.49285">
        <ele>372</ele>
        <time>2012-04-01T07:37:29Z</time>
      </trkpt>
      <trkpt lat="43.57953" lon="6.4932">
        <ele>372</ele>
        <time>2012-04-01T07:37:40Z</time>
      </trkpt>
      <trkpt lat="43.57959" lon="6.49341">
        <ele>376</ele>
        <time>2012-04-01T07:37:50Z</time>
      </trkpt>
      <trkpt lat="43.57973" lon="6.49358">
        <ele>374</ele>
        <time>2012-04-01T07:38:00Z</time>
      </trkpt>
      <trkpt lat="43.57995" lon="6.49405">
        <ele>366</ele>
        <time>2012-04-01T07:38:10Z</time>
      </trkpt>
      <trkpt lat="43.58" lon="6.49423">
        <ele>357</ele>
        <time>2012-04-01T07:38:22Z</time>
      </trkpt>
      <trkpt lat="43.58" lon="6.49422">
        <ele>352</ele>
        <time>2012-04-01T07:38:42Z</time>
      </trkpt>
      <trkpt lat="43.57994" lon="6.49415">
        <ele>366</ele>
        <time>2012-04-01T07:38:54Z</time>
      </trkpt>
      <trkpt lat="43.57989" lon="6.49433">
        <ele>376</ele>
        <time>2012-04-01T07:39:04Z</time>
      </trkpt>
      <trkpt lat="43.57957" lon="6.49455">
        <ele>374</ele>
        <time>2012-04-01T07:39:15Z</time>
      </trkpt>
      <trkpt lat="43.57939" lon="6.49509">
        <ele>379</ele>
        <time>2012-04-01T07:39:25Z</time>
      </trkpt>
      <trkpt lat="43.57928" lon="6.49563">
        <ele>379</ele>
        <time>2012-04-01T07:39:36Z</time>
      </trkpt>
      <trkpt lat="43.57908" lon="6.49641">
        <ele>374</ele>
        <time>2012-04-01T07:39:47Z</time>
      </trkpt>
      <trkpt lat="43.5789" lon="6.49705">
        <ele>366</ele>
        <time>2012-04-01T07:39:57Z</time>
      </trkpt>
      <trkpt lat="43.57882" lon="6.49735">
        <ele>364</ele>
        <time>2012-04-01T07:40:07Z</time>
      </trkpt>
      <trkpt lat="43.57872" lon="6.49769">
        <ele>364</ele>
        <time>2012-04-01T07:40:18Z</time>
      </trkpt>
      <trkpt lat="43.57838" lon="6.49821">
        <ele>364</ele>
        <time>2012-04-01T07:40:28Z</time>
      </trkpt>
      <trkpt lat="43.57811" lon="6.49882">
        <ele>364</ele>
        <time>2012-04-01T07:40:38Z</time>
      </trkpt>
      <trkpt lat="43.57796" lon="6.49925">
        <ele>356</ele>
        <time>2012-04-01T07:40:48Z</time>
      </trkpt>
      <trkpt lat="43.57779" lon="6.49946">
        <ele>353</ele>
        <time>2012-04-01T07:40:58Z</time>
      </trkpt>
      <trkpt lat="43.5775" lon="6.49982">
        <ele>350</ele>
        <time>2012-04-01T07:41:08Z</time>
      </trkpt>
      <trkpt lat="43.57705" lon="6.49995">
        <ele>347</ele>
        <time>2012-04-01T07:41:19Z</time>
      </trkpt>
      <trkpt lat="43.5768" lon="6.50023">
        <ele>347</ele>
        <time>2012-04-01T07:41:29Z</time>
      </trkpt>
      <trkpt lat="43.57707" lon="6.50071">
        <ele>343</ele>
        <time>2012-04-01T07:41:39Z</time>
      </trkpt>
      <trkpt lat="43.57697" lon="6.50138">
        <ele>341</ele>
        <time>2012-04-01T07:41:49Z</time>
      </trkpt>
      <trkpt lat="43.57671" lon="6.50184">
        <ele>340</ele>
        <time>2012-04-01T07:41:59Z</time>
      </trkpt>
      <trkpt lat="43.57655" lon="6.50237">
        <ele>340</ele>
        <time>2012-04-01T07:42:09Z</time>
      </trkpt>
      <trkpt lat="43.57653" lon="6.50313">
        <ele>340</ele>
        <time>2012-04-01T07:42:19Z</time>
      </trkpt>
      <trkpt lat="43.57654" lon="6.50379">
        <ele>334</ele>
        <time>2012-04-01T07:42:30Z</time>
      </trkpt>
      <trkpt lat="43.57663" lon="6.50438">
        <ele>326</ele>
        <time>2012-04-01T07:42:40Z</time>
      </trkpt>
      <trkpt lat="43.57679" lon="6.50481">
        <ele>326</ele>
        <time>2012-04-01T07:42:50Z</time>
      </trkpt>
      <trkpt lat="43.57691" lon="6.50514">
        <ele>326</ele>
        <time>2012-04-01T07:43:01Z</time>
      </trkpt>
      <trkpt lat="43.57661" lon="6.50564">
        <ele>330</ele>
        <time>2012-04-01T07:43:11Z</time>
      </trkpt>
      <trkpt lat="43.57631" lon="6.50635">
        <ele>333</ele>
        <time>2012-04-01T07:43:22Z</time>
      </trkpt>
      <trkpt lat="43.57627" lon="6.50664">
        <ele>333</ele>
        <time>2012-04-01T07:43:32Z</time>
      </trkpt>
      <trkpt lat="43.57631" lon="6.5069">
        <ele>330</ele>
        <time>2012-04-01T07:43:42Z</time>
      </trkpt>
      <trkpt lat="43.57624" lon="6.50757">
        <ele>330</ele>
        <time>2012-04-01T07:43:52Z</time>
      </trkpt>
      <trkpt lat="43.57619" lon="6.50838">
        <ele>329</ele>
        <time>2012-04-01T07:44:02Z</time>
      </trkpt>
      <trkpt lat="43.57607" lon="6.50947">
        <ele>321</ele>
        <time>2012-04-01T07:44:13Z</time>
      </trkpt>
      <trkpt lat="43.57594" lon="6.51039">
        <ele>321</ele>
        <time>2012-04-01T07:44:23Z</time>
      </trkpt>
      <trkpt lat="43.57567" lon="6.51075">
        <ele>316</ele>
        <time>2012-04-01T07:44:34Z</time>
      </trkpt>
      <trkpt lat="43.57559" lon="6.51078">
        <ele>314</ele>
        <time>2012-04-01T07:44:44Z</time>
      </trkpt>
      <trkpt lat="43.57558" lon="6.51073">
        <ele>312</ele>
        <time>2012-04-01T07:44:54Z</time>
      </trkpt>
      <trkpt lat="43.57545" lon="6.51065">
        <ele>311</ele>
        <time>2012-04-01T07:45:04Z</time>
      </trkpt>
      <trkpt lat="43.57527" lon="6.51065">
        <ele>311</ele>
        <time>2012-04-01T07:45:14Z</time>
      </trkpt>
      <trkpt lat="43.57498" lon="6.51069">
        <ele>308</ele>
        <time>2012-04-01T07:45:24Z</time>
      </trkpt>
      <trkpt lat="43.57489" lon="6.5106">
        <ele>307</ele>
        <time>2012-04-01T07:45:37Z</time>
      </trkpt>
      <trkpt lat="43.57489" lon="6.51058">
        <ele>304</ele>
        <time>2012-04-01T07:45:48Z</time>
      </trkpt>
      <trkpt lat="43.5749" lon="6.51056">
        <ele>298</ele>
        <time>2012-04-01T07:45:59Z</time>
      </trkpt>
      <trkpt lat="43.57486" lon="6.5106">
        <ele>296</ele>
        <time>2012-04-01T07:46:11Z</time>
      </trkpt>
      <trkpt lat="43.57478" lon="6.51063">
        <ele>292</ele>
        <time>2012-04-01T07:46:24Z</time>
      </trkpt>
      <trkpt lat="43.57475" lon="6.51063">
        <ele>292</ele>
        <time>2012-04-01T07:46:34Z</time>
      </trkpt>
      <trkpt lat="43.57477" lon="6.5107">
        <ele>292</ele>
        <time>2012-04-01T07:46:49Z</time>
      </trkpt>
      <trkpt lat="43.57477" lon="6.51073">
        <ele>299</ele>
        <time>2012-04-01T07:47:00Z</time>
      </trkpt>
      <trkpt lat="43.57478" lon="6.51071">
        <ele>302</ele>
        <time>2012-04-01T07:47:18Z</time>
      </trkpt>
      <trkpt lat="43.5748" lon="6.51072">
        <ele>302</ele>
        <time>2012-04-01T07:47:31Z</time>
      </trkpt>
      <trkpt lat="43.57479" lon="6.51075">
        <ele>302</ele>
        <time>2012-04-01T07:47:43Z</time>
      </trkpt>
      <trkpt lat="43.57479" lon="6.51074">
        <ele>301</ele>
        <time>2012-04-01T07:47:57Z</time>
      </trkpt>
      <trkpt lat="43.57477" lon="6.51078">
        <ele>301</ele>
        <time>2012-04-01T07:48:10Z</time>
      </trkpt>
      <trkpt lat="43.57477" lon="6.51077">
        <ele>301</ele>
        <time>2012-04-01T07:48:25Z</time>
      </trkpt>
      <trkpt lat="43.57477" lon="6.51076">
        <ele>302</ele>
        <time>2012-04-01T07:48:37Z</time>
      </trkpt>
      <trkpt lat="43.57479" lon="6.51076">
        <ele>305</ele>
        <time>2012-04-01T07:48:48Z</time>
      </trkpt>
      <trkpt lat="43.57474" lon="6.5106">
        <ele>306</ele>
        <time>2012-04-01T07:48:58Z</time>
      </trkpt>
      <trkpt lat="43.57446" lon="6.5103">
        <ele>306</ele>
        <time>2012-04-01T07:49:09Z</time>
      </trkpt>
      <trkpt lat="43.57417" lon="6.50994">
        <ele>306</ele>
        <time>2012-04-01T07:49:19Z</time>
      </trkpt>
      <trkpt lat="43.57389" lon="6.5096">
        <ele>306</ele>
        <time>2012-04-01T07:49:29Z</time>
      </trkpt>
      <trkpt lat="43.57353" lon="6.50951">
        <ele>306</ele>
        <time>2012-04-01T07:49:39Z</time>
      </trkpt>
      <trkpt lat="43.57323" lon="6.50937">
        <ele>306</ele>
        <time>2012-04-01T07:49:49Z</time>
      </trkpt>
      <trkpt lat="43.57296" lon="6.50955">
        <ele>312</ele>
        <time>2012-04-01T07:49:59Z</time>
      </trkpt>
      <trkpt lat="43.5727" lon="6.50984">
        <ele>319</ele>
        <time>2012-04-01T07:50:09Z</time>
      </trkpt>
      <trkpt lat="43.57221" lon="6.50997">
        <ele>322</ele>
        <time>2012-04-01T07:50:20Z</time>
      </trkpt>
      <trkpt lat="43.57158" lon="6.50988">
        <ele>312</ele>
        <time>2012-04-01T07:50:30Z</time>
      </trkpt>
      <trkpt lat="43.57142" lon="6.50959">
        <ele>302</ele>
        <time>2012-04-01T07:50:41Z</time>
      </trkpt>
      <trkpt lat="43.57143" lon="6.50951">
        <ele>290</ele>
        <time>2012-04-01T07:51:04Z</time>
      </trkpt>
      <trkpt lat="43.57144" lon="6.50946">
        <ele>291</ele>
        <time>2012-04-01T07:51:15Z</time>
      </trkpt>
      <trkpt lat="43.57145" lon="6.50945">
        <ele>287</ele>
        <time>2012-04-01T07:51:26Z</time>
      </trkpt>
      <trkpt lat="43.57147" lon="6.50948">
        <ele>298</ele>
        <time>2012-04-01T07:51:46Z</time>
      </trkpt>
      <trkpt lat="43.5714" lon="6.50939">
        <ele>294</ele>
        <time>2012-04-01T07:51:56Z</time>
      </trkpt>
      <trkpt lat="43.57116" lon="6.50904">
        <ele>289</ele>
        <time>2012-04-01T07:52:07Z</time>
      </trkpt>
      <trkpt lat="43.57088" lon="6.50866">
        <ele>289</ele>
        <time>2012-04-01T07:52:17Z</time>
      </trkpt>
      <trkpt lat="43.57084" lon="6.50823">
        <ele>289</ele>
        <time>2012-04-01T07:52:28Z</time>
      </trkpt>
      <trkpt lat="43.57067" lon="6.50778">
        <ele>290</ele>
        <time>2012-04-01T07:52:38Z</time>
      </trkpt>
      <trkpt lat="43.57027" lon="6.50803">
        <ele>290</ele>
        <time>2012-04-01T07:52:48Z</time>
      </trkpt>
      <trkpt lat="43.56985" lon="6.50843">
        <ele>290</ele>
        <time>2012-04-01T07:52:58Z</time>
      </trkpt>
      <trkpt lat="43.56946" lon="6.50817">
        <ele>290</ele>
        <time>2012-04-01T07:53:08Z</time>
      </trkpt>
      <trkpt lat="43.56931" lon="6.50763">
        <ele>290</ele>
        <time>2012-04-01T07:53:19Z</time>
      </trkpt>
      <trkpt lat="43.56911" lon="6.5071">
        <ele>290</ele>
        <time>2012-04-01T07:53:29Z</time>
      </trkpt>
      <trkpt lat="43.56878" lon="6.50709">
        <ele>292</ele>
        <time>2012-04-01T07:53:39Z</time>
      </trkpt>
      <trkpt lat="43.5685" lon="6.50715">
        <ele>292</ele>
        <time>2012-04-01T07:53:49Z</time>
      </trkpt>
      <trkpt lat="43.56822" lon="6.50727">
        <ele>292</ele>
        <time>2012-04-01T07:53:59Z</time>
      </trkpt>
      <trkpt lat="43.56816" lon="6.50765">
        <ele>292</ele>
        <time>2012-04-01T07:54:09Z</time>
      </trkpt>
      <trkpt lat="43.56813" lon="6.50834">
        <ele>292</ele>
        <time>2012-04-01T07:54:19Z</time>
      </trkpt>
      <trkpt lat="43.56818" lon="6.50905">
        <ele>292</ele>
        <time>2012-04-01T07:54:29Z</time>
      </trkpt>
      <trkpt lat="43.56829" lon="6.5097">
        <ele>292</ele>
        <time>2012-04-01T07:54:39Z</time>
      </trkpt>
      <trkpt lat="43.56849" lon="6.51011">
        <ele>292</ele>
        <time>2012-04-01T07:54:49Z</time>
      </trkpt>
      <trkpt lat="43.56887" lon="6.51053">
        <ele>292</ele>
        <time>2012-04-01T07:54:59Z</time>
      </trkpt>
      <trkpt lat="43.56919" lon="6.51085">
        <ele>292</ele>
        <time>2012-04-01T07:55:10Z</time>
      </trkpt>
      <trkpt lat="43.56935" lon="6.51127">
        <ele>292</ele>
        <time>2012-04-01T07:55:20Z</time>
      </trkpt>
      <trkpt lat="43.56932" lon="6.51183">
        <ele>297</ele>
        <time>2012-04-01T07:55:31Z</time>
      </trkpt>
      <trkpt lat="43.56929" lon="6.51235">
        <ele>297</ele>
        <time>2012-04-01T07:55:41Z</time>
      </trkpt>
      <trkpt lat="43.56932" lon="6.51294">
        <ele>297</ele>
        <time>2012-04-01T07:55:51Z</time>
      </trkpt>
      <trkpt lat="43.5693" lon="6.51343">
        <ele>297</ele>
        <time>2012-04-01T07:56:01Z</time>
      </trkpt>
      <trkpt lat="43.56932" lon="6.51379">
        <ele>300</ele>
        <time>2012-04-01T07:56:11Z</time>
      </trkpt>
      <trkpt lat="43.56935" lon="6.51414">
        <ele>300</ele>
        <time>2012-04-01T07:56:21Z</time>
      </trkpt>
      <trkpt lat="43.56928" lon="6.51448">
        <ele>303</ele>
        <time>2012-04-01T07:56:31Z</time>
      </trkpt>
      <trkpt lat="43.56923" lon="6.51481">
        <ele>308</ele>
        <time>2012-04-01T07:56:42Z</time>
      </trkpt>
      <trkpt lat="43.56934" lon="6.51508">
        <ele>309</ele>
        <time>2012-04-01T07:56:52Z</time>
      </trkpt>
      <trkpt lat="43.56975" lon="6.51546">
        <ele>309</ele>
        <time>2012-04-01T07:57:02Z</time>
      </trkpt>
      <trkpt lat="43.56972" lon="6.51612">
        <ele>309</ele>
        <time>2012-04-01T07:57:12Z</time>
      </trkpt>
      <trkpt lat="43.5696" lon="6.51654">
        <ele>309</ele>
        <time>2012-04-01T07:57:22Z</time>
      </trkpt>
      <trkpt lat="43.56953" lon="6.51698">
        <ele>309</ele>
        <time>2012-04-01T07:57:33Z</time>
      </trkpt>
      <trkpt lat="43.56975" lon="6.51725">
        <ele>309</ele>
        <time>2012-04-01T07:57:43Z</time>
      </trkpt>
      <trkpt lat="43.56974" lon="6.51761">
        <ele>309</ele>
        <time>2012-04-01T07:57:53Z</time>
      </trkpt>
      <trkpt lat="43.56973" lon="6.51795">
        <ele>309</ele>
        <time>2012-04-01T07:58:03Z</time>
      </trkpt>
      <trkpt lat="43.56969" lon="6.51822">
        <ele>311</ele>
        <time>2012-04-01T07:58:13Z</time>
      </trkpt>
      <trkpt lat="43.56963" lon="6.51847">
        <ele>313</ele>
        <time>2012-04-01T07:58:23Z</time>
      </trkpt>
      <trkpt lat="43.56958" lon="6.51873">
        <ele>317</ele>
        <time>2012-04-01T07:58:33Z</time>
      </trkpt>
      <trkpt lat="43.56958" lon="6.51897">
        <ele>319</ele>
        <time>2012-04-01T07:58:43Z</time>
      </trkpt>
      <trkpt lat="43.56956" lon="6.51917">
        <ele>322</ele>
        <time>2012-04-01T07:58:53Z</time>
      </trkpt>
      <trkpt lat="43.56956" lon="6.51937">
        <ele>329</ele>
        <time>2012-04-01T07:59:04Z</time>
      </trkpt>
      <trkpt lat="43.56955" lon="6.51955">
        <ele>334</ele>
        <time>2012-04-01T07:59:14Z</time>
      </trkpt>
      <trkpt lat="43.56954" lon="6.51974">
        <ele>336</ele>
        <time>2012-04-01T07:59:24Z</time>
      </trkpt>
      <trkpt lat="43.56951" lon="6.51994">
        <ele>337</ele>
        <time>2012-04-01T07:59:34Z</time>
      </trkpt>
      <trkpt lat="43.5695" lon="6.52012">
        <ele>338</ele>
        <time>2012-04-01T07:59:44Z</time>
      </trkpt>
      <trkpt lat="43.56946" lon="6.52032">
        <ele>340</ele>
        <time>2012-04-01T07:59:54Z</time>
      </trkpt>
      <trkpt lat="43.56943" lon="6.52047">
        <ele>346</ele>
        <time>2012-04-01T08:00:04Z</time>
      </trkpt>
      <trkpt lat="43.56937" lon="6.5206">
        <ele>352</ele>
        <time>2012-04-01T08:00:14Z</time>
      </trkpt>
      <trkpt lat="43.56932" lon="6.52077">
        <ele>354</ele>
        <time>2012-04-01T08:00:24Z</time>
      </trkpt>
      <trkpt lat="43.5693" lon="6.52093">
        <ele>354</ele>
        <time>2012-04-01T08:00:34Z</time>
      </trkpt>
      <trkpt lat="43.56926" lon="6.52117">
        <ele>354</ele>
        <time>2012-04-01T08:00:45Z</time>
      </trkpt>
      <trkpt lat="43.56925" lon="6.52139">
        <ele>355</ele>
        <time>2012-04-01T08:00:56Z</time>
      </trkpt>
      <trkpt lat="43.56928" lon="6.52163">
        <ele>356</ele>
        <time>2012-04-01T08:01:06Z</time>
      </trkpt>
      <trkpt lat="43.56925" lon="6.52185">
        <ele>357</ele>
        <time>2012-04-01T08:01:16Z</time>
      </trkpt>
      <trkpt lat="43.56923" lon="6.5221">
        <ele>359</ele>
        <time>2012-04-01T08:01:26Z</time>
      </trkpt>
      <trkpt lat="43.56918" lon="6.52235">
        <ele>362</ele>
        <time>2012-04-01T08:01:37Z</time>
      </trkpt>
      <trkpt lat="43.56913" lon="6.52257">
        <ele>371</ele>
        <time>2012-04-01T08:01:48Z</time>
      </trkpt>
      <trkpt lat="43.56908" lon="6.52274">
        <ele>372</ele>
        <time>2012-04-01T08:01:58Z</time>
      </trkpt>
      <trkpt lat="43.56899" lon="6.52292">
        <ele>376</ele>
        <time>2012-04-01T08:02:09Z</time>
      </trkpt>
      <trkpt lat="43.56893" lon="6.52319">
        <ele>376</ele>
        <time>2012-04-01T08:02:19Z</time>
      </trkpt>
      <trkpt lat="43.56894" lon="6.52345">
        <ele>376</ele>
        <time>2012-04-01T08:02:30Z</time>
      </trkpt>
      <trkpt lat="43.56905" lon="6.52365">
        <ele>376</ele>
        <time>2012-04-01T08:02:40Z</time>
      </trkpt>
      <trkpt lat="43.56923" lon="6.52375">
        <ele>368</ele>
        <time>2012-04-01T08:02:50Z</time>
      </trkpt>
      <trkpt lat="43.56932" lon="6.52388">
        <ele>367</ele>
        <time>2012-04-01T08:03:00Z</time>
      </trkpt>
      <trkpt lat="43.56937" lon="6.52414">
        <ele>371</ele>
        <time>2012-04-01T08:03:10Z</time>
      </trkpt>
      <trkpt lat="43.56945" lon="6.52436">
        <ele>375</ele>
        <time>2012-04-01T08:03:20Z</time>
      </trkpt>
      <trkpt lat="43.56953" lon="6.52456">
        <ele>376</ele>
        <time>2012-04-01T08:03:31Z</time>
      </trkpt>
      <trkpt lat="43.56961" lon="6.52477">
        <ele>376</ele>
        <time>2012-04-01T08:03:41Z</time>
      </trkpt>
      <trkpt lat="43.56973" lon="6.52497">
        <ele>376</ele>
        <time>2012-04-01T08:03:52Z</time>
      </trkpt>
      <trkpt lat="43.56981" lon="6.52514">
        <ele>384</ele>
        <time>2012-04-01T08:04:02Z</time>
      </trkpt>
      <trkpt lat="43.56997" lon="6.52512">
        <ele>384</ele>
        <time>2012-04-01T08:04:12Z</time>
      </trkpt>
      <trkpt lat="43.56996" lon="6.52496">
        <ele>384</ele>
        <time>2012-04-01T08:04:24Z</time>
      </trkpt>
      <trkpt lat="43.56995" lon="6.5248">
        <ele>387</ele>
        <time>2012-04-01T08:04:36Z</time>
      </trkpt>
      <trkpt lat="43.56997" lon="6.52459">
        <ele>387</ele>
        <time>2012-04-01T08:04:46Z</time>
      </trkpt>
      <trkpt lat="43.57" lon="6.52439">
        <ele>387</ele>
        <time>2012-04-01T08:04:56Z</time>
      </trkpt>
      <trkpt lat="43.57004" lon="6.52419">
        <ele>387</ele>
        <time>2012-04-01T08:05:06Z</time>
      </trkpt>
      <trkpt lat="43.5701" lon="6.52399">
        <ele>387</ele>
        <time>2012-04-01T08:05:16Z</time>
      </trkpt>
      <trkpt lat="43.57016" lon="6.5238">
        <ele>388</ele>
        <time>2012-04-01T08:05:26Z</time>
      </trkpt>
      <trkpt lat="43.5703" lon="6.52366">
        <ele>390</ele>
        <time>2012-04-01T08:05:36Z</time>
      </trkpt>
      <trkpt lat="43.57045" lon="6.52356">
        <ele>393</ele>
        <time>2012-04-01T08:05:46Z</time>
      </trkpt>
      <trkpt lat="43.57058" lon="6.52337">
        <ele>395</ele>
        <time>2012-04-01T08:05:57Z</time>
      </trkpt>
      <trkpt lat="43.57069" lon="6.52325">
        <ele>396</ele>
        <time>2012-04-01T08:06:08Z</time>
      </trkpt>
      <trkpt lat="43.57069" lon="6.52325">
        <ele>396</ele>
        <time>2012-04-01T08:06:19Z</time>
      </trkpt>
      <trkpt lat="43.57068" lon="6.52325">
        <ele>395</ele>
        <time>2012-04-01T08:06:33Z</time>
      </trkpt>
      <trkpt lat="43.5707" lon="6.52325">
        <ele>396</ele>
        <time>2012-04-01T08:06:55Z</time>
      </trkpt>
      <trkpt lat="43.57071" lon="6.52321">
        <ele>400</ele>
        <time>2012-04-01T08:07:17Z</time>
      </trkpt>
      <trkpt lat="43.57073" lon="6.52318">
        <ele>396</ele>
        <time>2012-04-01T08:07:38Z</time>
      </trkpt>
      <trkpt lat="43.57073" lon="6.52317">
        <ele>391</ele>
        <time>2012-04-01T08:07:44Z</time>
      </trkpt>
      <trkpt lat="43.57074" lon="6.52318">
        <ele>388</ele>
        <time>2012-04-01T08:07:44Z</time>
      </trkpt>
      <trkpt lat="43.57076" lon="6.52319">
        <ele>388</ele>
        <time>2012-04-01T08:08:02Z</time>
      </trkpt>
      <trkpt lat="43.57078" lon="6.52319">
        <ele>386</ele>
        <time>2012-04-01T08:08:23Z</time>
      </trkpt>
      <trkpt lat="43.57076" lon="6.5232">
        <ele>383</ele>
        <time>2012-04-01T08:08:45Z</time>
      </trkpt>
      <trkpt lat="43.57075" lon="6.52323">
        <ele>383</ele>
        <time>2012-04-01T08:08:55Z</time>
      </trkpt>
      <trkpt lat="43.57073" lon="6.52328">
        <ele>383</ele>
        <time>2012-04-01T08:09:14Z</time>
      </trkpt>
      <trkpt lat="43.5707" lon="6.52329">
        <ele>383</ele>
        <time>2012-04-01T08:09:27Z</time>
      </trkpt>
      <trkpt lat="43.57067" lon="6.5233">
        <ele>383</ele>
        <time>2012-04-01T08:09:42Z</time>
      </trkpt>
      <trkpt lat="43.57064" lon="6.52327">
        <ele>383</ele>
        <time>2012-04-01T08:09:52Z</time>
      </trkpt>
      <trkpt lat="43.57081" lon="6.52319">
        <ele>383</ele>
        <time>2012-04-01T08:10:03Z</time>
      </trkpt>
      <trkpt lat="43.57093" lon="6.52289">
        <ele>383</ele>
        <time>2012-04-01T08:10:13Z</time>
      </trkpt>
      <trkpt lat="43.571" lon="6.52268">
        <ele>386</ele>
        <time>2012-04-01T08:10:25Z</time>
      </trkpt>
      <trkpt lat="43.57105" lon="6.52251">
        <ele>388</ele>
        <time>2012-04-01T08:10:35Z</time>
      </trkpt>
      <trkpt lat="43.57114" lon="6.52236">
        <ele>386</ele>
        <time>2012-04-01T08:10:45Z</time>
      </trkpt>
      <trkpt lat="43.5712" lon="6.52197">
        <ele>386</ele>
        <time>2012-04-01T08:10:56Z</time>
      </trkpt>
      <trkpt lat="43.57136" lon="6.52137">
        <ele>386</ele>
        <time>2012-04-01T08:11:06Z</time>
      </trkpt>
      <trkpt lat="43.57157" lon="6.52088">
        <ele>385</ele>
        <time>2012-04-01T08:11:16Z</time>
      </trkpt>
      <trkpt lat="43.57156" lon="6.52057">
        <ele>376</ele>
        <time>2012-04-01T08:11:26Z</time>
      </trkpt>
      <trkpt lat="43.57188" lon="6.52011">
        <ele>371</ele>
        <time>2012-04-01T08:11:37Z</time>
      </trkpt>
      <trkpt lat="43.57214" lon="6.51992">
        <ele>369</ele>
        <time>2012-04-01T08:11:47Z</time>
      </trkpt>
      <trkpt lat="43.57243" lon="6.51952">
        <ele>369</ele>
        <time>2012-04-01T08:11:57Z</time>
      </trkpt>
      <trkpt lat="43.57251" lon="6.51907">
        <ele>369</ele>
        <time>2012-04-01T08:12:07Z</time>
      </trkpt>
      <trkpt lat="43.57256" lon="6.51853">
        <ele>369</ele>
        <time>2012-04-01T08:12:18Z</time>
      </trkpt>
      <trkpt lat="43.5727" lon="6.51797">
        <ele>366</ele>
        <time>2012-04-01T08:12:28Z</time>
      </trkpt>
      <trkpt lat="43.57333" lon="6.51756">
        <ele>366</ele>
        <time>2012-04-01T08:12:39Z</time>
      </trkpt>
      <trkpt lat="43.57354" lon="6.51719">
        <ele>361</ele>
        <time>2012-04-01T08:12:49Z</time>
      </trkpt>
      <trkpt lat="43.57396" lon="6.51692">
        <ele>353</ele>
        <time>2012-04-01T08:12:59Z</time>
      </trkpt>
      <trkpt lat="43.57458" lon="6.51642">
        <ele>340</ele>
        <time>2012-04-01T08:13:09Z</time>
      </trkpt>
      <trkpt lat="43.57476" lon="6.51693">
        <ele>334</ele>
        <time>2012-04-01T08:13:19Z</time>
      </trkpt>
      <trkpt lat="43.57489" lon="6.51706">
        <ele>328</ele>
        <time>2012-04-01T08:13:30Z</time>
      </trkpt>
      <trkpt lat="43.57522" lon="6.51639">
        <ele>315</ele>
        <time>2012-04-01T08:13:41Z</time>
      </trkpt>
      <trkpt lat="43.57536" lon="6.51572">
        <ele>312</ele>
        <time>2012-04-01T08:13:51Z</time>
      </trkpt>
      <trkpt lat="43.57576" lon="6.51506">
        <ele>312</ele>
        <time>2012-04-01T08:14:01Z</time>
      </trkpt>
      <trkpt lat="43.57627" lon="6.51522">
        <ele>300</ele>
        <time>2012-04-01T08:14:12Z</time>
      </trkpt>
      <trkpt lat="43.57667" lon="6.51578">
        <ele>290</ele>
        <time>2012-04-01T08:14:22Z</time>
      </trkpt>
      <trkpt lat="43.57701" lon="6.51657">
        <ele>286</ele>
        <time>2012-04-01T08:14:32Z</time>
      </trkpt>
      <trkpt lat="43.5772" lon="6.51743">
        <ele>286</ele>
        <time>2012-04-01T08:14:42Z</time>
      </trkpt>
      <trkpt lat="43.57744" lon="6.51817">
        <ele>284</ele>
        <time>2012-04-01T08:14:52Z</time>
      </trkpt>
      <trkpt lat="43.57767" lon="6.51888">
        <ele>284</ele>
        <time>2012-04-01T08:15:02Z</time>
      </trkpt>
      <trkpt lat="43.57784" lon="6.51931">
        <ele>284</ele>
        <time>2012-04-01T08:15:12Z</time>
      </trkpt>
      <trkpt lat="43.57792" lon="6.51957">
        <ele>284</ele>
        <time>2012-04-01T08:15:22Z</time>
      </trkpt>
      <trkpt lat="43.57802" lon="6.51982">
        <ele>292</ele>
        <time>2012-04-01T08:15:32Z</time>
      </trkpt>
      <trkpt lat="43.57815" lon="6.52009">
        <ele>299</ele>
        <time>2012-04-01T08:15:42Z</time>
      </trkpt>
      <trkpt lat="43.57828" lon="6.52033">
        <ele>300</ele>
        <time>2012-04-01T08:15:52Z</time>
      </trkpt>
      <trkpt lat="43.57842" lon="6.52056">
        <ele>309</ele>
        <time>2012-04-01T08:16:02Z</time>
      </trkpt>
      <trkpt lat="43.57856" lon="6.52073">
        <ele>310</ele>
        <time>2012-04-01T08:16:12Z</time>
      </trkpt>
      <trkpt lat="43.57872" lon="6.52089">
        <ele>310</ele>
        <time>2012-04-01T08:16:22Z</time>
      </trkpt>
      <trkpt lat="43.57899" lon="6.52101">
        <ele>310</ele>
        <time>2012-04-01T08:16:32Z</time>
      </trkpt>
      <trkpt lat="43.57933" lon="6.52126">
        <ele>310</ele>
        <time>2012-04-01T08:16:42Z</time>
      </trkpt>
      <trkpt lat="43.57981" lon="6.52166">
        <ele>309</ele>
        <time>2012-04-01T08:16:52Z</time>
      </trkpt>
      <trkpt lat="43.5802" lon="6.52206">
        <ele>305</ele>
        <time>2012-04-01T08:17:02Z</time>
      </trkpt>
      <trkpt lat="43.58056" lon="6.52238">
        <ele>302</ele>
        <time>2012-04-01T08:17:12Z</time>
      </trkpt>
      <trkpt lat="43.58085" lon="6.52263">
        <ele>298</ele>
        <time>2012-04-01T08:17:22Z</time>
      </trkpt>
      <trkpt lat="43.58104" lon="6.52294">
        <ele>298</ele>
        <time>2012-04-01T08:17:32Z</time>
      </trkpt>
      <trkpt lat="43.58118" lon="6.5232">
        <ele>307</ele>
        <time>2012-04-01T08:17:42Z</time>
      </trkpt>
      <trkpt lat="43.58137" lon="6.52337">
        <ele>311</ele>
        <time>2012-04-01T08:17:53Z</time>
      </trkpt>
      <trkpt lat="43.58159" lon="6.52348">
        <ele>316</ele>
        <time>2012-04-01T08:18:03Z</time>
      </trkpt>
      <trkpt lat="43.5818" lon="6.52363">
        <ele>321</ele>
        <time>2012-04-01T08:18:13Z</time>
      </trkpt>
      <trkpt lat="43.58202" lon="6.52374">
        <ele>324</ele>
        <time>2012-04-01T08:18:23Z</time>
      </trkpt>
      <trkpt lat="43.58225" lon="6.52377">
        <ele>326</ele>
        <time>2012-04-01T08:18:33Z</time>
      </trkpt>
      <trkpt lat="43.58251" lon="6.52382">
        <ele>328</ele>
        <time>2012-04-01T08:18:43Z</time>
      </trkpt>
      <trkpt lat="43.58288" lon="6.52391">
        <ele>333</ele>
        <time>2012-04-01T08:18:53Z</time>
      </trkpt>
      <trkpt lat="43.58341" lon="6.52383">
        <ele>333</ele>
        <time>2012-04-01T08:19:03Z</time>
      </trkpt>
      <trkpt lat="43.58376" lon="6.52368">
        <ele>324</ele>
        <time>2012-04-01T08:19:13Z</time>
      </trkpt>
      <trkpt lat="43.58396" lon="6.52373">
        <ele>320</ele>
        <time>2012-04-01T08:19:23Z</time>
      </trkpt>
      <trkpt lat="43.58414" lon="6.52383">
        <ele>320</ele>
        <time>2012-04-01T08:19:33Z</time>
      </trkpt>
      <trkpt lat="43.58432" lon="6.52384">
        <ele>320</ele>
        <time>2012-04-01T08:19:43Z</time>
      </trkpt>
      <trkpt lat="43.58448" lon="6.52384">
        <ele>319</ele>
        <time>2012-04-01T08:19:53Z</time>
      </trkpt>
      <trkpt lat="43.5847" lon="6.52388">
        <ele>326</ele>
        <time>2012-04-01T08:20:04Z</time>
      </trkpt>
      <trkpt lat="43.5849" lon="6.5239">
        <ele>331</ele>
        <time>2012-04-01T08:20:14Z</time>
      </trkpt>
      <trkpt lat="43.58503" lon="6.52396">
        <ele>339</ele>
        <time>2012-04-01T08:20:24Z</time>
      </trkpt>
      <trkpt lat="43.58516" lon="6.524">
        <ele>347</ele>
        <time>2012-04-01T08:20:35Z</time>
      </trkpt>
      <trkpt lat="43.5853" lon="6.52404">
        <ele>348</ele>
        <time>2012-04-01T08:20:45Z</time>
      </trkpt>
      <trkpt lat="43.58547" lon="6.52398">
        <ele>353</ele>
        <time>2012-04-01T08:20:55Z</time>
      </trkpt>
      <trkpt lat="43.58565" lon="6.52395">
        <ele>357</ele>
        <time>2012-04-01T08:21:05Z</time>
      </trkpt>
      <trkpt lat="43.58586" lon="6.52402">
        <ele>350</ele>
        <time>2012-04-01T08:21:15Z</time>
      </trkpt>
      <trkpt lat="43.58604" lon="6.52412">
        <ele>348</ele>
        <time>2012-04-01T08:21:25Z</time>
      </trkpt>
      <trkpt lat="43.58624" lon="6.52425">
        <ele>345</ele>
        <time>2012-04-01T08:21:36Z</time>
      </trkpt>
      <trkpt lat="43.58645" lon="6.52445">
        <ele>340</ele>
        <time>2012-04-01T08:21:47Z</time>
      </trkpt>
      <trkpt lat="43.58662" lon="6.52476">
        <ele>340</ele>
        <time>2012-04-01T08:21:58Z</time>
      </trkpt>
      <trkpt lat="43.58675" lon="6.52507">
        <ele>340</ele>
        <time>2012-04-01T08:22:08Z</time>
      </trkpt>
      <trkpt lat="43.58692" lon="6.52526">
        <ele>345</ele>
        <time>2012-04-01T08:22:18Z</time>
      </trkpt>
      <trkpt lat="43.58717" lon="6.52531">
        <ele>352</ele>
        <time>2012-04-01T08:22:28Z</time>
      </trkpt>
      <trkpt lat="43.58743" lon="6.52555">
        <ele>353</ele>
        <time>2012-04-01T08:22:38Z</time>
      </trkpt>
      <trkpt lat="43.58767" lon="6.52576">
        <ele>362</ele>
        <time>2012-04-01T08:22:49Z</time>
      </trkpt>
      <trkpt lat="43.58787" lon="6.52578">
        <ele>369</ele>
        <time>2012-04-01T08:22:59Z</time>
      </trkpt>
      <trkpt lat="43.58806" lon="6.52574">
        <ele>376</ele>
        <time>2012-04-01T08:23:09Z</time>
      </trkpt>
      <trkpt lat="43.58823" lon="6.52578">
        <ele>377</ele>
        <time>2012-04-01T08:23:19Z</time>
      </trkpt>
      <trkpt lat="43.58837" lon="6.52582">
        <ele>377</ele>
        <time>2012-04-01T08:23:29Z</time>
      </trkpt>
      <trkpt lat="43.58849" lon="6.52586">
        <ele>377</ele>
        <time>2012-04-01T08:23:39Z</time>
      </trkpt>
      <trkpt lat="43.58851" lon="6.52604">
        <ele>377</ele>
        <time>2012-04-01T08:23:49Z</time>
      </trkpt>
      <trkpt lat="43.58857" lon="6.52621">
        <ele>377</ele>
        <time>2012-04-01T08:23:59Z</time>
      </trkpt>
      <trkpt lat="43.58862" lon="6.52634">
        <ele>377</ele>
        <time>2012-04-01T08:24:10Z</time>
      </trkpt>
      <trkpt lat="43.58867" lon="6.52647">
        <ele>380</ele>
        <time>2012-04-01T08:24:20Z</time>
      </trkpt>
      <trkpt lat="43.58873" lon="6.52671">
        <ele>380</ele>
        <time>2012-04-01T08:24:31Z</time>
      </trkpt>
      <trkpt lat="43.58878" lon="6.52692">
        <ele>380</ele>
        <time>2012-04-01T08:24:42Z</time>
      </trkpt>
      <trkpt lat="43.58886" lon="6.52707">
        <ele>380</ele>
        <time>2012-04-01T08:24:52Z</time>
      </trkpt>
      <trkpt lat="43.58891" lon="6.52725">
        <ele>384</ele>
        <time>2012-04-01T08:25:02Z</time>
      </trkpt>
      <trkpt lat="43.58894" lon="6.52747">
        <ele>386</ele>
        <time>2012-04-01T08:25:13Z</time>
      </trkpt>
      <trkpt lat="43.58903" lon="6.52743">
        <ele>389</ele>
        <time>2012-04-01T08:25:24Z</time>
      </trkpt>
      <trkpt lat="43.58908" lon="6.52727">
        <ele>395</ele>
        <time>2012-04-01T08:25:34Z</time>
      </trkpt>
      <trkpt lat="43.58911" lon="6.52708">
        <ele>399</ele>
        <time>2012-04-01T08:25:44Z</time>
      </trkpt>
      <trkpt lat="43.58915" lon="6.52691">
        <ele>400</ele>
        <time>2012-04-01T08:25:54Z</time>
      </trkpt>
      <trkpt lat="43.58921" lon="6.52672">
        <ele>400</ele>
        <time>2012-04-01T08:26:05Z</time>
      </trkpt>
      <trkpt lat="43.58931" lon="6.52656">
        <ele>403</ele>
        <time>2012-04-01T08:26:15Z</time>
      </trkpt>
      <trkpt lat="43.58935" lon="6.52637">
        <ele>405</ele>
        <time>2012-04-01T08:26:25Z</time>
      </trkpt>
      <trkpt lat="43.58942" lon="6.52615">
        <ele>406</ele>
        <time>2012-04-01T08:26:35Z</time>
      </trkpt>
      <trkpt lat="43.58947" lon="6.52594">
        <ele>409</ele>
        <time>2012-04-01T08:26:45Z</time>
      </trkpt>
      <trkpt lat="43.58953" lon="6.52573">
        <ele>412</ele>
        <time>2012-04-01T08:26:55Z</time>
      </trkpt>
      <trkpt lat="43.58956" lon="6.52556">
        <ele>414</ele>
        <time>2012-04-01T08:27:05Z</time>
      </trkpt>
      <trkpt lat="43.58958" lon="6.52539">
        <ele>416</ele>
        <time>2012-04-01T08:27:15Z</time>
      </trkpt>
      <trkpt lat="43.58958" lon="6.52517">
        <ele>417</ele>
        <time>2012-04-01T08:27:25Z</time>
      </trkpt>
      <trkpt lat="43.58954" lon="6.52494">
        <ele>418</ele>
        <time>2012-04-01T08:27:35Z</time>
      </trkpt>
      <trkpt lat="43.58955" lon="6.52465">
        <ele>419</ele>
        <time>2012-04-01T08:27:45Z</time>
      </trkpt>
      <trkpt lat="43.58966" lon="6.52442">
        <ele>423</ele>
        <time>2012-04-01T08:27:55Z</time>
      </trkpt>
      <trkpt lat="43.58973" lon="6.52424">
        <ele>423</ele>
        <time>2012-04-01T08:28:05Z</time>
      </trkpt>
      <trkpt lat="43.5898" lon="6.52402">
        <ele>423</ele>
        <time>2012-04-01T08:28:15Z</time>
      </trkpt>
      <trkpt lat="43.58986" lon="6.52371">
        <ele>423</ele>
        <time>2012-04-01T08:28:26Z</time>
      </trkpt>
      <trkpt lat="43.58986" lon="6.52347">
        <ele>423</ele>
        <time>2012-04-01T08:28:36Z</time>
      </trkpt>
      <trkpt lat="43.58984" lon="6.52324">
        <ele>425</ele>
        <time>2012-04-01T08:28:46Z</time>
      </trkpt>
      <trkpt lat="43.58978" lon="6.52304">
        <ele>431</ele>
        <time>2012-04-01T08:28:56Z</time>
      </trkpt>
      <trkpt lat="43.5897" lon="6.52284">
        <ele>433</ele>
        <time>2012-04-01T08:29:06Z</time>
      </trkpt>
      <trkpt lat="43.58964" lon="6.52261">
        <ele>433</ele>
        <time>2012-04-01T08:29:17Z</time>
      </trkpt>
      <trkpt lat="43.58959" lon="6.52237">
        <ele>434</ele>
        <time>2012-04-01T08:29:28Z</time>
      </trkpt>
      <trkpt lat="43.58957" lon="6.52215">
        <ele>436</ele>
        <time>2012-04-01T08:29:38Z</time>
      </trkpt>
      <trkpt lat="43.58949" lon="6.52195">
        <ele>439</ele>
        <time>2012-04-01T08:29:49Z</time>
      </trkpt>
      <trkpt lat="43.58945" lon="6.52175">
        <ele>442</ele>
        <time>2012-04-01T08:29:59Z</time>
      </trkpt>
      <trkpt lat="43.58942" lon="6.52154">
        <ele>446</ele>
        <time>2012-04-01T08:30:09Z</time>
      </trkpt>
      <trkpt lat="43.58947" lon="6.52134">
        <ele>448</ele>
        <time>2012-04-01T08:30:19Z</time>
      </trkpt>
      <trkpt lat="43.58952" lon="6.52085">
        <ele>448</ele>
        <time>2012-04-01T08:30:29Z</time>
      </trkpt>
      <trkpt lat="43.58978" lon="6.52033">
        <ele>447</ele>
        <time>2012-04-01T08:30:39Z</time>
      </trkpt>
      <trkpt lat="43.58967" lon="6.52023">
        <ele>445</ele>
        <time>2012-04-01T08:30:49Z</time>
      </trkpt>
      <trkpt lat="43.58956" lon="6.52012">
        <ele>449</ele>
        <time>2012-04-01T08:30:59Z</time>
      </trkpt>
      <trkpt lat="43.58947" lon="6.51997">
        <ele>451</ele>
        <time>2012-04-01T08:31:09Z</time>
      </trkpt>
      <trkpt lat="43.58947" lon="6.51986">
        <ele>452</ele>
        <time>2012-04-01T08:31:19Z</time>
      </trkpt>
      <trkpt lat="43.58945" lon="6.51984">
        <ele>443</ele>
        <time>2012-04-01T08:31:29Z</time>
      </trkpt>
      <trkpt lat="43.58939" lon="6.51976">
        <ele>441</ele>
        <time>2012-04-01T08:31:39Z</time>
      </trkpt>
      <trkpt lat="43.58934" lon="6.51973">
        <ele>434</ele>
        <time>2012-04-01T08:32:01Z</time>
      </trkpt>
      <trkpt lat="43.58931" lon="6.51966">
        <ele>424</ele>
        <time>2012-04-01T08:32:23Z</time>
      </trkpt>
      <trkpt lat="43.58934" lon="6.51966">
        <ele>422</ele>
        <time>2012-04-01T08:32:33Z</time>
      </trkpt>
      <trkpt lat="43.58935" lon="6.51964">
        <ele>421</ele>
        <time>2012-04-01T08:32:45Z</time>
      </trkpt>
      <trkpt lat="43.58934" lon="6.51961">
        <ele>421</ele>
        <time>2012-04-01T08:32:55Z</time>
      </trkpt>
      <trkpt lat="43.58934" lon="6.51959">
        <ele>421</ele>
        <time>2012-04-01T08:33:06Z</time>
      </trkpt>
      <trkpt lat="43.5893" lon="6.51961">
        <ele>421</ele>
        <time>2012-04-01T08:33:24Z</time>
      </trkpt>
      <trkpt lat="43.5893" lon="6.51966">
        <ele>421</ele>
        <time>2012-04-01T08:33:34Z</time>
      </trkpt>
      <trkpt lat="43.58924" lon="6.51967">
        <ele>424</ele>
        <time>2012-04-01T08:33:44Z</time>
      </trkpt>
      <trkpt lat="43.58921" lon="6.51965">
        <ele>429</ele>
        <time>2012-04-01T08:33:54Z</time>
      </trkpt>
      <trkpt lat="43.58923" lon="6.51963">
        <ele>433</ele>
        <time>2012-04-01T08:34:04Z</time>
      </trkpt>
      <trkpt lat="43.58924" lon="6.51969">
        <ele>433</ele>
        <time>2012-04-01T08:34:15Z</time>
      </trkpt>
      <trkpt lat="43.58928" lon="6.51971">
        <ele>433</ele>
        <time>2012-04-01T08:34:26Z</time>
      </trkpt>
      <trkpt lat="43.58932" lon="6.51969">
        <ele>433</ele>
        <time>2012-04-01T08:34:36Z</time>
      </trkpt>
      <trkpt lat="43.58948" lon="6.51955">
        <ele>434</ele>
        <time>2012-04-01T08:34:46Z</time>
      </trkpt>
      <trkpt lat="43.58949" lon="6.51938">
        <ele>446</ele>
        <time>2012-04-01T08:34:56Z</time>
      </trkpt>
      <trkpt lat="43.58948" lon="6.5192">
        <ele>457</ele>
        <time>2012-04-01T08:35:06Z</time>
      </trkpt>
      <trkpt lat="43.58943" lon="6.51895">
        <ele>462</ele>
        <time>2012-04-01T08:35:17Z</time>
      </trkpt>
      <trkpt lat="43.58946" lon="6.51873">
        <ele>463</ele>
        <time>2012-04-01T08:35:27Z</time>
      </trkpt>
      <trkpt lat="43.58954" lon="6.51852">
        <ele>464</ele>
        <time>2012-04-01T08:35:38Z</time>
      </trkpt>
      <trkpt lat="43.58964" lon="6.51835">
        <ele>465</ele>
        <time>2012-04-01T08:35:49Z</time>
      </trkpt>
      <trkpt lat="43.58973" lon="6.51822">
        <ele>468</ele>
        <time>2012-04-01T08:35:59Z</time>
      </trkpt>
      <trkpt lat="43.58983" lon="6.51807">
        <ele>473</ele>
        <time>2012-04-01T08:36:10Z</time>
      </trkpt>
      <trkpt lat="43.58991" lon="6.51793">
        <ele>473</ele>
        <time>2012-04-01T08:36:20Z</time>
      </trkpt>
      <trkpt lat="43.59" lon="6.51778">
        <ele>473</ele>
        <time>2012-04-01T08:36:31Z</time>
      </trkpt>
      <trkpt lat="43.59007" lon="6.51762">
        <ele>475</ele>
        <time>2012-04-01T08:36:41Z</time>
      </trkpt>
      <trkpt lat="43.59015" lon="6.51744">
        <ele>477</ele>
        <time>2012-04-01T08:36:52Z</time>
      </trkpt>
      <trkpt lat="43.59023" lon="6.51728">
        <ele>479</ele>
        <time>2012-04-01T08:37:03Z</time>
      </trkpt>
      <trkpt lat="43.59031" lon="6.51711">
        <ele>480</ele>
        <time>2012-04-01T08:37:14Z</time>
      </trkpt>
      <trkpt lat="43.5904" lon="6.51696">
        <ele>480</ele>
        <time>2012-04-01T08:37:25Z</time>
      </trkpt>
      <trkpt lat="43.59051" lon="6.51683">
        <ele>481</ele>
        <time>2012-04-01T08:37:35Z</time>
      </trkpt>
      <trkpt lat="43.59065" lon="6.51676">
        <ele>482</ele>
        <time>2012-04-01T08:37:45Z</time>
      </trkpt>
      <trkpt lat="43.59079" lon="6.51674">
        <ele>482</ele>
        <time>2012-04-01T08:37:55Z</time>
      </trkpt>
      <trkpt lat="43.59096" lon="6.51666">
        <ele>482</ele>
        <time>2012-04-01T08:38:06Z</time>
      </trkpt>
      <trkpt lat="43.59108" lon="6.51656">
        <ele>487</ele>
        <time>2012-04-01T08:38:16Z</time>
      </trkpt>
      <trkpt lat="43.59117" lon="6.51642">
        <ele>489</ele>
        <time>2012-04-01T08:38:26Z</time>
      </trkpt>
      <trkpt lat="43.59124" lon="6.51626">
        <ele>491</ele>
        <time>2012-04-01T08:38:36Z</time>
      </trkpt>
      <trkpt lat="43.59133" lon="6.51604">
        <ele>491</ele>
        <time>2012-04-01T08:38:47Z</time>
      </trkpt>
      <trkpt lat="43.59138" lon="6.51583">
        <ele>493</ele>
        <time>2012-04-01T08:38:57Z</time>
      </trkpt>
      <trkpt lat="43.59146" lon="6.51563">
        <ele>495</ele>
        <time>2012-04-01T08:39:07Z</time>
      </trkpt>
      <trkpt lat="43.59154" lon="6.51545">
        <ele>498</ele>
        <time>2012-04-01T08:39:17Z</time>
      </trkpt>
      <trkpt lat="43.59161" lon="6.51528">
        <ele>503</ele>
        <time>2012-04-01T08:39:27Z</time>
      </trkpt>
      <trkpt lat="43.5917" lon="6.5151">
        <ele>506</ele>
        <time>2012-04-01T08:39:38Z</time>
      </trkpt>
      <trkpt lat="43.59177" lon="6.51496">
        <ele>508</ele>
        <time>2012-04-01T08:39:48Z</time>
      </trkpt>
      <trkpt lat="43.59182" lon="6.5148">
        <ele>511</ele>
        <time>2012-04-01T08:39:58Z</time>
      </trkpt>
      <trkpt lat="43.59186" lon="6.51461">
        <ele>512</ele>
        <time>2012-04-01T08:40:09Z</time>
      </trkpt>
      <trkpt lat="43.5919" lon="6.51443">
        <ele>513</ele>
        <time>2012-04-01T08:40:19Z</time>
      </trkpt>
      <trkpt lat="43.59192" lon="6.51424">
        <ele>514</ele>
        <time>2012-04-01T08:40:30Z</time>
      </trkpt>
      <trkpt lat="43.59203" lon="6.51411">
        <ele>514</ele>
        <time>2012-04-01T08:40:40Z</time>
      </trkpt>
      <trkpt lat="43.59207" lon="6.514">
        <ele>519</ele>
        <time>2012-04-01T08:40:51Z</time>
      </trkpt>
      <trkpt lat="43.5921" lon="6.51386">
        <ele>526</ele>
        <time>2012-04-01T08:41:01Z</time>
      </trkpt>
      <trkpt lat="43.59224" lon="6.51366">
        <ele>527</ele>
        <time>2012-04-01T08:41:12Z</time>
      </trkpt>
      <trkpt lat="43.59231" lon="6.51351">
        <ele>525</ele>
        <time>2012-04-01T08:41:22Z</time>
      </trkpt>
      <trkpt lat="43.59237" lon="6.51335">
        <ele>525</ele>
        <time>2012-04-01T08:41:33Z</time>
      </trkpt>
      <trkpt lat="43.59241" lon="6.51319">
        <ele>530</ele>
        <time>2012-04-01T08:41:44Z</time>
      </trkpt>
      <trkpt lat="43.59253" lon="6.51303">
        <ele>535</ele>
        <time>2012-04-01T08:41:55Z</time>
      </trkpt>
      <trkpt lat="43.59259" lon="6.51285">
        <ele>536</ele>
        <time>2012-04-01T08:42:05Z</time>
      </trkpt>
      <trkpt lat="43.59264" lon="6.51268">
        <ele>536</ele>
        <time>2012-04-01T08:42:15Z</time>
      </trkpt>
      <trkpt lat="43.59272" lon="6.51252">
        <ele>537</ele>
        <time>2012-04-01T08:42:25Z</time>
      </trkpt>
      <trkpt lat="43.59277" lon="6.51241">
        <ele>541</ele>
        <time>2012-04-01T08:42:35Z</time>
      </trkpt>
      <trkpt lat="43.59285" lon="6.51227">
        <ele>543</ele>
        <time>2012-04-01T08:42:46Z</time>
      </trkpt>
      <trkpt lat="43.59291" lon="6.51213">
        <ele>543</ele>
        <time>2012-04-01T08:42:56Z</time>
      </trkpt>
      <trkpt lat="43.59296" lon="6.51198">
        <ele>546</ele>
        <time>2012-04-01T08:43:06Z</time>
      </trkpt>
      <trkpt lat="43.59297" lon="6.51185">
        <ele>546</ele>
        <time>2012-04-01T08:43:16Z</time>
      </trkpt>
      <trkpt lat="43.59291" lon="6.51165">
        <ele>550</ele>
        <time>2012-04-01T08:43:27Z</time>
      </trkpt>
      <trkpt lat="43.59294" lon="6.51148">
        <ele>551</ele>
        <time>2012-04-01T08:43:37Z</time>
      </trkpt>
      <trkpt lat="43.59294" lon="6.51127">
        <ele>551</ele>
        <time>2012-04-01T08:43:47Z</time>
      </trkpt>
      <trkpt lat="43.59293" lon="6.51111">
        <ele>554</ele>
        <time>2012-04-01T08:43:58Z</time>
      </trkpt>
      <trkpt lat="43.59298" lon="6.51095">
        <ele>557</ele>
        <time>2012-04-01T08:44:08Z</time>
      </trkpt>
      <trkpt lat="43.59295" lon="6.51079">
        <ele>558</ele>
        <time>2012-04-01T08:44:18Z</time>
      </trkpt>
      <trkpt lat="43.59292" lon="6.51059">
        <ele>561</ele>
        <time>2012-04-01T08:44:28Z</time>
      </trkpt>
      <trkpt lat="43.5929" lon="6.51041">
        <ele>563</ele>
        <time>2012-04-01T08:44:38Z</time>
      </trkpt>
      <trkpt lat="43.5929" lon="6.51022">
        <ele>565</ele>
        <time>2012-04-01T08:44:48Z</time>
      </trkpt>
      <trkpt lat="43.59287" lon="6.51006">
        <ele>565</ele>
        <time>2012-04-01T08:44:58Z</time>
      </trkpt>
      <trkpt lat="43.59286" lon="6.50986">
        <ele>563</ele>
        <time>2012-04-01T08:45:08Z</time>
      </trkpt>
      <trkpt lat="43.59284" lon="6.50967">
        <ele>563</ele>
        <time>2012-04-01T08:45:18Z</time>
      </trkpt>
      <trkpt lat="43.59282" lon="6.50946">
        <ele>563</ele>
        <time>2012-04-01T08:45:28Z</time>
      </trkpt>
      <trkpt lat="43.59284" lon="6.50929">
        <ele>564</ele>
        <time>2012-04-01T08:45:39Z</time>
      </trkpt>
      <trkpt lat="43.59286" lon="6.50915">
        <ele>569</ele>
        <time>2012-04-01T08:45:49Z</time>
      </trkpt>
      <trkpt lat="43.59291" lon="6.50897">
        <ele>575</ele>
        <time>2012-04-01T08:46:01Z</time>
      </trkpt>
      <trkpt lat="43.593" lon="6.50881">
        <ele>576</ele>
        <time>2012-04-01T08:46:11Z</time>
      </trkpt>
      <trkpt lat="43.59307" lon="6.50866">
        <ele>578</ele>
        <time>2012-04-01T08:46:21Z</time>
      </trkpt>
      <trkpt lat="43.59315" lon="6.50849">
        <ele>579</ele>
        <time>2012-04-01T08:46:32Z</time>
      </trkpt>
      <trkpt lat="43.59319" lon="6.50827">
        <ele>580</ele>
        <time>2012-04-01T08:46:42Z</time>
      </trkpt>
      <trkpt lat="43.59324" lon="6.50805">
        <ele>582</ele>
        <time>2012-04-01T08:46:52Z</time>
      </trkpt>
      <trkpt lat="43.59328" lon="6.50786">
        <ele>582</ele>
        <time>2012-04-01T08:47:02Z</time>
      </trkpt>
      <trkpt lat="43.59334" lon="6.50769">
        <ele>582</ele>
        <time>2012-04-01T08:47:12Z</time>
      </trkpt>
      <trkpt lat="43.59336" lon="6.50746">
        <ele>582</ele>
        <time>2012-04-01T08:47:22Z</time>
      </trkpt>
      <trkpt lat="43.59343" lon="6.50724">
        <ele>583</ele>
        <time>2012-04-01T08:47:33Z</time>
      </trkpt>
      <trkpt lat="43.59348" lon="6.50703">
        <ele>585</ele>
        <time>2012-04-01T08:47:43Z</time>
      </trkpt>
      <trkpt lat="43.59351" lon="6.50681">
        <ele>587</ele>
        <time>2012-04-01T08:47:53Z</time>
      </trkpt>
      <trkpt lat="43.59357" lon="6.50664">
        <ele>589</ele>
        <time>2012-04-01T08:48:03Z</time>
      </trkpt>
      <trkpt lat="43.59367" lon="6.50644">
        <ele>589</ele>
        <time>2012-04-01T08:48:14Z</time>
      </trkpt>
      <trkpt lat="43.59372" lon="6.50628">
        <ele>591</ele>
        <time>2012-04-01T08:48:24Z</time>
      </trkpt>
      <trkpt lat="43.59378" lon="6.5061">
        <ele>592</ele>
        <time>2012-04-01T08:48:34Z</time>
      </trkpt>
      <trkpt lat="43.59387" lon="6.5059">
        <ele>592</ele>
        <time>2012-04-01T08:48:45Z</time>
      </trkpt>
      <trkpt lat="43.59398" lon="6.50572">
        <ele>595</ele>
        <time>2012-04-01T08:48:55Z</time>
      </trkpt>
      <trkpt lat="43.59411" lon="6.50552">
        <ele>595</ele>
        <time>2012-04-01T08:49:06Z</time>
      </trkpt>
      <trkpt lat="43.59424" lon="6.50533">
        <ele>594</ele>
        <time>2012-04-01T08:49:17Z</time>
      </trkpt>
      <trkpt lat="43.59435" lon="6.50519">
        <ele>593</ele>
        <time>2012-04-01T08:49:27Z</time>
      </trkpt>
      <trkpt lat="43.59445" lon="6.50502">
        <ele>593</ele>
        <time>2012-04-01T08:49:38Z</time>
      </trkpt>
      <trkpt lat="43.59454" lon="6.50483">
        <ele>594</ele>
        <time>2012-04-01T08:49:49Z</time>
      </trkpt>
      <trkpt lat="43.59463" lon="6.50463">
        <ele>597</ele>
        <time>2012-04-01T08:49:59Z</time>
      </trkpt>
      <trkpt lat="43.59483" lon="6.50426">
        <ele>598</ele>
        <time>2012-04-01T08:50:09Z</time>
      </trkpt>
      <trkpt lat="43.59489" lon="6.50404">
        <ele>595</ele>
        <time>2012-04-01T08:50:20Z</time>
      </trkpt>
      <trkpt lat="43.59492" lon="6.50387">
        <ele>595</ele>
        <time>2012-04-01T08:50:30Z</time>
      </trkpt>
      <trkpt lat="43.59496" lon="6.50366">
        <ele>599</ele>
        <time>2012-04-01T08:50:41Z</time>
      </trkpt>
      <trkpt lat="43.59505" lon="6.50349">
        <ele>599</ele>
        <time>2012-04-01T08:50:51Z</time>
      </trkpt>
      <trkpt lat="43.5951" lon="6.50332">
        <ele>600</ele>
        <time>2012-04-01T08:51:01Z</time>
      </trkpt>
      <trkpt lat="43.59515" lon="6.50315">
        <ele>607</ele>
        <time>2012-04-01T08:51:11Z</time>
      </trkpt>
      <trkpt lat="43.59522" lon="6.50295">
        <ele>607</ele>
        <time>2012-04-01T08:51:21Z</time>
      </trkpt>
      <trkpt lat="43.5953" lon="6.50275">
        <ele>607</ele>
        <time>2012-04-01T08:51:31Z</time>
      </trkpt>
      <trkpt lat="43.59536" lon="6.5026">
        <ele>613</ele>
        <time>2012-04-01T08:51:41Z</time>
      </trkpt>
      <trkpt lat="43.59542" lon="6.50238">
        <ele>613</ele>
        <time>2012-04-01T08:51:52Z</time>
      </trkpt>
      <trkpt lat="43.59549" lon="6.50216">
        <ele>615</ele>
        <time>2012-04-01T08:52:02Z</time>
      </trkpt>
      <trkpt lat="43.59556" lon="6.50194">
        <ele>615</ele>
        <time>2012-04-01T08:52:12Z</time>
      </trkpt>
      <trkpt lat="43.59561" lon="6.50174">
        <ele>615</ele>
        <time>2012-04-01T08:52:22Z</time>
      </trkpt>
      <trkpt lat="43.59564" lon="6.5015">
        <ele>615</ele>
        <time>2012-04-01T08:52:32Z</time>
      </trkpt>
      <trkpt lat="43.59568" lon="6.50126">
        <ele>614</ele>
        <time>2012-04-01T08:52:43Z</time>
      </trkpt>
      <trkpt lat="43.59571" lon="6.50104">
        <ele>613</ele>
        <time>2012-04-01T08:52:53Z</time>
      </trkpt>
      <trkpt lat="43.59572" lon="6.5008">
        <ele>613</ele>
        <time>2012-04-01T08:53:04Z</time>
      </trkpt>
      <trkpt lat="43.59573" lon="6.50059">
        <ele>613</ele>
        <time>2012-04-01T08:53:14Z</time>
      </trkpt>
      <trkpt lat="43.59574" lon="6.50039">
        <ele>620</ele>
        <time>2012-04-01T08:53:24Z</time>
      </trkpt>
      <trkpt lat="43.59576" lon="6.50022">
        <ele>624</ele>
        <time>2012-04-01T08:53:34Z</time>
      </trkpt>
      <trkpt lat="43.59581" lon="6.50002">
        <ele>626</ele>
        <time>2012-04-01T08:53:45Z</time>
      </trkpt>
      <trkpt lat="43.59586" lon="6.4998">
        <ele>628</ele>
        <time>2012-04-01T08:53:56Z</time>
      </trkpt>
      <trkpt lat="43.59592" lon="6.49962">
        <ele>628</ele>
        <time>2012-04-01T08:54:06Z</time>
      </trkpt>
      <trkpt lat="43.59593" lon="6.49943">
        <ele>629</ele>
        <time>2012-04-01T08:54:16Z</time>
      </trkpt>
      <trkpt lat="43.59591" lon="6.49921">
        <ele>629</ele>
        <time>2012-04-01T08:54:27Z</time>
      </trkpt>
      <trkpt lat="43.59589" lon="6.49905">
        <ele>629</ele>
        <time>2012-04-01T08:54:37Z</time>
      </trkpt>
      <trkpt lat="43.59587" lon="6.49889">
        <ele>629</ele>
        <time>2012-04-01T08:54:47Z</time>
      </trkpt>
      <trkpt lat="43.59584" lon="6.49872">
        <ele>631</ele>
        <time>2012-04-01T08:54:57Z</time>
      </trkpt>
      <trkpt lat="43.59583" lon="6.49852">
        <ele>632</ele>
        <time>2012-04-01T08:55:08Z</time>
      </trkpt>
      <trkpt lat="43.59579" lon="6.49834">
        <ele>634</ele>
        <time>2012-04-01T08:55:18Z</time>
      </trkpt>
      <trkpt lat="43.59575" lon="6.49815">
        <ele>634</ele>
        <time>2012-04-01T08:55:28Z</time>
      </trkpt>
      <trkpt lat="43.5957" lon="6.49796">
        <ele>636</ele>
        <time>2012-04-01T08:55:38Z</time>
      </trkpt>
      <trkpt lat="43.59565" lon="6.49776">
        <ele>639</ele>
        <time>2012-04-01T08:55:48Z</time>
      </trkpt>
      <trkpt lat="43.59559" lon="6.49757">
        <ele>640</ele>
        <time>2012-04-01T08:55:58Z</time>
      </trkpt>
      <trkpt lat="43.59553" lon="6.49738">
        <ele>640</ele>
        <time>2012-04-01T08:56:09Z</time>
      </trkpt>
      <trkpt lat="43.59548" lon="6.49719">
        <ele>641</ele>
        <time>2012-04-01T08:56:19Z</time>
      </trkpt>
      <trkpt lat="43.59544" lon="6.49702">
        <ele>644</ele>
        <time>2012-04-01T08:56:29Z</time>
      </trkpt>
      <trkpt lat="43.59538" lon="6.49682">
        <ele>644</ele>
        <time>2012-04-01T08:56:39Z</time>
      </trkpt>
      <trkpt lat="43.59534" lon="6.4966">
        <ele>645</ele>
        <time>2012-04-01T08:56:49Z</time>
      </trkpt>
      <trkpt lat="43.59532" lon="6.49644">
        <ele>646</ele>
        <time>2012-04-01T08:57:01Z</time>
      </trkpt>
      <trkpt lat="43.59503" lon="6.49622">
        <ele>644</ele>
        <time>2012-04-01T08:57:12Z</time>
      </trkpt>
      <trkpt lat="43.59466" lon="6.49617">
        <ele>641</ele>
        <time>2012-04-01T08:57:22Z</time>
      </trkpt>
      <trkpt lat="43.59451" lon="6.49616">
        <ele>638</ele>
        <time>2012-04-01T08:57:32Z</time>
      </trkpt>
      <trkpt lat="43.59417" lon="6.49601">
        <ele>636</ele>
        <time>2012-04-01T08:57:42Z</time>
      </trkpt>
      <trkpt lat="43.59397" lon="6.49603">
        <ele>636</ele>
        <time>2012-04-01T08:57:52Z</time>
      </trkpt>
      <trkpt lat="43.59383" lon="6.4961">
        <ele>639</ele>
        <time>2012-04-01T08:58:05Z</time>
      </trkpt>
      <trkpt lat="43.59379" lon="6.49617">
        <ele>639</ele>
        <time>2012-04-01T08:58:16Z</time>
      </trkpt>
      <trkpt lat="43.59373" lon="6.49617">
        <ele>641</ele>
        <time>2012-04-01T08:58:26Z</time>
      </trkpt>
      <trkpt lat="43.59364" lon="6.49617">
        <ele>639</ele>
        <time>2012-04-01T08:58:36Z</time>
      </trkpt>
      <trkpt lat="43.59355" lon="6.49621">
        <ele>641</ele>
        <time>2012-04-01T08:58:47Z</time>
      </trkpt>
      <trkpt lat="43.59352" lon="6.49624">
        <ele>646</ele>
        <time>2012-04-01T08:59:00Z</time>
      </trkpt>
      <trkpt lat="43.59345" lon="6.49626">
        <ele>646</ele>
        <time>2012-04-01T08:59:12Z</time>
      </trkpt>
      <trkpt lat="43.59342" lon="6.49621">
        <ele>646</ele>
        <time>2012-04-01T08:59:23Z</time>
      </trkpt>
      <trkpt lat="43.5933" lon="6.49618">
        <ele>646</ele>
        <time>2012-04-01T08:59:35Z</time>
      </trkpt>
      <trkpt lat="43.59326" lon="6.49617">
        <ele>646</ele>
        <time>2012-04-01T08:59:45Z</time>
      </trkpt>
      <trkpt lat="43.59312" lon="6.49635">
        <ele>654</ele>
        <time>2012-04-01T08:59:56Z</time>
      </trkpt>
      <trkpt lat="43.59298" lon="6.49645">
        <ele>662</ele>
        <time>2012-04-01T09:00:06Z</time>
      </trkpt>
      <trkpt lat="43.59291" lon="6.49665">
        <ele>662</ele>
        <time>2012-04-01T09:00:16Z</time>
      </trkpt>
      <trkpt lat="43.59285" lon="6.49682">
        <ele>662</ele>
        <time>2012-04-01T09:00:26Z</time>
      </trkpt>
      <trkpt lat="43.59271" lon="6.49696">
        <ele>665</ele>
        <time>2012-04-01T09:00:36Z</time>
      </trkpt>
      <trkpt lat="43.59253" lon="6.49721">
        <ele>669</ele>
        <time>2012-04-01T09:00:46Z</time>
      </trkpt>
      <trkpt lat="43.59226" lon="6.49758">
        <ele>669</ele>
        <time>2012-04-01T09:00:56Z</time>
      </trkpt>
      <trkpt lat="43.59209" lon="6.49774">
        <ele>669</ele>
        <time>2012-04-01T09:01:06Z</time>
      </trkpt>
      <trkpt lat="43.59191" lon="6.49785">
        <ele>669</ele>
        <time>2012-04-01T09:01:16Z</time>
      </trkpt>
      <trkpt lat="43.59176" lon="6.49791">
        <ele>669</ele>
        <time>2012-04-01T09:01:27Z</time>
      </trkpt>
      <trkpt lat="43.59173" lon="6.49787">
        <ele>669</ele>
        <time>2012-04-01T09:01:38Z</time>
      </trkpt>
      <trkpt lat="43.59167" lon="6.49786">
        <ele>668</ele>
        <time>2012-04-01T09:01:48Z</time>
      </trkpt>
      <trkpt lat="43.59165" lon="6.49784">
        <ele>665</ele>
        <time>2012-04-01T09:01:59Z</time>
      </trkpt>
      <trkpt lat="43.59164" lon="6.49782">
        <ele>664</ele>
        <time>2012-04-01T09:02:09Z</time>
      </trkpt>
      <trkpt lat="43.59161" lon="6.49781">
        <ele>661</ele>
        <time>2012-04-01T09:02:20Z</time>
      </trkpt>
      <trkpt lat="43.5916" lon="6.49784">
        <ele>661</ele>
        <time>2012-04-01T09:02:44Z</time>
      </trkpt>
      <trkpt lat="43.59159" lon="6.49782">
        <ele>661</ele>
        <time>2012-04-01T09:03:02Z</time>
      </trkpt>
      <trkpt lat="43.59156" lon="6.4976">
        <ele>661</ele>
        <time>2012-04-01T09:03:12Z</time>
      </trkpt>
      <trkpt lat="43.59152" lon="6.49734">
        <ele>661</ele>
        <time>2012-04-01T09:03:23Z</time>
      </trkpt>
      <trkpt lat="43.59154" lon="6.49713">
        <ele>664</ele>
        <time>2012-04-01T09:03:33Z</time>
      </trkpt>
      <trkpt lat="43.59153" lon="6.49691">
        <ele>666</ele>
        <time>2012-04-01T09:03:43Z</time>
      </trkpt>
      <trkpt lat="43.59159" lon="6.49669">
        <ele>668</ele>
        <time>2012-04-01T09:03:53Z</time>
      </trkpt>
      <trkpt lat="43.59162" lon="6.49643">
        <ele>673</ele>
        <time>2012-04-01T09:04:03Z</time>
      </trkpt>
      <trkpt lat="43.59165" lon="6.49616">
        <ele>673</ele>
        <time>2012-04-01T09:04:13Z</time>
      </trkpt>
      <trkpt lat="43.59169" lon="6.49577">
        <ele>673</ele>
        <time>2012-04-01T09:04:23Z</time>
      </trkpt>
      <trkpt lat="43.59174" lon="6.49546">
        <ele>668</ele>
        <time>2012-04-01T09:04:34Z</time>
      </trkpt>
      <trkpt lat="43.5918" lon="6.49517">
        <ele>667</ele>
        <time>2012-04-01T09:04:44Z</time>
      </trkpt>
      <trkpt lat="43.59185" lon="6.49488">
        <ele>665</ele>
        <time>2012-04-01T09:04:54Z</time>
      </trkpt>
      <trkpt lat="43.59196" lon="6.49457">
        <ele>664</ele>
        <time>2012-04-01T09:05:04Z</time>
      </trkpt>
      <trkpt lat="43.59212" lon="6.49424">
        <ele>665</ele>
        <time>2012-04-01T09:05:14Z</time>
      </trkpt>
      <trkpt lat="43.5922" lon="6.4939">
        <ele>668</ele>
        <time>2012-04-01T09:05:24Z</time>
      </trkpt>
      <trkpt lat="43.59224" lon="6.49354">
        <ele>669</ele>
        <time>2012-04-01T09:05:34Z</time>
      </trkpt>
      <trkpt lat="43.5923" lon="6.4932">
        <ele>670</ele>
        <time>2012-04-01T09:05:44Z</time>
      </trkpt>
      <trkpt lat="43.5924" lon="6.49289">
        <ele>673</ele>
        <time>2012-04-01T09:05:54Z</time>
      </trkpt>
      <trkpt lat="43.59251" lon="6.49252">
        <ele>673</ele>
        <time>2012-04-01T09:06:04Z</time>
      </trkpt>
      <trkpt lat="43.59259" lon="6.49217">
        <ele>673</ele>
        <time>2012-04-01T09:06:14Z</time>
      </trkpt>
      <trkpt lat="43.59263" lon="6.49185">
        <ele>673</ele>
        <time>2012-04-01T09:06:24Z</time>
      </trkpt>
      <trkpt lat="43.59262" lon="6.49165">
        <ele>673</ele>
        <time>2012-04-01T09:06:34Z</time>
      </trkpt>
      <trkpt lat="43.59262" lon="6.49147">
        <ele>673</ele>
        <time>2012-04-01T09:06:44Z</time>
      </trkpt>
      <trkpt lat="43.59264" lon="6.49127">
        <ele>674</ele>
        <time>2012-04-01T09:06:54Z</time>
      </trkpt>
      <trkpt lat="43.59265" lon="6.49109">
        <ele>676</ele>
        <time>2012-04-01T09:07:04Z</time>
      </trkpt>
      <trkpt lat="43.59264" lon="6.49092">
        <ele>677</ele>
        <time>2012-04-01T09:07:14Z</time>
      </trkpt>
      <trkpt lat="43.59262" lon="6.49076">
        <ele>680</ele>
        <time>2012-04-01T09:07:24Z</time>
      </trkpt>
      <trkpt lat="43.5926" lon="6.49058">
        <ele>682</ele>
        <time>2012-04-01T09:07:34Z</time>
      </trkpt>
      <trkpt lat="43.59257" lon="6.49043">
        <ele>684</ele>
        <time>2012-04-01T09:07:45Z</time>
      </trkpt>
      <trkpt lat="43.59256" lon="6.49027">
        <ele>686</ele>
        <time>2012-04-01T09:07:55Z</time>
      </trkpt>
      <trkpt lat="43.59254" lon="6.4901">
        <ele>687</ele>
        <time>2012-04-01T09:08:05Z</time>
      </trkpt>
      <trkpt lat="43.59248" lon="6.48996">
        <ele>689</ele>
        <time>2012-04-01T09:08:16Z</time>
      </trkpt>
      <trkpt lat="43.59241" lon="6.48997">
        <ele>689</ele>
        <time>2012-04-01T09:08:26Z</time>
      </trkpt>
      <trkpt lat="43.59227" lon="6.48999">
        <ele>691</ele>
        <time>2012-04-01T09:08:36Z</time>
      </trkpt>
      <trkpt lat="43.59211" lon="6.49011">
        <ele>691</ele>
        <time>2012-04-01T09:08:46Z</time>
      </trkpt>
      <trkpt lat="43.59193" lon="6.49011">
        <ele>697</ele>
        <time>2012-04-01T09:08:56Z</time>
      </trkpt>
      <trkpt lat="43.59175" lon="6.49022">
        <ele>698</ele>
        <time>2012-04-01T09:09:06Z</time>
      </trkpt>
      <trkpt lat="43.59159" lon="6.4904">
        <ele>698</ele>
        <time>2012-04-01T09:09:16Z</time>
      </trkpt>
      <trkpt lat="43.59144" lon="6.49053">
        <ele>698</ele>
        <time>2012-04-01T09:09:26Z</time>
      </trkpt>
      <trkpt lat="43.59126" lon="6.49069">
        <ele>701</ele>
        <time>2012-04-01T09:09:36Z</time>
      </trkpt>
      <trkpt lat="43.59108" lon="6.49087">
        <ele>701</ele>
        <time>2012-04-01T09:09:46Z</time>
      </trkpt>
      <trkpt lat="43.59082" lon="6.49085">
        <ele>698</ele>
        <time>2012-04-01T09:09:56Z</time>
      </trkpt>
      <trkpt lat="43.59068" lon="6.49075">
        <ele>696</ele>
        <time>2012-04-01T09:10:09Z</time>
      </trkpt>
      <trkpt lat="43.59067" lon="6.49073">
        <ele>696</ele>
        <time>2012-04-01T09:10:21Z</time>
      </trkpt>
      <trkpt lat="43.59065" lon="6.49071">
        <ele>696</ele>
        <time>2012-04-01T09:10:40Z</time>
      </trkpt>
      <trkpt lat="43.59065" lon="6.49074">
        <ele>696</ele>
        <time>2012-04-01T09:10:54Z</time>
      </trkpt>
      <trkpt lat="43.59063" lon="6.49073">
        <ele>696</ele>
        <time>2012-04-01T09:11:07Z</time>
      </trkpt>
      <trkpt lat="43.59065" lon="6.49074">
        <ele>696</ele>
        <time>2012-04-01T09:11:17Z</time>
      </trkpt>
      <trkpt lat="43.59063" lon="6.49077">
        <ele>696</ele>
        <time>2012-04-01T09:11:29Z</time>
      </trkpt>
      <trkpt lat="43.59061" lon="6.49078">
        <ele>696</ele>
        <time>2012-04-01T09:11:42Z</time>
      </trkpt>
      <trkpt lat="43.59061" lon="6.49078">
        <ele>696</ele>
        <time>2012-04-01T09:12:01Z</time>
      </trkpt>
      <trkpt lat="43.59061" lon="6.49075">
        <ele>696</ele>
        <time>2012-04-01T09:12:14Z</time>
      </trkpt>
      <trkpt lat="43.59062" lon="6.49073">
        <ele>702</ele>
        <time>2012-04-01T09:12:30Z</time>
      </trkpt>
      <trkpt lat="43.59061" lon="6.49074">
        <ele>702</ele>
        <time>2012-04-01T09:12:41Z</time>
      </trkpt>
      <trkpt lat="43.5906" lon="6.4907">
        <ele>702</ele>
        <time>2012-04-01T09:12:51Z</time>
      </trkpt>
      <trkpt lat="43.59059" lon="6.49069">
        <ele>706</ele>
        <time>2012-04-01T09:12:53Z</time>
      </trkpt>
      <trkpt lat="43.59058" lon="6.49074">
        <ele>706</ele>
        <time>2012-04-01T09:13:12Z</time>
      </trkpt>
      <trkpt lat="43.59058" lon="6.49065">
        <ele>706</ele>
        <time>2012-04-01T09:13:23Z</time>
      </trkpt>
      <trkpt lat="43.59052" lon="6.49034">
        <ele>706</ele>
        <time>2012-04-01T09:13:33Z</time>
      </trkpt>
      <trkpt lat="43.59056" lon="6.48976">
        <ele>704</ele>
        <time>2012-04-01T09:13:43Z</time>
      </trkpt>
      <trkpt lat="43.59066" lon="6.48916">
        <ele>695</ele>
        <time>2012-04-01T09:13:53Z</time>
      </trkpt>
      <trkpt lat="43.59096" lon="6.4887">
        <ele>688</ele>
        <time>2012-04-01T09:14:03Z</time>
      </trkpt>
      <trkpt lat="43.59099" lon="6.48781">
        <ele>684</ele>
        <time>2012-04-01T09:14:13Z</time>
      </trkpt>
      <trkpt lat="43.59098" lon="6.4872">
        <ele>682</ele>
        <time>2012-04-01T09:14:23Z</time>
      </trkpt>
      <trkpt lat="43.59063" lon="6.48693">
        <ele>678</ele>
        <time>2012-04-01T09:14:33Z</time>
      </trkpt>
      <trkpt lat="43.59047" lon="6.48696">
        <ele>671</ele>
        <time>2012-04-01T09:14:43Z</time>
      </trkpt>
      <trkpt lat="43.59024" lon="6.48699">
        <ele>664</ele>
        <time>2012-04-01T09:14:53Z</time>
      </trkpt>
      <trkpt lat="43.59008" lon="6.48694">
        <ele>661</ele>
        <time>2012-04-01T09:15:03Z</time>
      </trkpt>
      <trkpt lat="43.59" lon="6.48691">
        <ele>657</ele>
        <time>2012-04-01T09:15:14Z</time>
      </trkpt>
      <trkpt lat="43.58984" lon="6.4869">
        <ele>650</ele>
        <time>2012-04-01T09:15:24Z</time>
      </trkpt>
      <trkpt lat="43.58956" lon="6.48676">
        <ele>644</ele>
        <time>2012-04-01T09:15:34Z</time>
      </trkpt>
      <trkpt lat="43.58925" lon="6.48674">
        <ele>640</ele>
        <time>2012-04-01T09:15:45Z</time>
      </trkpt>
      <trkpt lat="43.58911" lon="6.48665">
        <ele>632</ele>
        <time>2012-04-01T09:15:55Z</time>
      </trkpt>
      <trkpt lat="43.58906" lon="6.48656">
        <ele>623</ele>
        <time>2012-04-01T09:16:05Z</time>
      </trkpt>
      <trkpt lat="43.58897" lon="6.48651">
        <ele>623</ele>
        <time>2012-04-01T09:16:15Z</time>
      </trkpt>
      <trkpt lat="43.5888" lon="6.48663">
        <ele>622</ele>
        <time>2012-04-01T09:16:25Z</time>
      </trkpt>
      <trkpt lat="43.58862" lon="6.48674">
        <ele>618</ele>
        <time>2012-04-01T09:16:35Z</time>
      </trkpt>
      <trkpt lat="43.58834" lon="6.48699">
        <ele>614</ele>
        <time>2012-04-01T09:16:45Z</time>
      </trkpt>
      <trkpt lat="43.5882" lon="6.48721">
        <ele>614</ele>
        <time>2012-04-01T09:16:55Z</time>
      </trkpt>
      <trkpt lat="43.58797" lon="6.48714">
        <ele>608</ele>
        <time>2012-04-01T09:17:05Z</time>
      </trkpt>
      <trkpt lat="43.58778" lon="6.48703">
        <ele>603</ele>
        <time>2012-04-01T09:17:15Z</time>
      </trkpt>
      <trkpt lat="43.58765" lon="6.48685">
        <ele>597</ele>
        <time>2012-04-01T09:17:25Z</time>
      </trkpt>
      <trkpt lat="43.58753" lon="6.48662">
        <ele>588</ele>
        <time>2012-04-01T09:17:35Z</time>
      </trkpt>
      <trkpt lat="43.58722" lon="6.48639">
        <ele>578</ele>
        <time>2012-04-01T09:17:45Z</time>
      </trkpt>
      <trkpt lat="43.58698" lon="6.48637">
        <ele>576</ele>
        <time>2012-04-01T09:17:55Z</time>
      </trkpt>
      <trkpt lat="43.58678" lon="6.4862">
        <ele>579</ele>
        <time>2012-04-01T09:18:05Z</time>
      </trkpt>
      <trkpt lat="43.58665" lon="6.48593">
        <ele>580</ele>
        <time>2012-04-01T09:18:15Z</time>
      </trkpt>
      <trkpt lat="43.58674" lon="6.48553">
        <ele>578</ele>
        <time>2012-04-01T09:18:25Z</time>
      </trkpt>
      <trkpt lat="43.58682" lon="6.48501">
        <ele>567</ele>
        <time>2012-04-01T09:18:35Z</time>
      </trkpt>
      <trkpt lat="43.58691" lon="6.48466">
        <ele>557</ele>
        <time>2012-04-01T09:18:45Z</time>
      </trkpt>
      <trkpt lat="43.58702" lon="6.4843">
        <ele>536</ele>
        <time>2012-04-01T09:18:56Z</time>
      </trkpt>
      <trkpt lat="43.58698" lon="6.48357">
        <ele>533</ele>
        <time>2012-04-01T09:19:06Z</time>
      </trkpt>
      <trkpt lat="43.58684" lon="6.48316">
        <ele>539</ele>
        <time>2012-04-01T09:19:17Z</time>
      </trkpt>
      <trkpt lat="43.58676" lon="6.48301">
        <ele>542</ele>
        <time>2012-04-01T09:19:28Z</time>
      </trkpt>
      <trkpt lat="43.58669" lon="6.48258">
        <ele>541</ele>
        <time>2012-04-01T09:19:38Z</time>
      </trkpt>
      <trkpt lat="43.58688" lon="6.48198">
        <ele>532</ele>
        <time>2012-04-01T09:19:48Z</time>
      </trkpt>
      <trkpt lat="43.58703" lon="6.48141">
        <ele>520</ele>
        <time>2012-04-01T09:19:58Z</time>
      </trkpt>
      <trkpt lat="43.58735" lon="6.48055">
        <ele>507</ele>
        <time>2012-04-01T09:20:08Z</time>
      </trkpt>
      <trkpt lat="43.58749" lon="6.4797">
        <ele>497</ele>
        <time>2012-04-01T09:20:18Z</time>
      </trkpt>
      <trkpt lat="43.58757" lon="6.47895">
        <ele>495</ele>
        <time>2012-04-01T09:20:28Z</time>
      </trkpt>
      <trkpt lat="43.58763" lon="6.47807">
        <ele>495</ele>
        <time>2012-04-01T09:20:39Z</time>
      </trkpt>
      <trkpt lat="43.58756" lon="6.4776">
        <ele>495</ele>
        <time>2012-04-01T09:20:49Z</time>
      </trkpt>
      <trkpt lat="43.58778" lon="6.47749">
        <ele>495</ele>
        <time>2012-04-01T09:20:59Z</time>
      </trkpt>
      <trkpt lat="43.58791" lon="6.47746">
        <ele>495</ele>
        <time>2012-04-01T09:21:09Z</time>
      </trkpt>
      <trkpt lat="43.58806" lon="6.47733">
        <ele>495</ele>
        <time>2012-04-01T09:21:20Z</time>
      </trkpt>
      <trkpt lat="43.58813" lon="6.4773">
        <ele>497</ele>
        <time>2012-04-01T09:21:32Z</time>
      </trkpt>
      <trkpt lat="43.58816" lon="6.47727">
        <ele>499</ele>
        <time>2012-04-01T09:21:43Z</time>
      </trkpt>
      <trkpt lat="43.58814" lon="6.4772">
        <ele>502</ele>
        <time>2012-04-01T09:21:54Z</time>
      </trkpt>
      <trkpt lat="43.58815" lon="6.47707">
        <ele>507</ele>
        <time>2012-04-01T09:22:06Z</time>
      </trkpt>
      <trkpt lat="43.58818" lon="6.47703">
        <ele>508</ele>
        <time>2012-04-01T09:22:19Z</time>
      </trkpt>
      <trkpt lat="43.58821" lon="6.47693">
        <ele>508</ele>
        <time>2012-04-01T09:22:30Z</time>
      </trkpt>
      <trkpt lat="43.58825" lon="6.47683">
        <ele>508</ele>
        <time>2012-04-01T09:22:41Z</time>
      </trkpt>
      <trkpt lat="43.58835" lon="6.47679">
        <ele>508</ele>
        <time>2012-04-01T09:22:52Z</time>
      </trkpt>
      <trkpt lat="43.58839" lon="6.47682">
        <ele>510</ele>
        <time>2012-04-01T09:23:04Z</time>
      </trkpt>
      <trkpt lat="43.58847" lon="6.4769">
        <ele>510</ele>
        <time>2012-04-01T09:23:14Z</time>
      </trkpt>
      <trkpt lat="43.58862" lon="6.47701">
        <ele>510</ele>
        <time>2012-04-01T09:23:24Z</time>
      </trkpt>
      <trkpt lat="43.58887" lon="6.47688">
        <ele>509</ele>
        <time>2012-04-01T09:23:34Z</time>
      </trkpt>
      <trkpt lat="43.58888" lon="6.47667">
        <ele>509</ele>
        <time>2012-04-01T09:23:45Z</time>
      </trkpt>
      <trkpt lat="43.58899" lon="6.47641">
        <ele>509</ele>
        <time>2012-04-01T09:23:55Z</time>
      </trkpt>
      <trkpt lat="43.58907" lon="6.47617">
        <ele>510</ele>
        <time>2012-04-01T09:24:05Z</time>
      </trkpt>
      <trkpt lat="43.5892" lon="6.47597">
        <ele>512</ele>
        <time>2012-04-01T09:24:15Z</time>
      </trkpt>
      <trkpt lat="43.58928" lon="6.47574">
        <ele>512</ele>
        <time>2012-04-01T09:24:25Z</time>
      </trkpt>
      <trkpt lat="43.58941" lon="6.4755">
        <ele>512</ele>
        <time>2012-04-01T09:24:35Z</time>
      </trkpt>
      <trkpt lat="43.58942" lon="6.47521">
        <ele>512</ele>
        <time>2012-04-01T09:24:45Z</time>
      </trkpt>
      <trkpt lat="43.58924" lon="6.47496">
        <ele>514</ele>
        <time>2012-04-01T09:24:55Z</time>
      </trkpt>
      <trkpt lat="43.58889" lon="6.47468">
        <ele>514</ele>
        <time>2012-04-01T09:25:05Z</time>
      </trkpt>
      <trkpt lat="43.58877" lon="6.47446">
        <ele>513</ele>
        <time>2012-04-01T09:25:15Z</time>
      </trkpt>
      <trkpt lat="43.58891" lon="6.4742">
        <ele>511</ele>
        <time>2012-04-01T09:25:25Z</time>
      </trkpt>
      <trkpt lat="43.58911" lon="6.47387">
        <ele>508</ele>
        <time>2012-04-01T09:25:35Z</time>
      </trkpt>
      <trkpt lat="43.58926" lon="6.4737">
        <ele>503</ele>
        <time>2012-04-01T09:25:46Z</time>
      </trkpt>
      <trkpt lat="43.58938" lon="6.4733">
        <ele>498</ele>
        <time>2012-04-01T09:25:56Z</time>
      </trkpt>
      <trkpt lat="43.58953" lon="6.47272">
        <ele>489</ele>
        <time>2012-04-01T09:26:06Z</time>
      </trkpt>
      <trkpt lat="43.58949" lon="6.47245">
        <ele>487</ele>
        <time>2012-04-01T09:26:16Z</time>
      </trkpt>
      <trkpt lat="43.58944" lon="6.4724">
        <ele>487</ele>
        <time>2012-04-01T09:26:27Z</time>
      </trkpt>
      <trkpt lat="43.5896" lon="6.47219">
        <ele>484</ele>
        <time>2012-04-01T09:26:37Z</time>
      </trkpt>
      <trkpt lat="43.58977" lon="6.47217">
        <ele>479</ele>
        <time>2012-04-01T09:26:47Z</time>
      </trkpt>
      <trkpt lat="43.58978" lon="6.47215">
        <ele>478</ele>
        <time>2012-04-01T09:27:00Z</time>
      </trkpt>
      <trkpt lat="43.58971" lon="6.47201">
        <ele>482</ele>
        <time>2012-04-01T09:27:11Z</time>
      </trkpt>
      <trkpt lat="43.58967" lon="6.47195">
        <ele>483</ele>
        <time>2012-04-01T09:27:25Z</time>
      </trkpt>
      <trkpt lat="43.58967" lon="6.47196">
        <ele>484</ele>
        <time>2012-04-01T09:27:45Z</time>
      </trkpt>
      <trkpt lat="43.58971" lon="6.47197">
        <ele>480</ele>
        <time>2012-04-01T09:27:57Z</time>
      </trkpt>
      <trkpt lat="43.58969" lon="6.4719">
        <ele>480</ele>
        <time>2012-04-01T09:28:07Z</time>
      </trkpt>
      <trkpt lat="43.58973" lon="6.4719">
        <ele>480</ele>
        <time>2012-04-01T09:28:19Z</time>
      </trkpt>
      <trkpt lat="43.58972" lon="6.47189">
        <ele>480</ele>
        <time>2012-04-01T09:28:40Z</time>
      </trkpt>
      <trkpt lat="43.58972" lon="6.47189">
        <ele>480</ele>
        <time>2012-04-01T09:28:50Z</time>
      </trkpt>
      <trkpt lat="43.58973" lon="6.47189">
        <ele>484</ele>
        <time>2012-04-01T09:29:02Z</time>
      </trkpt>
      <trkpt lat="43.58976" lon="6.47188">
        <ele>487</ele>
        <time>2012-04-01T09:29:22Z</time>
      </trkpt>
      <trkpt lat="43.58977" lon="6.47187">
        <ele>489</ele>
        <time>2012-04-01T09:29:37Z</time>
      </trkpt>
      <trkpt lat="43.58977" lon="6.47187">
        <ele>490</ele>
        <time>2012-04-01T09:29:49Z</time>
      </trkpt>
      <trkpt lat="43.58978" lon="6.47187">
        <ele>490</ele>
        <time>2012-04-01T09:30:02Z</time>
      </trkpt>
      <trkpt lat="43.58979" lon="6.47189">
        <ele>492</ele>
        <time>2012-04-01T09:30:26Z</time>
      </trkpt>
      <trkpt lat="43.58976" lon="6.4719">
        <ele>494</ele>
        <time>2012-04-01T09:30:28Z</time>
      </trkpt>
      <trkpt lat="43.58976" lon="6.47193">
        <ele>494</ele>
        <time>2012-04-01T09:30:40Z</time>
      </trkpt>
      <trkpt lat="43.58978" lon="6.47193">
        <ele>489</ele>
        <time>2012-04-01T09:30:51Z</time>
      </trkpt>
      <trkpt lat="43.5898" lon="6.47193">
        <ele>480</ele>
        <time>2012-04-01T09:31:03Z</time>
      </trkpt>
      <trkpt lat="43.58982" lon="6.47208">
        <ele>468</ele>
        <time>2012-04-01T09:31:15Z</time>
      </trkpt>
      <trkpt lat="43.58983" lon="6.47218">
        <ele>463</ele>
        <time>2012-04-01T09:31:26Z</time>
      </trkpt>
      <trkpt lat="43.58987" lon="6.47221">
        <ele>470</ele>
        <time>2012-04-01T09:31:41Z</time>
      </trkpt>
      <trkpt lat="43.58989" lon="6.47222">
        <ele>470</ele>
        <time>2012-04-01T09:31:54Z</time>
      </trkpt>
      <trkpt lat="43.58991" lon="6.47223">
        <ele>470</ele>
        <time>2012-04-01T09:32:06Z</time>
      </trkpt>
      <trkpt lat="43.5899" lon="6.47221">
        <ele>474</ele>
        <time>2012-04-01T09:32:19Z</time>
      </trkpt>
      <trkpt lat="43.58992" lon="6.47221">
        <ele>475</ele>
        <time>2012-04-01T09:32:32Z</time>
      </trkpt>
      <trkpt lat="43.58995" lon="6.47222">
        <ele>477</ele>
        <time>2012-04-01T09:32:44Z</time>
      </trkpt>
      <trkpt lat="43.58997" lon="6.47223">
        <ele>478</ele>
        <time>2012-04-01T09:32:55Z</time>
      </trkpt>
      <trkpt lat="43.58995" lon="6.47222">
        <ele>482</ele>
        <time>2012-04-01T09:33:07Z</time>
      </trkpt>
      <trkpt lat="43.58998" lon="6.47223">
        <ele>483</ele>
        <time>2012-04-01T09:33:18Z</time>
      </trkpt>
      <trkpt lat="43.58991" lon="6.47221">
        <ele>484</ele>
        <time>2012-04-01T09:33:29Z</time>
      </trkpt>
      <trkpt lat="43.58991" lon="6.47221">
        <ele>484</ele>
        <time>2012-04-01T09:33:40Z</time>
      </trkpt>
      <trkpt lat="43.58992" lon="6.47221">
        <ele>484</ele>
        <time>2012-04-01T09:33:57Z</time>
      </trkpt>
      <trkpt lat="43.58991" lon="6.47221">
        <ele>484</ele>
        <time>2012-04-01T09:34:19Z</time>
      </trkpt>
      <trkpt lat="43.58991" lon="6.47222">
        <ele>484</ele>
        <time>2012-04-01T09:34:41Z</time>
      </trkpt>
      <trkpt lat="43.58989" lon="6.47222">
        <ele>483</ele>
        <time>2012-04-01T09:34:48Z</time>
      </trkpt>
      <trkpt lat="43.58984" lon="6.47218">
        <ele>488</ele>
        <time>2012-04-01T09:35:09Z</time>
      </trkpt>
      <trkpt lat="43.58985" lon="6.4722">
        <ele>489</ele>
        <time>2012-04-01T09:35:24Z</time>
      </trkpt>
      <trkpt lat="43.58988" lon="6.47221">
        <ele>481</ele>
        <time>2012-04-01T09:35:47Z</time>
      </trkpt>
      <trkpt lat="43.58992" lon="6.47223">
        <ele>480</ele>
        <time>2012-04-01T09:35:57Z</time>
      </trkpt>
      <trkpt lat="43.58995" lon="6.47225">
        <ele>480</ele>
        <time>2012-04-01T09:36:08Z</time>
      </trkpt>
      <trkpt lat="43.58994" lon="6.47224">
        <ele>477</ele>
        <time>2012-04-01T09:36:23Z</time>
      </trkpt>
      <trkpt lat="43.58992" lon="6.47223">
        <ele>477</ele>
        <time>2012-04-01T09:36:37Z</time>
      </trkpt>
      <trkpt lat="43.58988" lon="6.47221">
        <ele>478</ele>
        <time>2012-04-01T09:36:47Z</time>
      </trkpt>
      <trkpt lat="43.58985" lon="6.47219">
        <ele>482</ele>
        <time>2012-04-01T09:37:02Z</time>
      </trkpt>
      <trkpt lat="43.58989" lon="6.47222">
        <ele>482</ele>
        <time>2012-04-01T09:37:14Z</time>
      </trkpt>
      <trkpt lat="43.58995" lon="6.47225">
        <ele>481</ele>
        <time>2012-04-01T09:37:26Z</time>
      </trkpt>
      <trkpt lat="43.58995" lon="6.47226">
        <ele>479</ele>
        <time>2012-04-01T09:37:38Z</time>
      </trkpt>
      <trkpt lat="43.58993" lon="6.47223">
        <ele>479</ele>
        <time>2012-04-01T09:37:48Z</time>
      </trkpt>
      <trkpt lat="43.58989" lon="6.47221">
        <ele>479</ele>
        <time>2012-04-01T09:38:05Z</time>
      </trkpt>
      <trkpt lat="43.58991" lon="6.47221">
        <ele>479</ele>
        <time>2012-04-01T09:38:17Z</time>
      </trkpt>
      <trkpt lat="43.58997" lon="6.47224">
        <ele>479</ele>
        <time>2012-04-01T09:38:28Z</time>
      </trkpt>
      <trkpt lat="43.58999" lon="6.47225">
        <ele>479</ele>
        <time>2012-04-01T09:38:30Z</time>
      </trkpt>
      <trkpt lat="43.58994" lon="6.47222">
        <ele>480</ele>
        <time>2012-04-01T09:38:41Z</time>
      </trkpt>
      <trkpt lat="43.5899" lon="6.4722">
        <ele>482</ele>
        <time>2012-04-01T09:38:53Z</time>
      </trkpt>
      <trkpt lat="43.58988" lon="6.4722">
        <ele>482</ele>
        <time>2012-04-01T09:39:06Z</time>
      </trkpt>
      <trkpt lat="43.58979" lon="6.4721">
        <ele>482</ele>
        <time>2012-04-01T09:39:29Z</time>
      </trkpt>
      <trkpt lat="43.5898" lon="6.47211">
        <ele>482</ele>
        <time>2012-04-01T09:39:40Z</time>
      </trkpt>
      <trkpt lat="43.5898" lon="6.47212">
        <ele>480</ele>
        <time>2012-04-01T09:39:51Z</time>
      </trkpt>
      <trkpt lat="43.58979" lon="6.47213">
        <ele>476</ele>
        <time>2012-04-01T09:39:59Z</time>
      </trkpt>
      <trkpt lat="43.58978" lon="6.47214">
        <ele>471</ele>
        <time>2012-04-01T09:40:05Z</time>
      </trkpt>
      <trkpt lat="43.58975" lon="6.47194">
        <ele>474</ele>
        <time>2012-04-01T09:40:16Z</time>
      </trkpt>
      <trkpt lat="43.58978" lon="6.47209">
        <ele>474</ele>
        <time>2012-04-01T09:40:26Z</time>
      </trkpt>
      <trkpt lat="43.58973" lon="6.47206">
        <ele>475</ele>
        <time>2012-04-01T09:40:38Z</time>
      </trkpt>
      <trkpt lat="43.58972" lon="6.47203">
        <ele>475</ele>
        <time>2012-04-01T09:40:51Z</time>
      </trkpt>
      <trkpt lat="43.58972" lon="6.47203">
        <ele>474</ele>
        <time>2012-04-01T09:41:05Z</time>
      </trkpt>
      <trkpt lat="43.58975" lon="6.47207">
        <ele>478</ele>
        <time>2012-04-01T09:41:25Z</time>
      </trkpt>
      <trkpt lat="43.58978" lon="6.4721">
        <ele>478</ele>
        <time>2012-04-01T09:41:37Z</time>
      </trkpt>
      <trkpt lat="43.58977" lon="6.47214">
        <ele>478</ele>
        <time>2012-04-01T09:41:51Z</time>
      </trkpt>
      <trkpt lat="43.58992" lon="6.47198">
        <ele>478</ele>
        <time>2012-04-01T09:42:01Z</time>
      </trkpt>
      <trkpt lat="43.58982" lon="6.47214">
        <ele>478</ele>
        <time>2012-04-01T09:42:12Z</time>
      </trkpt>
      <trkpt lat="43.5898" lon="6.47213">
        <ele>478</ele>
        <time>2012-04-01T09:42:29Z</time>
      </trkpt>
      <trkpt lat="43.58986" lon="6.47201">
        <ele>478</ele>
        <time>2012-04-01T09:42:39Z</time>
      </trkpt>
      <trkpt lat="43.58991" lon="6.47186">
        <ele>478</ele>
        <time>2012-04-01T09:42:56Z</time>
      </trkpt>
      <trkpt lat="43.58991" lon="6.47185">
        <ele>478</ele>
        <time>2012-04-01T09:42:57Z</time>
      </trkpt>
      <trkpt lat="43.58993" lon="6.47177">
        <ele>478</ele>
        <time>2012-04-01T09:43:08Z</time>
      </trkpt>
      <trkpt lat="43.58993" lon="6.47158">
        <ele>477</ele>
        <time>2012-04-01T09:43:18Z</time>
      </trkpt>
      <trkpt lat="43.58999" lon="6.47137">
        <ele>475</ele>
        <time>2012-04-01T09:43:28Z</time>
      </trkpt>
      <trkpt lat="43.5903" lon="6.47114">
        <ele>474</ele>
        <time>2012-04-01T09:43:38Z</time>
      </trkpt>
      <trkpt lat="43.59063" lon="6.47087">
        <ele>472</ele>
        <time>2012-04-01T09:43:48Z</time>
      </trkpt>
      <trkpt lat="43.59086" lon="6.47036">
        <ele>465</ele>
        <time>2012-04-01T09:43:58Z</time>
      </trkpt>
      <trkpt lat="43.591" lon="6.47015">
        <ele>465</ele>
        <time>2012-04-01T09:44:08Z</time>
      </trkpt>
      <trkpt lat="43.59121" lon="6.46995">
        <ele>465</ele>
        <time>2012-04-01T09:44:18Z</time>
      </trkpt>
      <trkpt lat="43.59144" lon="6.4698">
        <ele>468</ele>
        <time>2012-04-01T09:44:28Z</time>
      </trkpt>
      <trkpt lat="43.59154" lon="6.46954">
        <ele>468</ele>
        <time>2012-04-01T09:44:38Z</time>
      </trkpt>
      <trkpt lat="43.59148" lon="6.46934">
        <ele>470</ele>
        <time>2012-04-01T09:44:48Z</time>
      </trkpt>
      <trkpt lat="43.59137" lon="6.46924">
        <ele>472</ele>
        <time>2012-04-01T09:44:58Z</time>
      </trkpt>
      <trkpt lat="43.59122" lon="6.46924">
        <ele>474</ele>
        <time>2012-04-01T09:45:08Z</time>
      </trkpt>
      <trkpt lat="43.5911" lon="6.46922">
        <ele>477</ele>
        <time>2012-04-01T09:45:18Z</time>
      </trkpt>
      <trkpt lat="43.59102" lon="6.46916">
        <ele>482</ele>
        <time>2012-04-01T09:45:29Z</time>
      </trkpt>
      <trkpt lat="43.59092" lon="6.46902">
        <ele>485</ele>
        <time>2012-04-01T09:45:40Z</time>
      </trkpt>
      <trkpt lat="43.59093" lon="6.46899">
        <ele>486</ele>
        <time>2012-04-01T09:45:56Z</time>
      </trkpt>
      <trkpt lat="43.59093" lon="6.46896">
        <ele>489</ele>
        <time>2012-04-01T09:46:09Z</time>
      </trkpt>
      <trkpt lat="43.59089" lon="6.46894">
        <ele>489</ele>
        <time>2012-04-01T09:46:20Z</time>
      </trkpt>
      <trkpt lat="43.59088" lon="6.46895">
        <ele>489</ele>
        <time>2012-04-01T09:46:34Z</time>
      </trkpt>
      <trkpt lat="43.59082" lon="6.46894">
        <ele>489</ele>
        <time>2012-04-01T09:46:44Z</time>
      </trkpt>
      <trkpt lat="43.59076" lon="6.46893">
        <ele>489</ele>
        <time>2012-04-01T09:47:00Z</time>
      </trkpt>
      <trkpt lat="43.59068" lon="6.46894">
        <ele>489</ele>
        <time>2012-04-01T09:47:10Z</time>
      </trkpt>
      <trkpt lat="43.59057" lon="6.46894">
        <ele>491</ele>
        <time>2012-04-01T09:47:21Z</time>
      </trkpt>
      <trkpt lat="43.5905" lon="6.46885">
        <ele>493</ele>
        <time>2012-04-01T09:47:31Z</time>
      </trkpt>
      <trkpt lat="43.5905" lon="6.46883">
        <ele>496</ele>
        <time>2012-04-01T09:47:42Z</time>
      </trkpt>
      <trkpt lat="43.5904" lon="6.4687">
        <ele>500</ele>
        <time>2012-04-01T09:47:52Z</time>
      </trkpt>
      <trkpt lat="43.59032" lon="6.4685">
        <ele>502</ele>
        <time>2012-04-01T09:48:02Z</time>
      </trkpt>
      <trkpt lat="43.59025" lon="6.46831">
        <ele>505</ele>
        <time>2012-04-01T09:48:12Z</time>
      </trkpt>
      <trkpt lat="43.59018" lon="6.46814">
        <ele>509</ele>
        <time>2012-04-01T09:48:22Z</time>
      </trkpt>
      <trkpt lat="43.59011" lon="6.46799">
        <ele>511</ele>
        <time>2012-04-01T09:48:32Z</time>
      </trkpt>
      <trkpt lat="43.59006" lon="6.46784">
        <ele>511</ele>
        <time>2012-04-01T09:48:43Z</time>
      </trkpt>
      <trkpt lat="43.59003" lon="6.46769">
        <ele>515</ele>
        <time>2012-04-01T09:48:53Z</time>
      </trkpt>
      <trkpt lat="43.58999" lon="6.46755">
        <ele>517</ele>
        <time>2012-04-01T09:49:03Z</time>
      </trkpt>
      <trkpt lat="43.58995" lon="6.46738">
        <ele>518</ele>
        <time>2012-04-01T09:49:13Z</time>
      </trkpt>
      <trkpt lat="43.5899" lon="6.46722">
        <ele>520</ele>
        <time>2012-04-01T09:49:23Z</time>
      </trkpt>
      <trkpt lat="43.58984" lon="6.46704">
        <ele>520</ele>
        <time>2012-04-01T09:49:33Z</time>
      </trkpt>
      <trkpt lat="43.58981" lon="6.46685">
        <ele>520</ele>
        <time>2012-04-01T09:49:43Z</time>
      </trkpt>
      <trkpt lat="43.58976" lon="6.46665">
        <ele>520</ele>
        <time>2012-04-01T09:49:53Z</time>
      </trkpt>
      <trkpt lat="43.58971" lon="6.46646">
        <ele>520</ele>
        <time>2012-04-01T09:50:03Z</time>
      </trkpt>
      <trkpt lat="43.58964" lon="6.46629">
        <ele>520</ele>
        <time>2012-04-01T09:50:13Z</time>
      </trkpt>
      <trkpt lat="43.58954" lon="6.46617">
        <ele>521</ele>
        <time>2012-04-01T09:50:23Z</time>
      </trkpt>
      <trkpt lat="43.58951" lon="6.46601">
        <ele>523</ele>
        <time>2012-04-01T09:50:33Z</time>
      </trkpt>
      <trkpt lat="43.58952" lon="6.46594">
        <ele>524</ele>
        <time>2012-04-01T09:50:57Z</time>
      </trkpt>
      <trkpt lat="43.58953" lon="6.46599">
        <ele>530</ele>
        <time>2012-04-01T09:51:15Z</time>
      </trkpt>
      <trkpt lat="43.58955" lon="6.46597">
        <ele>530</ele>
        <time>2012-04-01T09:51:33Z</time>
      </trkpt>
      <trkpt lat="43.58957" lon="6.46595">
        <ele>529</ele>
        <time>2012-04-01T09:51:54Z</time>
      </trkpt>
      <trkpt lat="43.58967" lon="6.46563">
        <ele>529</ele>
        <time>2012-04-01T09:52:04Z</time>
      </trkpt>
      <trkpt lat="43.58971" lon="6.46545">
        <ele>527</ele>
        <time>2012-04-01T09:52:15Z</time>
      </trkpt>
      <trkpt lat="43.58973" lon="6.46528">
        <ele>526</ele>
        <time>2012-04-01T09:52:25Z</time>
      </trkpt>
      <trkpt lat="43.5898" lon="6.46503">
        <ele>527</ele>
        <time>2012-04-01T09:52:35Z</time>
      </trkpt>
      <trkpt lat="43.58992" lon="6.46486">
        <ele>527</ele>
        <time>2012-04-01T09:52:45Z</time>
      </trkpt>
      <trkpt lat="43.59004" lon="6.46478">
        <ele>533</ele>
        <time>2012-04-01T09:52:55Z</time>
      </trkpt>
      <trkpt lat="43.59017" lon="6.46484">
        <ele>538</ele>
        <time>2012-04-01T09:53:06Z</time>
      </trkpt>
      <trkpt lat="43.59018" lon="6.46483">
        <ele>539</ele>
        <time>2012-04-01T09:53:16Z</time>
      </trkpt>
      <trkpt lat="43.59024" lon="6.46471">
        <ele>542</ele>
        <time>2012-04-01T09:53:27Z</time>
      </trkpt>
      <trkpt lat="43.59026" lon="6.4646">
        <ele>542</ele>
        <time>2012-04-01T09:53:38Z</time>
      </trkpt>
      <trkpt lat="43.59028" lon="6.46457">
        <ele>542</ele>
        <time>2012-04-01T09:53:52Z</time>
      </trkpt>
      <trkpt lat="43.59028" lon="6.46455">
        <ele>542</ele>
        <time>2012-04-01T09:54:07Z</time>
      </trkpt>
      <trkpt lat="43.59038" lon="6.46433">
        <ele>542</ele>
        <time>2012-04-01T09:54:17Z</time>
      </trkpt>
      <trkpt lat="43.5905" lon="6.46414">
        <ele>544</ele>
        <time>2012-04-01T09:54:28Z</time>
      </trkpt>
      <trkpt lat="43.59057" lon="6.46402">
        <ele>544</ele>
        <time>2012-04-01T09:54:40Z</time>
      </trkpt>
      <trkpt lat="43.59056" lon="6.46396">
        <ele>539</ele>
        <time>2012-04-01T09:54:51Z</time>
      </trkpt>
      <trkpt lat="43.59058" lon="6.46392">
        <ele>538</ele>
        <time>2012-04-01T09:55:03Z</time>
      </trkpt>
      <trkpt lat="43.59063" lon="6.46365">
        <ele>536</ele>
        <time>2012-04-01T09:55:13Z</time>
      </trkpt>
      <trkpt lat="43.59056" lon="6.4633">
        <ele>535</ele>
        <time>2012-04-01T09:55:23Z</time>
      </trkpt>
      <trkpt lat="43.59062" lon="6.46303">
        <ele>534</ele>
        <time>2012-04-01T09:55:33Z</time>
      </trkpt>
      <trkpt lat="43.59069" lon="6.46286">
        <ele>534</ele>
        <time>2012-04-01T09:55:43Z</time>
      </trkpt>
      <trkpt lat="43.59083" lon="6.46255">
        <ele>534</ele>
        <time>2012-04-01T09:55:53Z</time>
      </trkpt>
      <trkpt lat="43.59084" lon="6.46218">
        <ele>529</ele>
        <time>2012-04-01T09:56:03Z</time>
      </trkpt>
      <trkpt lat="43.59086" lon="6.46214">
        <ele>529</ele>
        <time>2012-04-01T09:56:15Z</time>
      </trkpt>
      <trkpt lat="43.59091" lon="6.46209">
        <ele>530</ele>
        <time>2012-04-01T09:56:31Z</time>
      </trkpt>
      <trkpt lat="43.59088" lon="6.46188">
        <ele>530</ele>
        <time>2012-04-01T09:56:41Z</time>
      </trkpt>
      <trkpt lat="43.59086" lon="6.46155">
        <ele>525</ele>
        <time>2012-04-01T09:56:51Z</time>
      </trkpt>
      <trkpt lat="43.59081" lon="6.46159">
        <ele>525</ele>
        <time>2012-04-01T09:57:02Z</time>
      </trkpt>
      <trkpt lat="43.59083" lon="6.46147">
        <ele>526</ele>
        <time>2012-04-01T09:57:12Z</time>
      </trkpt>
      <trkpt lat="43.59082" lon="6.46123">
        <ele>526</ele>
        <time>2012-04-01T09:57:22Z</time>
      </trkpt>
      <trkpt lat="43.59074" lon="6.46099">
        <ele>526</ele>
        <time>2012-04-01T09:57:32Z</time>
      </trkpt>
      <trkpt lat="43.59066" lon="6.46074">
        <ele>526</ele>
        <time>2012-04-01T09:57:42Z</time>
      </trkpt>
      <trkpt lat="43.59065" lon="6.46048">
        <ele>526</ele>
        <time>2012-04-01T09:57:52Z</time>
      </trkpt>
      <trkpt lat="43.59063" lon="6.46022">
        <ele>526</ele>
        <time>2012-04-01T09:58:02Z</time>
      </trkpt>
      <trkpt lat="43.59062" lon="6.46017">
        <ele>528</ele>
        <time>2012-04-01T09:58:16Z</time>
      </trkpt>
      <trkpt lat="43.59058" lon="6.45995">
        <ele>531</ele>
        <time>2012-04-01T09:58:26Z</time>
      </trkpt>
      <trkpt lat="43.59055" lon="6.45965">
        <ele>531</ele>
        <time>2012-04-01T09:58:37Z</time>
      </trkpt>
      <trkpt lat="43.59059" lon="6.45937">
        <ele>531</ele>
        <time>2012-04-01T09:58:47Z</time>
      </trkpt>
      <trkpt lat="43.59058" lon="6.4591">
        <ele>531</ele>
        <time>2012-04-01T09:58:57Z</time>
      </trkpt>
      <trkpt lat="43.59053" lon="6.45886">
        <ele>532</ele>
        <time>2012-04-01T09:59:07Z</time>
      </trkpt>
      <trkpt lat="43.59048" lon="6.45865">
        <ele>532</ele>
        <time>2012-04-01T09:59:17Z</time>
      </trkpt>
      <trkpt lat="43.5904" lon="6.45845">
        <ele>534</ele>
        <time>2012-04-01T09:59:27Z</time>
      </trkpt>
      <trkpt lat="43.59037" lon="6.45824">
        <ele>535</ele>
        <time>2012-04-01T09:59:37Z</time>
      </trkpt>
      <trkpt lat="43.59036" lon="6.45804">
        <ele>536</ele>
        <time>2012-04-01T09:59:47Z</time>
      </trkpt>
      <trkpt lat="43.59041" lon="6.45785">
        <ele>538</ele>
        <time>2012-04-01T09:59:57Z</time>
      </trkpt>
      <trkpt lat="43.59041" lon="6.45767">
        <ele>540</ele>
        <time>2012-04-01T10:00:07Z</time>
      </trkpt>
      <trkpt lat="43.59029" lon="6.45758">
        <ele>541</ele>
        <time>2012-04-01T10:00:17Z</time>
      </trkpt>
      <trkpt lat="43.59015" lon="6.4575">
        <ele>542</ele>
        <time>2012-04-01T10:00:28Z</time>
      </trkpt>
      <trkpt lat="43.59004" lon="6.45739">
        <ele>543</ele>
        <time>2012-04-01T10:00:38Z</time>
      </trkpt>
      <trkpt lat="43.58995" lon="6.45724">
        <ele>545</ele>
        <time>2012-04-01T10:00:48Z</time>
      </trkpt>
      <trkpt lat="43.58989" lon="6.45706">
        <ele>546</ele>
        <time>2012-04-01T10:00:58Z</time>
      </trkpt>
      <trkpt lat="43.58981" lon="6.45689">
        <ele>548</ele>
        <time>2012-04-01T10:01:08Z</time>
      </trkpt>
      <trkpt lat="43.58967" lon="6.45678">
        <ele>549</ele>
        <time>2012-04-01T10:01:18Z</time>
      </trkpt>
      <trkpt lat="43.58951" lon="6.45668">
        <ele>550</ele>
        <time>2012-04-01T10:01:28Z</time>
      </trkpt>
      <trkpt lat="43.58934" lon="6.4566">
        <ele>550</ele>
        <time>2012-04-01T10:01:38Z</time>
      </trkpt>
      <trkpt lat="43.58916" lon="6.45654">
        <ele>551</ele>
        <time>2012-04-01T10:01:48Z</time>
      </trkpt>
      <trkpt lat="43.58903" lon="6.45637">
        <ele>553</ele>
        <time>2012-04-01T10:01:58Z</time>
      </trkpt>
      <trkpt lat="43.58899" lon="6.45616">
        <ele>556</ele>
        <time>2012-04-01T10:02:08Z</time>
      </trkpt>
      <trkpt lat="43.58898" lon="6.45593">
        <ele>558</ele>
        <time>2012-04-01T10:02:18Z</time>
      </trkpt>
      <trkpt lat="43.58898" lon="6.45571">
        <ele>559</ele>
        <time>2012-04-01T10:02:28Z</time>
      </trkpt>
      <trkpt lat="43.58898" lon="6.4555">
        <ele>560</ele>
        <time>2012-04-01T10:02:38Z</time>
      </trkpt>
      <trkpt lat="43.58897" lon="6.45532">
        <ele>561</ele>
        <time>2012-04-01T10:02:48Z</time>
      </trkpt>
      <trkpt lat="43.58893" lon="6.4551">
        <ele>562</ele>
        <time>2012-04-01T10:02:58Z</time>
      </trkpt>
      <trkpt lat="43.58886" lon="6.45488">
        <ele>562</ele>
        <time>2012-04-01T10:03:08Z</time>
      </trkpt>
      <trkpt lat="43.58878" lon="6.45467">
        <ele>562</ele>
        <time>2012-04-01T10:03:18Z</time>
      </trkpt>
      <trkpt lat="43.58869" lon="6.45446">
        <ele>563</ele>
        <time>2012-04-01T10:03:28Z</time>
      </trkpt>
      <trkpt lat="43.58861" lon="6.45423">
        <ele>564</ele>
        <time>2012-04-01T10:03:38Z</time>
      </trkpt>
      <trkpt lat="43.58856" lon="6.45397">
        <ele>564</ele>
        <time>2012-04-01T10:03:48Z</time>
      </trkpt>
      <trkpt lat="43.58858" lon="6.45369">
        <ele>564</ele>
        <time>2012-04-01T10:03:58Z</time>
      </trkpt>
      <trkpt lat="43.58864" lon="6.45344">
        <ele>565</ele>
        <time>2012-04-01T10:04:08Z</time>
      </trkpt>
      <trkpt lat="43.58868" lon="6.45321">
        <ele>567</ele>
        <time>2012-04-01T10:04:18Z</time>
      </trkpt>
      <trkpt lat="43.58872" lon="6.45298">
        <ele>568</ele>
        <time>2012-04-01T10:04:28Z</time>
      </trkpt>
      <trkpt lat="43.58875" lon="6.45275">
        <ele>569</ele>
        <time>2012-04-01T10:04:38Z</time>
      </trkpt>
      <trkpt lat="43.58877" lon="6.45254">
        <ele>572</ele>
        <time>2012-04-01T10:04:48Z</time>
      </trkpt>
      <trkpt lat="43.5888" lon="6.45235">
        <ele>574</ele>
        <time>2012-04-01T10:04:58Z</time>
      </trkpt>
      <trkpt lat="43.58884" lon="6.45215">
        <ele>575</ele>
        <time>2012-04-01T10:05:08Z</time>
      </trkpt>
      <trkpt lat="43.58886" lon="6.45197">
        <ele>575</ele>
        <time>2012-04-01T10:05:18Z</time>
      </trkpt>
      <trkpt lat="43.58893" lon="6.45176">
        <ele>576</ele>
        <time>2012-04-01T10:05:28Z</time>
      </trkpt>
      <trkpt lat="43.58899" lon="6.45152">
        <ele>577</ele>
        <time>2012-04-01T10:05:38Z</time>
      </trkpt>
      <trkpt lat="43.58901" lon="6.45125">
        <ele>577</ele>
        <time>2012-04-01T10:05:48Z</time>
      </trkpt>
      <trkpt lat="43.58893" lon="6.45096">
        <ele>577</ele>
        <time>2012-04-01T10:05:58Z</time>
      </trkpt>
      <trkpt lat="43.5889" lon="6.45047">
        <ele>577</ele>
        <time>2012-04-01T10:06:08Z</time>
      </trkpt>
      <trkpt lat="43.58904" lon="6.45005">
        <ele>577</ele>
        <time>2012-04-01T10:06:18Z</time>
      </trkpt>
      <trkpt lat="43.58922" lon="6.44973">
        <ele>577</ele>
        <time>2012-04-01T10:06:28Z</time>
      </trkpt>
      <trkpt lat="43.58939" lon="6.44951">
        <ele>578</ele>
        <time>2012-04-01T10:06:38Z</time>
      </trkpt>
      <trkpt lat="43.5896" lon="6.44936">
        <ele>580</ele>
        <time>2012-04-01T10:06:48Z</time>
      </trkpt>
      <trkpt lat="43.58982" lon="6.4492">
        <ele>581</ele>
        <time>2012-04-01T10:06:58Z</time>
      </trkpt>
      <trkpt lat="43.59007" lon="6.44906">
        <ele>581</ele>
        <time>2012-04-01T10:07:08Z</time>
      </trkpt>
      <trkpt lat="43.59026" lon="6.44882">
        <ele>582</ele>
        <time>2012-04-01T10:07:18Z</time>
      </trkpt>
      <trkpt lat="43.5904" lon="6.44849">
        <ele>582</ele>
        <time>2012-04-01T10:07:28Z</time>
      </trkpt>
      <trkpt lat="43.59052" lon="6.44819">
        <ele>582</ele>
        <time>2012-04-01T10:07:38Z</time>
      </trkpt>
      <trkpt lat="43.59058" lon="6.44792">
        <ele>582</ele>
        <time>2012-04-01T10:07:48Z</time>
      </trkpt>
      <trkpt lat="43.59065" lon="6.44767">
        <ele>584</ele>
        <time>2012-04-01T10:07:58Z</time>
      </trkpt>
      <trkpt lat="43.59076" lon="6.44747">
        <ele>585</ele>
        <time>2012-04-01T10:08:08Z</time>
      </trkpt>
      <trkpt lat="43.59083" lon="6.44722">
        <ele>586</ele>
        <time>2012-04-01T10:08:18Z</time>
      </trkpt>
      <trkpt lat="43.59087" lon="6.44694">
        <ele>589</ele>
        <time>2012-04-01T10:08:28Z</time>
      </trkpt>
      <trkpt lat="43.59089" lon="6.44667">
        <ele>591</ele>
        <time>2012-04-01T10:08:38Z</time>
      </trkpt>
      <trkpt lat="43.59091" lon="6.44642">
        <ele>593</ele>
        <time>2012-04-01T10:08:48Z</time>
      </trkpt>
      <trkpt lat="43.59095" lon="6.44617">
        <ele>593</ele>
        <time>2012-04-01T10:08:58Z</time>
      </trkpt>
      <trkpt lat="43.59102" lon="6.44592">
        <ele>593</ele>
        <time>2012-04-01T10:09:08Z</time>
      </trkpt>
      <trkpt lat="43.59111" lon="6.4457">
        <ele>594</ele>
        <time>2012-04-01T10:09:18Z</time>
      </trkpt>
      <trkpt lat="43.59123" lon="6.44551">
        <ele>596</ele>
        <time>2012-04-01T10:09:28Z</time>
      </trkpt>
      <trkpt lat="43.59135" lon="6.44533">
        <ele>597</ele>
        <time>2012-04-01T10:09:38Z</time>
      </trkpt>
      <trkpt lat="43.59148" lon="6.44517">
        <ele>598</ele>
        <time>2012-04-01T10:09:48Z</time>
      </trkpt>
      <trkpt lat="43.59156" lon="6.44494">
        <ele>598</ele>
        <time>2012-04-01T10:09:58Z</time>
      </trkpt>
      <trkpt lat="43.59152" lon="6.44473">
        <ele>599</ele>
        <time>2012-04-01T10:10:08Z</time>
      </trkpt>
      <trkpt lat="43.59147" lon="6.44455">
        <ele>600</ele>
        <time>2012-04-01T10:10:18Z</time>
      </trkpt>
      <trkpt lat="43.59142" lon="6.44439">
        <ele>600</ele>
        <time>2012-04-01T10:10:28Z</time>
      </trkpt>
      <trkpt lat="43.59137" lon="6.44422">
        <ele>600</ele>
        <time>2012-04-01T10:10:38Z</time>
      </trkpt>
      <trkpt lat="43.5913" lon="6.44405">
        <ele>600</ele>
        <time>2012-04-01T10:10:48Z</time>
      </trkpt>
      <trkpt lat="43.59121" lon="6.44388">
        <ele>600</ele>
        <time>2012-04-01T10:10:58Z</time>
      </trkpt>
      <trkpt lat="43.59112" lon="6.4437">
        <ele>600</ele>
        <time>2012-04-01T10:11:08Z</time>
      </trkpt>
      <trkpt lat="43.59104" lon="6.44347">
        <ele>602</ele>
        <time>2012-04-01T10:11:18Z</time>
      </trkpt>
      <trkpt lat="43.59098" lon="6.44323">
        <ele>603</ele>
        <time>2012-04-01T10:11:28Z</time>
      </trkpt>
      <trkpt lat="43.59095" lon="6.44303">
        <ele>604</ele>
        <time>2012-04-01T10:11:38Z</time>
      </trkpt>
      <trkpt lat="43.59089" lon="6.44282">
        <ele>606</ele>
        <time>2012-04-01T10:11:48Z</time>
      </trkpt>
      <trkpt lat="43.59084" lon="6.44264">
        <ele>608</ele>
        <time>2012-04-01T10:11:58Z</time>
      </trkpt>
      <trkpt lat="43.5908" lon="6.44246">
        <ele>609</ele>
        <time>2012-04-01T10:12:08Z</time>
      </trkpt>
      <trkpt lat="43.59078" lon="6.44228">
        <ele>611</ele>
        <time>2012-04-01T10:12:18Z</time>
      </trkpt>
      <trkpt lat="43.59074" lon="6.44208">
        <ele>613</ele>
        <time>2012-04-01T10:12:28Z</time>
      </trkpt>
      <trkpt lat="43.59066" lon="6.44192">
        <ele>615</ele>
        <time>2012-04-01T10:12:38Z</time>
      </trkpt>
      <trkpt lat="43.59051" lon="6.44183">
        <ele>616</ele>
        <time>2012-04-01T10:12:48Z</time>
      </trkpt>
      <trkpt lat="43.59027" lon="6.44174">
        <ele>616</ele>
        <time>2012-04-01T10:12:58Z</time>
      </trkpt>
      <trkpt lat="43.58993" lon="6.44166">
        <ele>616</ele>
        <time>2012-04-01T10:13:08Z</time>
      </trkpt>
      <trkpt lat="43.58968" lon="6.44157">
        <ele>616</ele>
        <time>2012-04-01T10:13:18Z</time>
      </trkpt>
      <trkpt lat="43.58928" lon="6.44143">
        <ele>616</ele>
        <time>2012-04-01T10:13:28Z</time>
      </trkpt>
      <trkpt lat="43.58871" lon="6.44108">
        <ele>614</ele>
        <time>2012-04-01T10:13:38Z</time>
      </trkpt>
      <trkpt lat="43.58819" lon="6.4403">
        <ele>607</ele>
        <time>2012-04-01T10:13:48Z</time>
      </trkpt>
      <trkpt lat="43.58814" lon="6.43927">
        <ele>603</ele>
        <time>2012-04-01T10:13:58Z</time>
      </trkpt>
      <trkpt lat="43.58796" lon="6.43842">
        <ele>601</ele>
        <time>2012-04-01T10:14:08Z</time>
      </trkpt>
      <trkpt lat="43.58781" lon="6.43798">
        <ele>601</ele>
        <time>2012-04-01T10:14:18Z</time>
      </trkpt>
      <trkpt lat="43.58779" lon="6.43762">
        <ele>601</ele>
        <time>2012-04-01T10:14:28Z</time>
      </trkpt>
      <trkpt lat="43.58788" lon="6.43729">
        <ele>601</ele>
        <time>2012-04-01T10:14:38Z</time>
      </trkpt>
      <trkpt lat="43.58795" lon="6.43692">
        <ele>601</ele>
        <time>2012-04-01T10:14:48Z</time>
      </trkpt>
      <trkpt lat="43.58799" lon="6.43642">
        <ele>601</ele>
        <time>2012-04-01T10:14:58Z</time>
      </trkpt>
      <trkpt lat="43.58786" lon="6.43586">
        <ele>600</ele>
        <time>2012-04-01T10:15:08Z</time>
      </trkpt>
      <trkpt lat="43.58772" lon="6.43537">
        <ele>599</ele>
        <time>2012-04-01T10:15:18Z</time>
      </trkpt>
      <trkpt lat="43.58752" lon="6.43483">
        <ele>598</ele>
        <time>2012-04-01T10:15:28Z</time>
      </trkpt>
      <trkpt lat="43.58734" lon="6.43431">
        <ele>597</ele>
        <time>2012-04-01T10:15:38Z</time>
      </trkpt>
      <trkpt lat="43.58715" lon="6.4338">
        <ele>596</ele>
        <time>2012-04-01T10:15:48Z</time>
      </trkpt>
      <trkpt lat="43.58686" lon="6.43333">
        <ele>596</ele>
        <time>2012-04-01T10:15:58Z</time>
      </trkpt>
      <trkpt lat="43.58653" lon="6.43291">
        <ele>595</ele>
        <time>2012-04-01T10:16:08Z</time>
      </trkpt>
      <trkpt lat="43.58628" lon="6.43261">
        <ele>595</ele>
        <time>2012-04-01T10:16:18Z</time>
      </trkpt>
      <trkpt lat="43.58609" lon="6.43239">
        <ele>595</ele>
        <time>2012-04-01T10:16:28Z</time>
      </trkpt>
      <trkpt lat="43.5859" lon="6.43219">
        <ele>595</ele>
        <time>2012-04-01T10:16:38Z</time>
      </trkpt>
      <trkpt lat="43.58569" lon="6.43199">
        <ele>595</ele>
        <time>2012-04-01T10:16:48Z</time>
      </trkpt>
      <trkpt lat="43.58545" lon="6.43181">
        <ele>595</ele>
        <time>2012-04-01T10:16:58Z</time>
      </trkpt>
      <trkpt lat="43.58521" lon="6.43168">
        <ele>595</ele>
        <time>2012-04-01T10:17:08Z</time>
      </trkpt>
      <trkpt lat="43.58494" lon="6.43165">
        <ele>596</ele>
        <time>2012-04-01T10:17:18Z</time>
      </trkpt>
      <trkpt lat="43.58468" lon="6.43162">
        <ele>598</ele>
        <time>2012-04-01T10:17:28Z</time>
      </trkpt>
      <trkpt lat="43.58445" lon="6.43158">
        <ele>599</ele>
        <time>2012-04-01T10:17:38Z</time>
      </trkpt>
      <trkpt lat="43.58422" lon="6.43152">
        <ele>600</ele>
        <time>2012-04-01T10:17:48Z</time>
      </trkpt>
      <trkpt lat="43.58401" lon="6.43147">
        <ele>602</ele>
        <time>2012-04-01T10:17:58Z</time>
      </trkpt>
      <trkpt lat="43.5838" lon="6.43141">
        <ele>603</ele>
        <time>2012-04-01T10:18:08Z</time>
      </trkpt>
      <trkpt lat="43.58358" lon="6.43132">
        <ele>603</ele>
        <time>2012-04-01T10:18:18Z</time>
      </trkpt>
      <trkpt lat="43.58332" lon="6.43127">
        <ele>604</ele>
        <time>2012-04-01T10:18:28Z</time>
      </trkpt>
      <trkpt lat="43.58303" lon="6.43131">
        <ele>605</ele>
        <time>2012-04-01T10:18:38Z</time>
      </trkpt>
      <trkpt lat="43.58271" lon="6.43135">
        <ele>605</ele>
        <time>2012-04-01T10:18:48Z</time>
      </trkpt>
      <trkpt lat="43.58238" lon="6.43144">
        <ele>605</ele>
        <time>2012-04-01T10:18:58Z</time>
      </trkpt>
      <trkpt lat="43.5822" lon="6.43181">
        <ele>605</ele>
        <time>2012-04-01T10:19:08Z</time>
      </trkpt>
      <trkpt lat="43.58199" lon="6.43226">
        <ele>605</ele>
        <time>2012-04-01T10:19:18Z</time>
      </trkpt>
      <trkpt lat="43.58182" lon="6.43284">
        <ele>605</ele>
        <time>2012-04-01T10:19:28Z</time>
      </trkpt>
      <trkpt lat="43.58156" lon="6.43358">
        <ele>605</ele>
        <time>2012-04-01T10:19:38Z</time>
      </trkpt>
      <trkpt lat="43.58137" lon="6.43413">
        <ele>605</ele>
        <time>2012-04-01T10:19:48Z</time>
      </trkpt>
      <trkpt lat="43.58137" lon="6.43456">
        <ele>605</ele>
        <time>2012-04-01T10:19:58Z</time>
      </trkpt>
      <trkpt lat="43.58142" lon="6.43503">
        <ele>605</ele>
        <time>2012-04-01T10:20:08Z</time>
      </trkpt>
      <trkpt lat="43.58144" lon="6.4355">
        <ele>605</ele>
        <time>2012-04-01T10:20:18Z</time>
      </trkpt>
      <trkpt lat="43.58138" lon="6.43597">
        <ele>605</ele>
        <time>2012-04-01T10:20:28Z</time>
      </trkpt>
      <trkpt lat="43.58132" lon="6.43638">
        <ele>605</ele>
        <time>2012-04-01T10:20:38Z</time>
      </trkpt>
      <trkpt lat="43.5813" lon="6.43677">
        <ele>605</ele>
        <time>2012-04-01T10:20:48Z</time>
      </trkpt>
      <trkpt lat="43.58129" lon="6.43715">
        <ele>605</ele>
        <time>2012-04-01T10:20:58Z</time>
      </trkpt>
      <trkpt lat="43.58124" lon="6.43753">
        <ele>605</ele>
        <time>2012-04-01T10:21:08Z</time>
      </trkpt>
      <trkpt lat="43.58116" lon="6.43787">
        <ele>605</ele>
        <time>2012-04-01T10:21:18Z</time>
      </trkpt>
      <trkpt lat="43.58106" lon="6.43824">
        <ele>605</ele>
        <time>2012-04-01T10:21:28Z</time>
      </trkpt>
      <trkpt lat="43.58099" lon="6.43861">
        <ele>605</ele>
        <time>2012-04-01T10:21:38Z</time>
      </trkpt>
      <trkpt lat="43.58082" lon="6.43907">
        <ele>605</ele>
        <time>2012-04-01T10:21:48Z</time>
      </trkpt>
      <trkpt lat="43.58078" lon="6.43961">
        <ele>605</ele>
        <time>2012-04-01T10:21:58Z</time>
      </trkpt>
      <trkpt lat="43.58068" lon="6.44002">
        <ele>605</ele>
        <time>2012-04-01T10:22:08Z</time>
      </trkpt>
      <trkpt lat="43.58057" lon="6.44048">
        <ele>605</ele>
        <time>2012-04-01T10:22:18Z</time>
      </trkpt>
      <trkpt lat="43.58034" lon="6.44087">
        <ele>605</ele>
        <time>2012-04-01T10:22:28Z</time>
      </trkpt>
      <trkpt lat="43.58009" lon="6.44131">
        <ele>602</ele>
        <time>2012-04-01T10:22:38Z</time>
      </trkpt>
      <trkpt lat="43.57983" lon="6.44192">
        <ele>599</ele>
        <time>2012-04-01T10:22:48Z</time>
      </trkpt>
      <trkpt lat="43.5796" lon="6.44251">
        <ele>596</ele>
        <time>2012-04-01T10:22:58Z</time>
      </trkpt>
      <trkpt lat="43.5795" lon="6.44295">
        <ele>593</ele>
        <time>2012-04-01T10:23:08Z</time>
      </trkpt>
      <trkpt lat="43.57945" lon="6.44346">
        <ele>590</ele>
        <time>2012-04-01T10:23:18Z</time>
      </trkpt>
      <trkpt lat="43.57956" lon="6.44396">
        <ele>586</ele>
        <time>2012-04-01T10:23:28Z</time>
      </trkpt>
      <trkpt lat="43.57978" lon="6.4443">
        <ele>584</ele>
        <time>2012-04-01T10:23:37Z</time>
      </trkpt>
      <trkpt lat="43.58002" lon="6.44455">
        <ele>584</ele>
        <time>2012-04-01T10:23:47Z</time>
      </trkpt>
      <trkpt lat="43.58016" lon="6.44511">
        <ele>584</ele>
        <time>2012-04-01T10:23:57Z</time>
      </trkpt>
      <trkpt lat="43.58041" lon="6.44571">
        <ele>581</ele>
        <time>2012-04-01T10:24:07Z</time>
      </trkpt>
      <trkpt lat="43.58072" lon="6.44612">
        <ele>579</ele>
        <time>2012-04-01T10:24:17Z</time>
      </trkpt>
      <trkpt lat="43.5809" lon="6.44659">
        <ele>577</ele>
        <time>2012-04-01T10:24:27Z</time>
      </trkpt>
      <trkpt lat="43.581" lon="6.44708">
        <ele>576</ele>
        <time>2012-04-01T10:24:37Z</time>
      </trkpt>
      <trkpt lat="43.58093" lon="6.44748">
        <ele>576</ele>
        <time>2012-04-01T10:24:47Z</time>
      </trkpt>
      <trkpt lat="43.58065" lon="6.44783">
        <ele>573</ele>
        <time>2012-04-01T10:24:57Z</time>
      </trkpt>
      <trkpt lat="43.58042" lon="6.44803">
        <ele>573</ele>
        <time>2012-04-01T10:25:07Z</time>
      </trkpt>
      <trkpt lat="43.58023" lon="6.44821">
        <ele>573</ele>
        <time>2012-04-01T10:25:17Z</time>
      </trkpt>
      <trkpt lat="43.58003" lon="6.4484">
        <ele>573</ele>
        <time>2012-04-01T10:25:27Z</time>
      </trkpt>
      <trkpt lat="43.57981" lon="6.44859">
        <ele>573</ele>
        <time>2012-04-01T10:25:37Z</time>
      </trkpt>
      <trkpt lat="43.57968" lon="6.44887">
        <ele>573</ele>
        <time>2012-04-01T10:25:47Z</time>
      </trkpt>
      <trkpt lat="43.57967" lon="6.44922">
        <ele>573</ele>
        <time>2012-04-01T10:25:57Z</time>
      </trkpt>
      <trkpt lat="43.57966" lon="6.44958">
        <ele>573</ele>
        <time>2012-04-01T10:26:07Z</time>
      </trkpt>
      <trkpt lat="43.57965" lon="6.4499">
        <ele>573</ele>
        <time>2012-04-01T10:26:17Z</time>
      </trkpt>
      <trkpt lat="43.57964" lon="6.45016">
        <ele>573</ele>
        <time>2012-04-01T10:26:27Z</time>
      </trkpt>
      <trkpt lat="43.57977" lon="6.45041">
        <ele>573</ele>
        <time>2012-04-01T10:26:37Z</time>
      </trkpt>
      <trkpt lat="43.5799" lon="6.45065">
        <ele>573</ele>
        <time>2012-04-01T10:26:47Z</time>
      </trkpt>
      <trkpt lat="43.58004" lon="6.45085">
        <ele>573</ele>
        <time>2012-04-01T10:26:57Z</time>
      </trkpt>
      <trkpt lat="43.58018" lon="6.45108">
        <ele>573</ele>
        <time>2012-04-01T10:27:07Z</time>
      </trkpt>
      <trkpt lat="43.58033" lon="6.45128">
        <ele>573</ele>
        <time>2012-04-01T10:27:17Z</time>
      </trkpt>
      <trkpt lat="43.58047" lon="6.45147">
        <ele>573</ele>
        <time>2012-04-01T10:27:27Z</time>
      </trkpt>
      <trkpt lat="43.58062" lon="6.4517">
        <ele>573</ele>
        <time>2012-04-01T10:27:37Z</time>
      </trkpt>
      <trkpt lat="43.58078" lon="6.45194">
        <ele>573</ele>
        <time>2012-04-01T10:27:47Z</time>
      </trkpt>
      <trkpt lat="43.58098" lon="6.45221">
        <ele>573</ele>
        <time>2012-04-01T10:27:57Z</time>
      </trkpt>
      <trkpt lat="43.58118" lon="6.45252">
        <ele>573</ele>
        <time>2012-04-01T10:28:07Z</time>
      </trkpt>
      <trkpt lat="43.58131" lon="6.4529">
        <ele>573</ele>
        <time>2012-04-01T10:28:17Z</time>
      </trkpt>
      <trkpt lat="43.58143" lon="6.45331">
        <ele>573</ele>
        <time>2012-04-01T10:28:27Z</time>
      </trkpt>
      <trkpt lat="43.58154" lon="6.45366">
        <ele>573</ele>
        <time>2012-04-01T10:28:37Z</time>
      </trkpt>
      <trkpt lat="43.58164" lon="6.454">
        <ele>573</ele>
        <time>2012-04-01T10:28:47Z</time>
      </trkpt>
      <trkpt lat="43.58174" lon="6.45431">
        <ele>573</ele>
        <time>2012-04-01T10:28:57Z</time>
      </trkpt>
      <trkpt lat="43.58183" lon="6.45462">
        <ele>573</ele>
        <time>2012-04-01T10:29:07Z</time>
      </trkpt>
      <trkpt lat="43.58191" lon="6.45493">
        <ele>574</ele>
        <time>2012-04-01T10:29:17Z</time>
      </trkpt>
      <trkpt lat="43.58201" lon="6.45527">
        <ele>574</ele>
        <time>2012-04-01T10:29:27Z</time>
      </trkpt>
      <trkpt lat="43.58213" lon="6.45568">
        <ele>574</ele>
        <time>2012-04-01T10:29:37Z</time>
      </trkpt>
      <trkpt lat="43.58228" lon="6.45616">
        <ele>574</ele>
        <time>2012-04-01T10:29:47Z</time>
      </trkpt>
      <trkpt lat="43.5824" lon="6.45662">
        <ele>574</ele>
        <time>2012-04-01T10:29:57Z</time>
      </trkpt>
      <trkpt lat="43.58251" lon="6.45703">
        <ele>574</ele>
        <time>2012-04-01T10:30:07Z</time>
      </trkpt>
      <trkpt lat="43.58271" lon="6.45735">
        <ele>574</ele>
        <time>2012-04-01T10:30:17Z</time>
      </trkpt>
      <trkpt lat="43.58302" lon="6.45762">
        <ele>573</ele>
        <time>2012-04-01T10:30:27Z</time>
      </trkpt>
      <trkpt lat="43.58319" lon="6.45783">
        <ele>573</ele>
        <time>2012-04-01T10:30:37Z</time>
      </trkpt>
      <trkpt lat="43.58307" lon="6.45811">
        <ele>573</ele>
        <time>2012-04-01T10:30:47Z</time>
      </trkpt>
      <trkpt lat="43.5831" lon="6.45837">
        <ele>573</ele>
        <time>2012-04-01T10:30:57Z</time>
      </trkpt>
      <trkpt lat="43.58319" lon="6.45876">
        <ele>573</ele>
        <time>2012-04-01T10:31:07Z</time>
      </trkpt>
      <trkpt lat="43.58319" lon="6.45921">
        <ele>573</ele>
        <time>2012-04-01T10:31:17Z</time>
      </trkpt>
      <trkpt lat="43.58319" lon="6.45953">
        <ele>573</ele>
        <time>2012-04-01T10:31:28Z</time>
      </trkpt>
      <trkpt lat="43.58319" lon="6.45955">
        <ele>573</ele>
        <time>2012-04-01T10:31:41Z</time>
      </trkpt>
      <trkpt lat="43.58322" lon="6.45967">
        <ele>575</ele>
        <time>2012-04-01T10:31:52Z</time>
      </trkpt>
      <trkpt lat="43.58325" lon="6.4598">
        <ele>577</ele>
        <time>2012-04-01T10:32:03Z</time>
      </trkpt>
      <trkpt lat="43.5833" lon="6.45991">
        <ele>578</ele>
        <time>2012-04-01T10:32:13Z</time>
      </trkpt>
      <trkpt lat="43.5833" lon="6.46004">
        <ele>578</ele>
        <time>2012-04-01T10:32:24Z</time>
      </trkpt>
      <trkpt lat="43.58329" lon="6.46006">
        <ele>579</ele>
        <time>2012-04-01T10:32:46Z</time>
      </trkpt>
      <trkpt lat="43.58309" lon="6.46022">
        <ele>579</ele>
        <time>2012-04-01T10:32:56Z</time>
      </trkpt>
      <trkpt lat="43.58304" lon="6.46049">
        <ele>579</ele>
        <time>2012-04-01T10:33:06Z</time>
      </trkpt>
      <trkpt lat="43.58291" lon="6.46072">
        <ele>579</ele>
        <time>2012-04-01T10:33:16Z</time>
      </trkpt>
      <trkpt lat="43.58294" lon="6.46098">
        <ele>579</ele>
        <time>2012-04-01T10:33:26Z</time>
      </trkpt>
      <trkpt lat="43.58291" lon="6.46136">
        <ele>577</ele>
        <time>2012-04-01T10:33:36Z</time>
      </trkpt>
      <trkpt lat="43.58261" lon="6.46158">
        <ele>575</ele>
        <time>2012-04-01T10:33:46Z</time>
      </trkpt>
      <trkpt lat="43.58237" lon="6.46179">
        <ele>575</ele>
        <time>2012-04-01T10:33:56Z</time>
      </trkpt>
      <trkpt lat="43.58219" lon="6.46207">
        <ele>575</ele>
        <time>2012-04-01T10:34:07Z</time>
      </trkpt>
      <trkpt lat="43.58217" lon="6.46207">
        <ele>575</ele>
        <time>2012-04-01T10:34:11Z</time>
      </trkpt>
      <trkpt lat="43.58216" lon="6.46207">
        <ele>574</ele>
        <time>2012-04-01T10:34:21Z</time>
      </trkpt>
      <trkpt lat="43.58197" lon="6.46197">
        <ele>574</ele>
        <time>2012-04-01T10:34:31Z</time>
      </trkpt>
      <trkpt lat="43.58174" lon="6.46194">
        <ele>574</ele>
        <time>2012-04-01T10:34:41Z</time>
      </trkpt>
      <trkpt lat="43.58151" lon="6.46191">
        <ele>573</ele>
        <time>2012-04-01T10:34:51Z</time>
      </trkpt>
      <trkpt lat="43.58127" lon="6.46193">
        <ele>573</ele>
        <time>2012-04-01T10:35:01Z</time>
      </trkpt>
      <trkpt lat="43.58107" lon="6.46202">
        <ele>573</ele>
        <time>2012-04-01T10:35:11Z</time>
      </trkpt>
      <trkpt lat="43.58089" lon="6.46209">
        <ele>573</ele>
        <time>2012-04-01T10:35:21Z</time>
      </trkpt>
      <trkpt lat="43.5807" lon="6.46216">
        <ele>573</ele>
        <time>2012-04-01T10:35:31Z</time>
      </trkpt>
      <trkpt lat="43.58047" lon="6.46226">
        <ele>573</ele>
        <time>2012-04-01T10:35:41Z</time>
      </trkpt>
      <trkpt lat="43.58026" lon="6.46238">
        <ele>576</ele>
        <time>2012-04-01T10:35:51Z</time>
      </trkpt>
      <trkpt lat="43.58" lon="6.46252">
        <ele>576</ele>
        <time>2012-04-01T10:36:01Z</time>
      </trkpt>
      <trkpt lat="43.57973" lon="6.46261">
        <ele>576</ele>
        <time>2012-04-01T10:36:11Z</time>
      </trkpt>
      <trkpt lat="43.57945" lon="6.46264">
        <ele>576</ele>
        <time>2012-04-01T10:36:21Z</time>
      </trkpt>
      <trkpt lat="43.57919" lon="6.46262">
        <ele>576</ele>
        <time>2012-04-01T10:36:31Z</time>
      </trkpt>
      <trkpt lat="43.57893" lon="6.46259">
        <ele>576</ele>
        <time>2012-04-01T10:36:41Z</time>
      </trkpt>
      <trkpt lat="43.57864" lon="6.4625">
        <ele>576</ele>
        <time>2012-04-01T10:36:51Z</time>
      </trkpt>
      <trkpt lat="43.57827" lon="6.46241">
        <ele>576</ele>
        <time>2012-04-01T10:37:01Z</time>
      </trkpt>
      <trkpt lat="43.57831" lon="6.46281">
        <ele>576</ele>
        <time>2012-04-01T10:37:12Z</time>
      </trkpt>
      <trkpt lat="43.57827" lon="6.46321">
        <ele>576</ele>
        <time>2012-04-01T10:37:22Z</time>
      </trkpt>
      <trkpt lat="43.5783" lon="6.46349">
        <ele>578</ele>
        <time>2012-04-01T10:37:32Z</time>
      </trkpt>
      <trkpt lat="43.57822" lon="6.46367">
        <ele>581</ele>
        <time>2012-04-01T10:37:42Z</time>
      </trkpt>
      <trkpt lat="43.57822" lon="6.46389">
        <ele>586</ele>
        <time>2012-04-01T10:37:52Z</time>
      </trkpt>
      <trkpt lat="43.57816" lon="6.46408">
        <ele>590</ele>
        <time>2012-04-01T10:38:02Z</time>
      </trkpt>
      <trkpt lat="43.57809" lon="6.46425">
        <ele>593</ele>
        <time>2012-04-01T10:38:13Z</time>
      </trkpt>
      <trkpt lat="43.57804" lon="6.46438">
        <ele>595</ele>
        <time>2012-04-01T10:38:27Z</time>
      </trkpt>
      <trkpt lat="43.57805" lon="6.46443">
        <ele>595</ele>
        <time>2012-04-01T10:38:39Z</time>
      </trkpt>
      <trkpt lat="43.57805" lon="6.46443">
        <ele>593</ele>
        <time>2012-04-01T10:39:03Z</time>
      </trkpt>
      <trkpt lat="43.57801" lon="6.46465">
        <ele>593</ele>
        <time>2012-04-01T10:39:13Z</time>
      </trkpt>
      <trkpt lat="43.57784" lon="6.46525">
        <ele>593</ele>
        <time>2012-04-01T10:39:23Z</time>
      </trkpt>
      <trkpt lat="43.57772" lon="6.46585">
        <ele>592</ele>
        <time>2012-04-01T10:39:34Z</time>
      </trkpt>
      <trkpt lat="43.57813" lon="6.46645">
        <ele>587</ele>
        <time>2012-04-01T10:39:45Z</time>
      </trkpt>
      <trkpt lat="43.57846" lon="6.46688">
        <ele>585</ele>
        <time>2012-04-01T10:39:55Z</time>
      </trkpt>
      <trkpt lat="43.57852" lon="6.46717">
        <ele>583</ele>
        <time>2012-04-01T10:40:05Z</time>
      </trkpt>
      <trkpt lat="43.57855" lon="6.46748">
        <ele>581</ele>
        <time>2012-04-01T10:40:16Z</time>
      </trkpt>
      <trkpt lat="43.57851" lon="6.46769">
        <ele>580</ele>
        <time>2012-04-01T10:40:26Z</time>
      </trkpt>
      <trkpt lat="43.57853" lon="6.46798">
        <ele>577</ele>
        <time>2012-04-01T10:40:37Z</time>
      </trkpt>
      <trkpt lat="43.5784" lon="6.46855">
        <ele>574</ele>
        <time>2012-04-01T10:40:47Z</time>
      </trkpt>
      <trkpt lat="43.57833" lon="6.46914">
        <ele>571</ele>
        <time>2012-04-01T10:40:57Z</time>
      </trkpt>
      <trkpt lat="43.57881" lon="6.46925">
        <ele>562</ele>
        <time>2012-04-01T10:41:07Z</time>
      </trkpt>
      <trkpt lat="43.57915" lon="6.46946">
        <ele>558</ele>
        <time>2012-04-01T10:41:17Z</time>
      </trkpt>
      <trkpt lat="43.57965" lon="6.46953">
        <ele>555</ele>
        <time>2012-04-01T10:41:27Z</time>
      </trkpt>
      <trkpt lat="43.5799" lon="6.46982">
        <ele>555</ele>
        <time>2012-04-01T10:41:37Z</time>
      </trkpt>
      <trkpt lat="43.58005" lon="6.47051">
        <ele>555</ele>
        <time>2012-04-01T10:41:48Z</time>
      </trkpt>
      <trkpt lat="43.58024" lon="6.4712">
        <ele>555</ele>
        <time>2012-04-01T10:41:58Z</time>
      </trkpt>
      <trkpt lat="43.58044" lon="6.47161">
        <ele>551</ele>
        <time>2012-04-01T10:42:08Z</time>
      </trkpt>
      <trkpt lat="43.58076" lon="6.47196">
        <ele>545</ele>
        <time>2012-04-01T10:42:18Z</time>
      </trkpt>
      <trkpt lat="43.58102" lon="6.47229">
        <ele>539</ele>
        <time>2012-04-01T10:42:28Z</time>
      </trkpt>
      <trkpt lat="43.58093" lon="6.47262">
        <ele>530</ele>
        <time>2012-04-01T10:42:38Z</time>
      </trkpt>
      <trkpt lat="43.58052" lon="6.47299">
        <ele>528</ele>
        <time>2012-04-01T10:42:48Z</time>
      </trkpt>
      <trkpt lat="43.58021" lon="6.47339">
        <ele>522</ele>
        <time>2012-04-01T10:42:58Z</time>
      </trkpt>
      <trkpt lat="43.57982" lon="6.47316">
        <ele>519</ele>
        <time>2012-04-01T10:43:08Z</time>
      </trkpt>
      <trkpt lat="43.57939" lon="6.47316">
        <ele>514</ele>
        <time>2012-04-01T10:43:18Z</time>
      </trkpt>
      <trkpt lat="43.57919" lon="6.47345">
        <ele>505</ele>
        <time>2012-04-01T10:43:28Z</time>
      </trkpt>
      <trkpt lat="43.57899" lon="6.47381">
        <ele>500</ele>
        <time>2012-04-01T10:43:38Z</time>
      </trkpt>
      <trkpt lat="43.57876" lon="6.47436">
        <ele>495</ele>
        <time>2012-04-01T10:43:48Z</time>
      </trkpt>
      <trkpt lat="43.57876" lon="6.47459">
        <ele>495</ele>
        <time>2012-04-01T10:43:58Z</time>
      </trkpt>
      <trkpt lat="43.57897" lon="6.47489">
        <ele>490</ele>
        <time>2012-04-01T10:44:08Z</time>
      </trkpt>
      <trkpt lat="43.57936" lon="6.475">
        <ele>481</ele>
        <time>2012-04-01T10:44:18Z</time>
      </trkpt>
      <trkpt lat="43.5797" lon="6.47509">
        <ele>477</ele>
        <time>2012-04-01T10:44:28Z</time>
      </trkpt>
      <trkpt lat="43.58005" lon="6.47536">
        <ele>472</ele>
        <time>2012-04-01T10:44:38Z</time>
      </trkpt>
      <trkpt lat="43.58044" lon="6.47564">
        <ele>467</ele>
        <time>2012-04-01T10:44:48Z</time>
      </trkpt>
      <trkpt lat="43.5806" lon="6.47597">
        <ele>461</ele>
        <time>2012-04-01T10:44:58Z</time>
      </trkpt>
      <trkpt lat="43.58064" lon="6.47634">
        <ele>457</ele>
        <time>2012-04-01T10:45:08Z</time>
      </trkpt>
      <trkpt lat="43.58072" lon="6.47667">
        <ele>450</ele>
        <time>2012-04-01T10:45:18Z</time>
      </trkpt>
      <trkpt lat="43.58086" lon="6.47701">
        <ele>442</ele>
        <time>2012-04-01T10:45:28Z</time>
      </trkpt>
      <trkpt lat="43.58088" lon="6.47733">
        <ele>438</ele>
        <time>2012-04-01T10:45:38Z</time>
      </trkpt>
      <trkpt lat="43.58082" lon="6.47796">
        <ele>430</ele>
        <time>2012-04-01T10:45:48Z</time>
      </trkpt>
      <trkpt lat="43.58109" lon="6.47846">
        <ele>424</ele>
        <time>2012-04-01T10:45:58Z</time>
      </trkpt>
      <trkpt lat="43.58103" lon="6.47881">
        <ele>423</ele>
        <time>2012-04-01T10:46:08Z</time>
      </trkpt>
      <trkpt lat="43.5808" lon="6.47922">
        <ele>423</ele>
        <time>2012-04-01T10:46:18Z</time>
      </trkpt>
      <trkpt lat="43.5807" lon="6.47918">
        <ele>423</ele>
        <time>2012-04-01T10:46:32Z</time>
      </trkpt>
      <trkpt lat="43.5806" lon="6.4791">
        <ele>423</ele>
        <time>2012-04-01T10:46:43Z</time>
      </trkpt>
      <trkpt lat="43.58048" lon="6.47906">
        <ele>423</ele>
        <time>2012-04-01T10:46:54Z</time>
      </trkpt>
      <trkpt lat="43.58037" lon="6.47905">
        <ele>423</ele>
        <time>2012-04-01T10:47:04Z</time>
      </trkpt>
      <trkpt lat="43.58029" lon="6.47904">
        <ele>426</ele>
        <time>2012-04-01T10:47:15Z</time>
      </trkpt>
      <trkpt lat="43.58018" lon="6.47902">
        <ele>429</ele>
        <time>2012-04-01T10:47:26Z</time>
      </trkpt>
      <trkpt lat="43.58012" lon="6.47899">
        <ele>432</ele>
        <time>2012-04-01T10:47:37Z</time>
      </trkpt>
      <trkpt lat="43.58008" lon="6.47897">
        <ele>433</ele>
        <time>2012-04-01T10:47:48Z</time>
      </trkpt>
      <trkpt lat="43.58004" lon="6.47888">
        <ele>435</ele>
        <time>2012-04-01T10:48:00Z</time>
      </trkpt>
      <trkpt lat="43.58001" lon="6.47883">
        <ele>436</ele>
        <time>2012-04-01T10:48:11Z</time>
      </trkpt>
      <trkpt lat="43.57997" lon="6.47875">
        <ele>437</ele>
        <time>2012-04-01T10:48:21Z</time>
      </trkpt>
      <trkpt lat="43.57994" lon="6.4787">
        <ele>438</ele>
        <time>2012-04-01T10:48:35Z</time>
      </trkpt>
      <trkpt lat="43.5799" lon="6.47862">
        <ele>439</ele>
        <time>2012-04-01T10:48:46Z</time>
      </trkpt>
      <trkpt lat="43.57989" lon="6.47857">
        <ele>442</ele>
        <time>2012-04-01T10:48:59Z</time>
      </trkpt>
      <trkpt lat="43.57988" lon="6.47848">
        <ele>444</ele>
        <time>2012-04-01T10:49:09Z</time>
      </trkpt>
      <trkpt lat="43.57987" lon="6.47843">
        <ele>448</ele>
        <time>2012-04-01T10:49:25Z</time>
      </trkpt>
      <trkpt lat="43.57985" lon="6.47832">
        <ele>451</ele>
        <time>2012-04-01T10:49:36Z</time>
      </trkpt>
      <trkpt lat="43.57982" lon="6.47822">
        <ele>452</ele>
        <time>2012-04-01T10:49:46Z</time>
      </trkpt>
      <trkpt lat="43.57981" lon="6.47817">
        <ele>452</ele>
        <time>2012-04-01T10:49:56Z</time>
      </trkpt>
      <trkpt lat="43.57982" lon="6.47803">
        <ele>453</ele>
        <time>2012-04-01T10:50:07Z</time>
      </trkpt>
      <trkpt lat="43.57982" lon="6.47788">
        <ele>454</ele>
        <time>2012-04-01T10:50:17Z</time>
      </trkpt>
      <trkpt lat="43.57982" lon="6.47775">
        <ele>455</ele>
        <time>2012-04-01T10:50:27Z</time>
      </trkpt>
      <trkpt lat="43.5798" lon="6.4776">
        <ele>455</ele>
        <time>2012-04-01T10:50:37Z</time>
      </trkpt>
      <trkpt lat="43.57978" lon="6.47746">
        <ele>456</ele>
        <time>2012-04-01T10:50:47Z</time>
      </trkpt>
      <trkpt lat="43.57977" lon="6.47733">
        <ele>458</ele>
        <time>2012-04-01T10:50:57Z</time>
      </trkpt>
      <trkpt lat="43.57976" lon="6.47718">
        <ele>459</ele>
        <time>2012-04-01T10:51:07Z</time>
      </trkpt>
      <trkpt lat="43.57975" lon="6.47705">
        <ele>460</ele>
        <time>2012-04-01T10:51:17Z</time>
      </trkpt>
      <trkpt lat="43.57972" lon="6.477">
        <ele>461</ele>
        <time>2012-04-01T10:51:27Z</time>
      </trkpt>
      <trkpt lat="43.57972" lon="6.47702">
        <ele>462</ele>
        <time>2012-04-01T10:51:42Z</time>
      </trkpt>
      <trkpt lat="43.5797" lon="6.47702">
        <ele>463</ele>
        <time>2012-04-01T10:52:01Z</time>
      </trkpt>
      <trkpt lat="43.57969" lon="6.47703">
        <ele>464</ele>
        <time>2012-04-01T10:52:15Z</time>
      </trkpt>
      <trkpt lat="43.57969" lon="6.47691">
        <ele>465</ele>
        <time>2012-04-01T10:52:26Z</time>
      </trkpt>
      <trkpt lat="43.57964" lon="6.47676">
        <ele>466</ele>
        <time>2012-04-01T10:52:37Z</time>
      </trkpt>
      <trkpt lat="43.57957" lon="6.47666">
        <ele>467</ele>
        <time>2012-04-01T10:52:47Z</time>
      </trkpt>
      <trkpt lat="43.57948" lon="6.47658">
        <ele>468</ele>
        <time>2012-04-01T10:52:58Z</time>
      </trkpt>
      <trkpt lat="43.57937" lon="6.47658">
        <ele>468</ele>
        <time>2012-04-01T10:53:08Z</time>
      </trkpt>
      <trkpt lat="43.57929" lon="6.47656">
        <ele>470</ele>
        <time>2012-04-01T10:53:18Z</time>
      </trkpt>
      <trkpt lat="43.57924" lon="6.47653">
        <ele>472</ele>
        <time>2012-04-01T10:53:29Z</time>
      </trkpt>
      <trkpt lat="43.57916" lon="6.4765">
        <ele>474</ele>
        <time>2012-04-01T10:53:39Z</time>
      </trkpt>
      <trkpt lat="43.57908" lon="6.47643">
        <ele>475</ele>
        <time>2012-04-01T10:53:49Z</time>
      </trkpt>
      <trkpt lat="43.57899" lon="6.47639">
        <ele>477</ele>
        <time>2012-04-01T10:53:59Z</time>
      </trkpt>
      <trkpt lat="43.57891" lon="6.47637">
        <ele>478</ele>
        <time>2012-04-01T10:54:09Z</time>
      </trkpt>
      <trkpt lat="43.5788" lon="6.47637">
        <ele>479</ele>
        <time>2012-04-01T10:54:20Z</time>
      </trkpt>
      <trkpt lat="43.57871" lon="6.47636">
        <ele>481</ele>
        <time>2012-04-01T10:54:30Z</time>
      </trkpt>
      <trkpt lat="43.57861" lon="6.47637">
        <ele>482</ele>
        <time>2012-04-01T10:54:41Z</time>
      </trkpt>
      <trkpt lat="43.57854" lon="6.47635">
        <ele>485</ele>
        <time>2012-04-01T10:54:51Z</time>
      </trkpt>
      <trkpt lat="43.57848" lon="6.47635">
        <ele>487</ele>
        <time>2012-04-01T10:54:53Z</time>
      </trkpt>
      <trkpt lat="43.57849" lon="6.47636">
        <ele>488</ele>
        <time>2012-04-01T10:55:12Z</time>
      </trkpt>
      <trkpt lat="43.57849" lon="6.47637">
        <ele>490</ele>
        <time>2012-04-01T10:55:33Z</time>
      </trkpt>
      <trkpt lat="43.57848" lon="6.47638">
        <ele>490</ele>
        <time>2012-04-01T10:55:38Z</time>
      </trkpt>
      <trkpt lat="43.57837" lon="6.47632">
        <ele>491</ele>
        <time>2012-04-01T10:55:48Z</time>
      </trkpt>
      <trkpt lat="43.57827" lon="6.47627">
        <ele>494</ele>
        <time>2012-04-01T10:56:01Z</time>
      </trkpt>
      <trkpt lat="43.57808" lon="6.47618">
        <ele>494</ele>
        <time>2012-04-01T10:56:11Z</time>
      </trkpt>
      <trkpt lat="43.57793" lon="6.47626">
        <ele>495</ele>
        <time>2012-04-01T10:56:21Z</time>
      </trkpt>
      <trkpt lat="43.57777" lon="6.47632">
        <ele>498</ele>
        <time>2012-04-01T10:56:31Z</time>
      </trkpt>
      <trkpt lat="43.57759" lon="6.47629">
        <ele>499</ele>
        <time>2012-04-01T10:56:41Z</time>
      </trkpt>
      <trkpt lat="43.57749" lon="6.47633">
        <ele>501</ele>
        <time>2012-04-01T10:56:55Z</time>
      </trkpt>
      <trkpt lat="43.5774" lon="6.47637">
        <ele>502</ele>
        <time>2012-04-01T10:57:05Z</time>
      </trkpt>
      <trkpt lat="43.57735" lon="6.47645">
        <ele>503</ele>
        <time>2012-04-01T10:57:15Z</time>
      </trkpt>
      <trkpt lat="43.57728" lon="6.47654">
        <ele>505</ele>
        <time>2012-04-01T10:57:25Z</time>
      </trkpt>
      <trkpt lat="43.57723" lon="6.47663">
        <ele>506</ele>
        <time>2012-04-01T10:57:35Z</time>
      </trkpt>
      <trkpt lat="43.57718" lon="6.47668">
        <ele>507</ele>
        <time>2012-04-01T10:57:47Z</time>
      </trkpt>
      <trkpt lat="43.57718" lon="6.47688">
        <ele>507</ele>
        <time>2012-04-01T10:57:57Z</time>
      </trkpt>
      <trkpt lat="43.57708" lon="6.47711">
        <ele>507</ele>
        <time>2012-04-01T10:58:07Z</time>
      </trkpt>
      <trkpt lat="43.57701" lon="6.47727">
        <ele>507</ele>
        <time>2012-04-01T10:58:18Z</time>
      </trkpt>
      <trkpt lat="43.57702" lon="6.47729">
        <ele>507</ele>
        <time>2012-04-01T10:58:34Z</time>
      </trkpt>
      <trkpt lat="43.57701" lon="6.47731">
        <ele>507</ele>
        <time>2012-04-01T10:58:59Z</time>
      </trkpt>
      <trkpt lat="43.57701" lon="6.47732">
        <ele>506</ele>
        <time>2012-04-01T10:59:23Z</time>
      </trkpt>
      <trkpt lat="43.57702" lon="6.47731">
        <ele>503</ele>
        <time>2012-04-01T10:59:43Z</time>
      </trkpt>
      <trkpt lat="43.57702" lon="6.47728">
        <ele>506</ele>
        <time>2012-04-01T10:59:54Z</time>
      </trkpt>
      <trkpt lat="43.57703" lon="6.47726">
        <ele>505</ele>
        <time>2012-04-01T11:00:02Z</time>
      </trkpt>
      <trkpt lat="43.57704" lon="6.47726">
        <ele>504</ele>
        <time>2012-04-01T11:00:21Z</time>
      </trkpt>
      <trkpt lat="43.57703" lon="6.47725">
        <ele>504</ele>
        <time>2012-04-01T11:00:40Z</time>
      </trkpt>
      <trkpt lat="43.57702" lon="6.47726">
        <ele>504</ele>
        <time>2012-04-01T11:00:59Z</time>
      </trkpt>
      <trkpt lat="43.5769" lon="6.47731">
        <ele>504</ele>
        <time>2012-04-01T11:01:09Z</time>
      </trkpt>
      <trkpt lat="43.57672" lon="6.47736">
        <ele>504</ele>
        <time>2012-04-01T11:01:19Z</time>
      </trkpt>
      <trkpt lat="43.57634" lon="6.47757">
        <ele>504</ele>
        <time>2012-04-01T11:01:29Z</time>
      </trkpt>
      <trkpt lat="43.57609" lon="6.47783">
        <ele>502</ele>
        <time>2012-04-01T11:01:39Z</time>
      </trkpt>
      <trkpt lat="43.57579" lon="6.47796">
        <ele>499</ele>
        <time>2012-04-01T11:01:49Z</time>
      </trkpt>
      <trkpt lat="43.57544" lon="6.47801">
        <ele>491</ele>
        <time>2012-04-01T11:01:59Z</time>
      </trkpt>
      <trkpt lat="43.575" lon="6.47798">
        <ele>482</ele>
        <time>2012-04-01T11:02:09Z</time>
      </trkpt>
      <trkpt lat="43.57454" lon="6.47795">
        <ele>474</ele>
        <time>2012-04-01T11:02:19Z</time>
      </trkpt>
      <trkpt lat="43.57421" lon="6.47803">
        <ele>472</ele>
        <time>2012-04-01T11:02:29Z</time>
      </trkpt>
      <trkpt lat="43.57402" lon="6.47817">
        <ele>472</ele>
        <time>2012-04-01T11:02:39Z</time>
      </trkpt>
      <trkpt lat="43.57389" lon="6.47853">
        <ele>472</ele>
        <time>2012-04-01T11:02:49Z</time>
      </trkpt>
      <trkpt lat="43.57382" lon="6.47894">
        <ele>472</ele>
        <time>2012-04-01T11:02:59Z</time>
      </trkpt>
      <trkpt lat="43.57374" lon="6.47925">
        <ele>474</ele>
        <time>2012-04-01T11:03:09Z</time>
      </trkpt>
      <trkpt lat="43.57363" lon="6.47951">
        <ele>476</ele>
        <time>2012-04-01T11:03:19Z</time>
      </trkpt>
      <trkpt lat="43.57351" lon="6.47978">
        <ele>478</ele>
        <time>2012-04-01T11:03:29Z</time>
      </trkpt>
      <trkpt lat="43.57331" lon="6.47997">
        <ele>478</ele>
        <time>2012-04-01T11:03:39Z</time>
      </trkpt>
      <trkpt lat="43.57307" lon="6.48019">
        <ele>479</ele>
        <time>2012-04-01T11:03:49Z</time>
      </trkpt>
      <trkpt lat="43.57292" lon="6.48077">
        <ele>479</ele>
        <time>2012-04-01T11:03:59Z</time>
      </trkpt>
      <trkpt lat="43.57275" lon="6.48131">
        <ele>474</ele>
        <time>2012-04-01T11:04:09Z</time>
      </trkpt>
      <trkpt lat="43.57244" lon="6.48132">
        <ele>474</ele>
        <time>2012-04-01T11:04:19Z</time>
      </trkpt>
      <trkpt lat="43.57215" lon="6.48154">
        <ele>470</ele>
        <time>2012-04-01T11:04:29Z</time>
      </trkpt>
      <trkpt lat="43.57212" lon="6.48176">
        <ele>467</ele>
        <time>2012-04-01T11:04:47Z</time>
      </trkpt>
      <trkpt lat="43.57202" lon="6.48187">
        <ele>467</ele>
        <time>2012-04-01T11:04:57Z</time>
      </trkpt>
      <trkpt lat="43.57183" lon="6.48205">
        <ele>461</ele>
        <time>2012-04-01T11:05:07Z</time>
      </trkpt>
      <trkpt lat="43.57176" lon="6.48231">
        <ele>453</ele>
        <time>2012-04-01T11:05:17Z</time>
      </trkpt>
      <trkpt lat="43.57154" lon="6.4824">
        <ele>448</ele>
        <time>2012-04-01T11:05:27Z</time>
      </trkpt>
      <trkpt lat="43.57126" lon="6.48235">
        <ele>443</ele>
        <time>2012-04-01T11:05:37Z</time>
      </trkpt>
      <trkpt lat="43.57103" lon="6.48248">
        <ele>437</ele>
        <time>2012-04-01T11:05:47Z</time>
      </trkpt>
      <trkpt lat="43.57078" lon="6.48244">
        <ele>430</ele>
        <time>2012-04-01T11:05:57Z</time>
      </trkpt>
      <trkpt lat="43.57066" lon="6.48273">
        <ele>423</ele>
        <time>2012-04-01T11:06:07Z</time>
      </trkpt>
      <trkpt lat="43.57068" lon="6.48299">
        <ele>415</ele>
        <time>2012-04-01T11:06:17Z</time>
      </trkpt>
      <trkpt lat="43.57083" lon="6.48335">
        <ele>409</ele>
        <time>2012-04-01T11:06:27Z</time>
      </trkpt>
      <trkpt lat="43.57095" lon="6.48378">
        <ele>404</ele>
        <time>2012-04-01T11:06:37Z</time>
      </trkpt>
      <trkpt lat="43.57086" lon="6.48435">
        <ele>399</ele>
        <time>2012-04-01T11:06:47Z</time>
      </trkpt>
      <trkpt lat="43.57058" lon="6.48492">
        <ele>395</ele>
        <time>2012-04-01T11:06:57Z</time>
      </trkpt>
      <trkpt lat="43.57031" lon="6.48549">
        <ele>390</ele>
        <time>2012-04-01T11:07:07Z</time>
      </trkpt>
      <trkpt lat="43.5704" lon="6.48602">
        <ele>386</ele>
        <time>2012-04-01T11:07:19Z</time>
      </trkpt>
      <trkpt lat="43.57038" lon="6.48602">
        <ele>386</ele>
        <time>2012-04-01T11:07:33Z</time>
      </trkpt>
      <trkpt lat="43.57038" lon="6.486">
        <ele>386</ele>
        <time>2012-04-01T11:07:54Z</time>
      </trkpt>
      <trkpt lat="43.57038" lon="6.48599">
        <ele>386</ele>
        <time>2012-04-01T11:07:56Z</time>
      </trkpt>
      <trkpt lat="43.57037" lon="6.48597">
        <ele>386</ele>
        <time>2012-04-01T11:08:18Z</time>
      </trkpt>
      <trkpt lat="43.57036" lon="6.48596">
        <ele>388</ele>
        <time>2012-04-01T11:08:30Z</time>
      </trkpt>
      <trkpt lat="43.57035" lon="6.48594">
        <ele>393</ele>
        <time>2012-04-01T11:08:32Z</time>
      </trkpt>
      <trkpt lat="43.57034" lon="6.48594">
        <ele>398</ele>
        <time>2012-04-01T11:08:52Z</time>
      </trkpt>
      <trkpt lat="43.57034" lon="6.48594">
        <ele>399</ele>
        <time>2012-04-01T11:09:03Z</time>
      </trkpt>
      <trkpt lat="43.57036" lon="6.48594">
        <ele>401</ele>
        <time>2012-04-01T11:09:20Z</time>
      </trkpt>
      <trkpt lat="43.57039" lon="6.486">
        <ele>384</ele>
        <time>2012-04-01T11:09:23Z</time>
      </trkpt>
      <trkpt lat="43.57039" lon="6.48598">
        <ele>382</ele>
        <time>2012-04-01T11:09:27Z</time>
      </trkpt>
      <trkpt lat="43.57039" lon="6.48602">
        <ele>382</ele>
        <time>2012-04-01T11:09:46Z</time>
      </trkpt>
      <trkpt lat="43.57025" lon="6.4866">
        <ele>382</ele>
        <time>2012-04-01T11:09:56Z</time>
      </trkpt>
      <trkpt lat="43.57036" lon="6.48728">
        <ele>380</ele>
        <time>2012-04-01T11:10:06Z</time>
      </trkpt>
      <trkpt lat="43.5705" lon="6.4879">
        <ele>380</ele>
        <time>2012-04-01T11:10:16Z</time>
      </trkpt>
      <trkpt lat="43.57058" lon="6.48853">
        <ele>380</ele>
        <time>2012-04-01T11:10:26Z</time>
      </trkpt>
      <trkpt lat="43.57084" lon="6.48931">
        <ele>371</ele>
        <time>2012-04-01T11:10:36Z</time>
      </trkpt>
      <trkpt lat="43.57073" lon="6.49023">
        <ele>366</ele>
        <time>2012-04-01T11:10:46Z</time>
      </trkpt>
      <trkpt lat="43.57071" lon="6.49079">
        <ele>365</ele>
        <time>2012-04-01T11:10:56Z</time>
      </trkpt>
      <trkpt lat="43.57056" lon="6.49088">
        <ele>362</ele>
        <time>2012-04-01T11:11:06Z</time>
      </trkpt>
      <trkpt lat="43.57051" lon="6.49117">
        <ele>357</ele>
        <time>2012-04-01T11:11:16Z</time>
      </trkpt>
      <trkpt lat="43.5704" lon="6.49158">
        <ele>351</ele>
        <time>2012-04-01T11:11:26Z</time>
      </trkpt>
      <trkpt lat="43.57026" lon="6.49196">
        <ele>344</ele>
        <time>2012-04-01T11:11:36Z</time>
      </trkpt>
      <trkpt lat="43.57036" lon="6.4926">
        <ele>338</ele>
        <time>2012-04-01T11:11:46Z</time>
      </trkpt>
      <trkpt lat="43.57019" lon="6.49301">
        <ele>331</ele>
        <time>2012-04-01T11:11:56Z</time>
      </trkpt>
      <trkpt lat="43.56993" lon="6.49356">
        <ele>324</ele>
        <time>2012-04-01T11:12:06Z</time>
      </trkpt>
      <trkpt lat="43.56974" lon="6.49428">
        <ele>315</ele>
        <time>2012-04-01T11:12:16Z</time>
      </trkpt>
      <trkpt lat="43.56983" lon="6.49502">
        <ele>310</ele>
        <time>2012-04-01T11:12:26Z</time>
      </trkpt>
      <trkpt lat="43.57006" lon="6.49506">
        <ele>309</ele>
        <time>2012-04-01T11:12:36Z</time>
      </trkpt>
      <trkpt lat="43.57027" lon="6.49479">
        <ele>309</ele>
        <time>2012-04-01T11:12:46Z</time>
      </trkpt>
      <trkpt lat="43.57059" lon="6.49523">
        <ele>309</ele>
        <time>2012-04-01T11:12:56Z</time>
      </trkpt>
      <trkpt lat="43.57087" lon="6.49566">
        <ele>309</ele>
        <time>2012-04-01T11:13:06Z</time>
      </trkpt>
      <trkpt lat="43.57111" lon="6.49607">
        <ele>309</ele>
        <time>2012-04-01T11:13:16Z</time>
      </trkpt>
      <trkpt lat="43.57094" lon="6.49644">
        <ele>309</ele>
        <time>2012-04-01T11:13:26Z</time>
      </trkpt>
      <trkpt lat="43.57093" lon="6.49677">
        <ele>309</ele>
        <time>2012-04-01T11:13:36Z</time>
      </trkpt>
      <trkpt lat="43.57127" lon="6.49688">
        <ele>309</ele>
        <time>2012-04-01T11:13:46Z</time>
      </trkpt>
      <trkpt lat="43.57148" lon="6.49686">
        <ele>309</ele>
        <time>2012-04-01T11:14:01Z</time>
      </trkpt>
      <trkpt lat="43.57149" lon="6.4968">
        <ele>309</ele>
        <time>2012-04-01T11:14:12Z</time>
      </trkpt>
      <trkpt lat="43.57147" lon="6.4969">
        <ele>309</ele>
        <time>2012-04-01T11:14:22Z</time>
      </trkpt>
      <trkpt lat="43.57146" lon="6.4969">
        <ele>310</ele>
        <time>2012-04-01T11:14:32Z</time>
      </trkpt>
      <trkpt lat="43.57147" lon="6.49681">
        <ele>313</ele>
        <time>2012-04-01T11:14:43Z</time>
      </trkpt>
      <trkpt lat="43.57146" lon="6.49681">
        <ele>313</ele>
        <time>2012-04-01T11:14:56Z</time>
      </trkpt>
      <trkpt lat="43.57145" lon="6.49693">
        <ele>313</ele>
        <time>2012-04-01T11:15:06Z</time>
      </trkpt>
      <trkpt lat="43.57144" lon="6.49685">
        <ele>321</ele>
        <time>2012-04-01T11:15:17Z</time>
      </trkpt>
      <trkpt lat="43.57145" lon="6.49681">
        <ele>323</ele>
        <time>2012-04-01T11:15:30Z</time>
      </trkpt>
      <trkpt lat="43.57143" lon="6.49684">
        <ele>326</ele>
        <time>2012-04-01T11:15:44Z</time>
      </trkpt>
      <trkpt lat="43.57144" lon="6.49684">
        <ele>327</ele>
        <time>2012-04-01T11:15:57Z</time>
      </trkpt>
      <trkpt lat="43.57146" lon="6.49678">
        <ele>324</ele>
        <time>2012-04-01T11:16:08Z</time>
      </trkpt>
      <trkpt lat="43.57146" lon="6.49676">
        <ele>323</ele>
        <time>2012-04-01T11:16:19Z</time>
      </trkpt>
      <trkpt lat="43.57143" lon="6.49673">
        <ele>322</ele>
        <time>2012-04-01T11:16:21Z</time>
      </trkpt>
      <trkpt lat="43.57145" lon="6.49671">
        <ele>320</ele>
        <time>2012-04-01T11:16:40Z</time>
      </trkpt>
      <trkpt lat="43.57144" lon="6.49672">
        <ele>320</ele>
        <time>2012-04-01T11:16:49Z</time>
      </trkpt>
      <trkpt lat="43.57141" lon="6.49674">
        <ele>311</ele>
        <time>2012-04-01T11:17:01Z</time>
      </trkpt>
      <trkpt lat="43.57141" lon="6.49675">
        <ele>311</ele>
        <time>2012-04-01T11:17:03Z</time>
      </trkpt>
    </trkseg>
  </trk>
</gpx>